Provisional Data: East Fork First Fork Sinnemahoning Creek near Logue, PA


Please select a monitoring station.
Please select start date.
Please select start date.

<
Toggle Unit: C/F Toggle Unit: C/F
Sample Time Temperature (C) Temperature (F) Specific Conductivity (mS/cm) pH   Turbidity (NTU+) DO (mg/L)
6/29/2021 12:00:00 AM 21.1 69.98 0.062 6.89 2.72 7.72
6/29/2021 12:15:00 AM 21 69.8 0.062 6.87 4.13 7.67
6/29/2021 12:30:00 AM 20.87 69.566 0.062 6.89 3.81 7.78
6/29/2021 12:45:00 AM 20.76 69.368 0.062 6.85 4.28 7.79
6/29/2021 1:00:00 AM 20.68 69.224 0.062 6.86 2.87 7.73
6/29/2021 1:15:00 AM 20.6 69.08 0.062 6.86 2.95 7.75
6/29/2021 1:30:00 AM 20.47 68.846 0.062 6.87 2.93 7.8
6/29/2021 1:45:00 AM 20.39 68.702 0.062 6.87 2.6 7.8
6/29/2021 2:00:00 AM 20.25 68.45 0.062 6.88 3.59 7.93
6/29/2021 2:15:00 AM 20.16 68.288 0.062 6.89 3.33 7.97
6/29/2021 2:30:00 AM 20.11 68.198 0.062 6.85 2.88 7.84
6/29/2021 2:45:00 AM 19.98 67.964 0.062 6.87 3.11 7.96
6/29/2021 3:00:00 AM 19.91 67.838 0.062 6.86 3.29 7.86
6/29/2021 3:15:00 AM 19.8 67.64 0.062 6.9 2.43 8.04
6/29/2021 3:30:00 AM 19.76 67.568 0.062 6.87 3.27 7.91
6/29/2021 3:45:00 AM 19.66 67.388 0.062 6.89 3.11 8
6/29/2021 4:00:00 AM 19.58 67.244 0.062 6.86 3.42 8
6/29/2021 4:15:00 AM 19.53 67.154 0.062 6.85 3.3 7.92
6/29/2021 4:30:00 AM 19.44 66.992 0.062 6.87 3.1 7.94
6/29/2021 4:45:00 AM 19.37 66.866 0.062 6.87 2.83 8.05
6/29/2021 5:00:00 AM 19.3 66.74 0.062 6.87 2.78 8.04
6/29/2021 5:15:00 AM 19.2 66.56 0.062 6.89 3.16 8.1
6/29/2021 5:30:00 AM 19.15 66.47 0.062 6.87 2.63 8.01
6/29/2021 5:45:00 AM 19.08 66.344 0.062 6.87 2.82 8.09
6/29/2021 6:00:00 AM 18.99 66.182 0.062 6.9 3.46 8.19
6/29/2021 6:15:00 AM 18.93 66.074 0.062 6.9 4.83 8.22
6/29/2021 6:30:00 AM 18.88 65.984 0.062 6.91 6.55 8.26
6/29/2021 6:45:00 AM 18.84 65.912 0.062 6.88 2.52 8.15
6/29/2021 7:00:00 AM 18.8 65.84 0.062 6.89 2.42 8.25
6/29/2021 7:15:00 AM 18.76 65.768 0.062 6.87 2.14 8.29
6/29/2021 7:30:00 AM 18.72 65.696 0.062 6.93 2.34 8.41
6/29/2021 7:45:00 AM 18.7 65.66 0.062 6.95 2.62 8.49
6/29/2021 8:00:00 AM 18.71 65.67799 0.062 6.94 2.66 8.49
6/29/2021 8:15:00 AM 18.73 65.714 0.062 6.92 2.71 8.53
6/29/2021 8:30:00 AM 18.74 65.732 0.062 6.96 2.41 8.59
6/29/2021 8:45:00 AM 18.78 65.804 0.062 6.97 2.15 8.58
6/29/2021 9:00:00 AM 18.85 65.93 0.062 6.99 2.1 8.64
6/29/2021 9:15:00 AM 18.94 66.092 0.062 6.99 2.16 8.68
6/29/2021 9:30:00 AM 18.99 66.182 0.062 6.94 8.23 8.52
6/29/2021 9:45:00 AM 19.1 66.38 0.061 6.99 2.52 8.65
6/29/2021 10:00:00 AM 19.28 66.704 0.061 7.04 2.44 8.74
6/29/2021 10:15:00 AM 19.43 66.974 0.061 7.04 4 8.69
6/29/2021 10:30:00 AM 19.52 67.136 0.061 7.07 2.26 8.75
6/29/2021 10:45:00 AM 19.73 67.514 0.061 7.06 2.85 8.69
6/29/2021 11:00:00 AM 19.89 67.802 0.061 7.06 2 8.67
6/29/2021 11:15:00 AM 20.26 68.468 0.061 7.09 2.92 8.63
6/29/2021 11:30:00 AM 20.48 68.864 0.061 7.08 1.98 8.59
6/29/2021 11:45:00 AM 20.79 69.422 0.061 7.06 4.88 8.51
6/29/2021 12:00:00 PM 21.2 70.16 0.061 7.09 2.13 8.45
6/29/2021 12:15:00 PM 21.6 70.88 0.06 7.14 1.95 8.55
6/29/2021 12:30:00 PM 22.06 71.708 0.06 7.12 1.78 8.52
6/29/2021 12:45:00 PM 22.5 72.5 0.06 7.15 2.2 8.47
6/29/2021 1:00:00 PM 22.91 73.238 0.06 7.18 2.01 8.47
6/29/2021 1:15:00 PM 23.34 74.012 0.06 7.18 1.93 8.44
6/29/2021 1:30:00 PM 23.79 74.82201 0.06 7.21 1.96 8.49
6/29/2021 1:45:00 PM 24.12 75.416 0.06 7.23 1.8 8.38
6/29/2021 2:00:00 PM 24.44 75.992 0.06 7.24 1.88 8.38
6/29/2021 2:15:00 PM 24.81 76.658 0.06 7.25 1.76 8.32
6/29/2021 2:30:00 PM 25.1 77.18 0.06 7.26 1.81 8.29
6/29/2021 2:45:00 PM 25.29 77.522 0.06 7.27 1.64 8.22
6/29/2021 3:00:00 PM 25.56 78.008 0.06 7.27 1.78 8.21
6/29/2021 3:15:00 PM 25.74 78.332 0.06 7.28 1.77 8.18
6/29/2021 3:30:00 PM 25.89 78.602 0.06 7.27 1.78 8.09
6/29/2021 3:45:00 PM 26.02 78.836 0.06 7.27 1.66 8.05
6/29/2021 4:00:00 PM 26.15 79.07 0.06 7.27 1.92 8.01
6/29/2021 4:15:00 PM 26.23 79.214 0.06 7.27 1.94 7.97
6/29/2021 4:30:00 PM 26.29 79.32201 0.06 7.25 1.69 7.94
6/29/2021 4:45:00 PM 26.25 79.25 0.06 7.26 1.8 7.88
6/29/2021 5:00:00 PM 26.3 79.34 0.06 7.24 1.89 7.83
6/29/2021 5:15:00 PM 26.28 79.304 0.06 7.24 2.38 7.81
6/29/2021 5:30:00 PM 26.11 78.998 0.06 7.22 3.49 7.74
6/29/2021 5:45:00 PM 25.91 78.638 0.06 7.16 3.11 7.47
6/29/2021 6:00:00 PM 25.74 78.332 0.061 7.13 1.98 7.44
6/29/2021 6:15:00 PM 25.62 78.116 0.061 7.06 2.12 7.29
6/29/2021 6:30:00 PM 25.48 77.864 0.061 7.08 1.98 7.28
6/29/2021 6:45:00 PM 25.33 77.594 0.061 7.09 2.07 7.37
6/29/2021 7:00:00 PM 25.22 77.396 0.061 7.06 1.99 7.29
6/29/2021 7:15:00 PM 25.04 77.07201 0.061 7.06 2.18 7.34
6/29/2021 7:30:00 PM 24.88 76.784 0.061 7.04 1.91 7.3
6/29/2021 7:45:00 PM 24.76 76.568 0.061 7.02 1.84 7.25
6/29/2021 8:00:00 PM 24.54 76.172 0.061 7.03 2.06 7.32
6/29/2021 8:15:00 PM 24.37 75.866 0.061 6.98 2.13 7.29
6/29/2021 8:30:00 PM 24.23 75.614 0.062 6.96 9.76 7.12
6/29/2021 8:45:00 PM 24.06 75.308 0.062 6.96 2.09 7.17
6/29/2021 9:00:00 PM 23.85 74.93 0.062 6.95 2.48 7.13
6/29/2021 9:15:00 PM 23.69 74.642 0.062 6.91 2.7 7.23
6/29/2021 9:30:00 PM 23.49 74.282 0.062 6.94 2.61 7.29
6/29/2021 9:45:00 PM 23.35 74.03 0.062 6.92 3.17 7.29
6/29/2021 10:00:00 PM 23.14 73.652 0.062 6.95 2.09 7.4
6/29/2021 10:15:00 PM 23.02 73.436 0.062 6.95 3.04 7.4
6/29/2021 10:30:00 PM 22.9 73.22 0.062 6.89 2.61 7.34
6/29/2021 10:45:00 PM 22.78 73.004 0.062 6.92 2.72 7.36
6/29/2021 11:00:00 PM 22.6 72.68 0.062 6.94 2.45 7.48
6/29/2021 11:15:00 PM 22.46 72.42799 0.062 6.95 2.74 7.49
6/29/2021 11:30:00 PM 22.34 72.212 0.062 6.92 2.66 7.53
6/29/2021 11:45:00 PM 22.23 72.014 0.062 6.96 2.53 7.56
6/30/2021 12:00:00 AM 22.15 71.87 0.062 6.94 2.3 7.51
6/30/2021 12:15:00 AM 22 71.6 0.062 6.92 3.21 7.5
6/30/2021 12:30:00 AM 21.86 71.348 0.062 6.95 3.64 7.58
6/30/2021 12:45:00 AM 21.76 71.168 0.062 6.93 3.53 7.5
6/30/2021 1:00:00 AM 21.63 70.934 0.062 6.94 4.62 7.57
6/30/2021 1:15:00 AM 21.52 70.736 0.062 6.94 3.93 7.59
6/30/2021 1:30:00 AM 21.43 70.574 0.063 6.92 4.85 7.53
6/30/2021 1:45:00 AM 21.31 70.358 0.062 6.95 4.59 7.65
6/30/2021 2:00:00 AM 21.2 70.16 0.063 6.93 3.98 7.61
6/30/2021 2:15:00 AM 21.08 69.944 0.062 6.94 3.97 7.7
6/30/2021 2:30:00 AM 20.97 69.746 0.062 6.96 2.93 7.76
6/30/2021 2:45:00 AM 20.89 69.602 0.062 6.94 3 7.7
6/30/2021 3:00:00 AM 20.81 69.458 0.063 6.92 2.72 7.63
6/30/2021 3:15:00 AM 20.71 69.278 0.063 6.92 2.6 7.7
6/30/2021 3:30:00 AM 20.59 69.062 0.063 6.92 3.23 7.71
6/30/2021 3:45:00 AM 20.47 68.846 0.062 6.96 2.72 7.85
6/30/2021 4:00:00 AM 20.4 68.72 0.062 6.89 4.53 7.67
6/30/2021 4:15:00 AM 20.29 68.522 0.062 6.94 3.14 7.82
6/30/2021 4:30:00 AM 20.18 68.324 0.062 6.96 3.09 7.91
6/30/2021 4:45:00 AM 20.12 68.216 0.062 6.91 2.74 7.91
6/30/2021 5:00:00 AM 20.06 68.108 0.062 6.92 3.41 7.81
6/30/2021 5:15:00 AM 19.97 67.946 0.062 6.95 2.71 7.91
6/30/2021 5:30:00 AM 19.87 67.766 0.062 6.94 3.12 7.97
6/30/2021 5:45:00 AM 19.82 67.676 0.062 6.96 2.86 7.96
6/30/2021 6:00:00 AM 19.75 67.55 0.063 6.95 3.06 7.95
6/30/2021 6:15:00 AM 19.66 67.388 0.062 6.97 2.79 8.08
6/30/2021 6:30:00 AM 19.62 67.316 0.062 6.98 2.77 8.11
6/30/2021 6:45:00 AM 19.6 67.28 0.062 6.96 2.8 8.07
6/30/2021 7:00:00 AM 19.56 67.208 0.062 6.96 2.68 8.11
6/30/2021 7:15:00 AM 19.51 67.118 0.062 6.98 2.79 8.17
6/30/2021 7:30:00 AM 19.5 67.1 0.062 6.98 2.49 8.17
6/30/2021 7:45:00 AM 19.48 67.064 0.062 6.96 10.26 8.11
6/30/2021 8:00:00 AM 19.45 67.01 0.062 7 3.04 8.26
6/30/2021 8:15:00 AM 19.46 67.028 0.062 6.99 2.86 8.23
6/30/2021 8:30:00 AM 19.48 67.064 0.062 7 2.71 8.32
6/30/2021 8:45:00 AM 19.52 67.136 0.062 7.01 2.98 8.39
6/30/2021 9:00:00 AM 19.61 67.298 0.062 7.04 10.47 8.38
6/30/2021 9:15:00 AM 19.66 67.388 0.062 7 2.58 8.45
6/30/2021 9:30:00 AM 19.62 67.316 0.062 7.06 2.84 8.47
6/30/2021 9:45:00 AM 19.7 67.46 0.062 7.04 2.88 8.51
6/30/2021 10:00:00 AM 19.91 67.838 0.062 7.08 3.26 8.51
6/30/2021 10:15:00 AM 20.04 68.07201 0.061 7.12 3.04 8.61
6/30/2021 10:30:00 AM 20.1 68.18 0.061 7.13 2.77 8.56
6/30/2021 10:45:00 AM 20.22 68.396 0.061 7.1 2.78 8.55
6/30/2021 11:00:00 AM 20.44 68.792 0.061 7.12 5.71 8.45
6/30/2021 11:15:00 AM 20.65 69.17 0.061 7.11 3.13 8.45
6/30/2021 11:30:00 AM 20.91 69.638 0.061 7.13 1.95 8.49
6/30/2021 11:45:00 AM 21.18 70.124 0.061 7.14 5.6 8.46
6/30/2021 12:00:00 PM 21.48 70.664 0.061 7.12 3.5 8.5
6/30/2021 12:15:00 PM 21.86 71.348 0.061 7.16 3.99 8.48
6/30/2021 12:30:00 PM 22.06 71.708 0.061 7.17 3.62 8.5
6/30/2021 12:45:00 PM 22.31 72.158 0.061 7.19 3.39 8.5
6/30/2021 1:00:00 PM 22.66 72.788 0.061 7.2 3.4 8.42
6/30/2021 1:15:00 PM 23.06 73.508 0.061 7.19 2.52 8.46
6/30/2021 1:30:00 PM 23.43 74.174 0.06 7.23 2.66 8.42
6/30/2021 1:45:00 PM 23.78 74.804 0.06 7.22 2.25 8.45
6/30/2021 2:00:00 PM 24.09 75.362 0.06 7.27 1.95 8.29
6/30/2021 2:15:00 PM 24.18 75.524 0.06 7.28 1.66 8.23
6/30/2021 2:30:00 PM 24.25 75.65 0.06 7.23 1.48 8.17
6/30/2021 2:45:00 PM 24.34 75.812 0.06 7.28 1.9 8.17
6/30/2021 3:00:00 PM 24.69 76.442 0.06 7.26 2.19 8.13
6/30/2021 3:15:00 PM 24.95 76.91 0.06 7.28 1.78 8.13
6/30/2021 3:30:00 PM 25.04 77.07201 0.06 7.29 1.74 8.11
6/30/2021 3:45:00 PM 25.07 77.126 0.06 7.29 1.66 8.08
6/30/2021 4:00:00 PM 25.19 77.342 0.061 7.25 2.09 8.05
6/30/2021 4:15:00 PM 25.05 77.09 0.061 7.29 2.08 8.01
6/30/2021 4:30:00 PM 24.7 76.46 0.06 7.24 1.72 7.8
6/30/2021 4:45:00 PM 24.59 76.262 0.06 7.17 2.02 7.7
6/30/2021 5:00:00 PM 24.47 76.046 0.061 7.18 1.7 7.62
6/30/2021 5:15:00 PM 24.27 75.686 0.061 7.13 2.15 7.57
6/30/2021 5:30:00 PM 24.13 75.434 0.061 7.12 1.83 7.42
6/30/2021 5:45:00 PM 23.91 75.038 0.061 7.08 1.98 7.33
6/30/2021 6:00:00 PM 23.75 74.75 0.061 7.06 1.99 7.35
6/30/2021 6:15:00 PM 23.63 74.534 0.061 7.02 2.09 7.26
6/30/2021 6:30:00 PM 23.46 74.228 0.06 7.02 1.87 7.35
6/30/2021 6:45:00 PM 23.32 73.976 0.06 6.99 2.24 7.34
6/30/2021 7:00:00 PM 23.13 73.634 0.06 7.01 2.81 7.43
6/30/2021 7:15:00 PM 22.99 73.382 0.06 7 2.09 7.44
6/30/2021 7:30:00 PM 22.87 73.166 0.06 6.98 2.11 7.4
6/30/2021 7:45:00 PM 22.68 72.824 0.06 6.95 2.27 7.43
6/30/2021 8:00:00 PM 22.56 72.608 0.06 6.95 2.74 7.43
6/30/2021 8:15:00 PM 22.43 72.374 0.06 6.97 2.4 7.45
6/30/2021 8:30:00 PM 22.3 72.14 0.06 6.96 2.43 7.46
6/30/2021 8:45:00 PM 22.14 71.852 0.06 6.96 2.74 7.47
6/30/2021 9:00:00 PM 22.03 71.654 0.06 6.96 2.88 7.51
6/30/2021 9:15:00 PM 21.93 71.474 0.061 6.95 2.96 7.49
6/30/2021 9:30:00 PM 21.76 71.168 0.061 6.96 2.97 7.57
6/30/2021 9:45:00 PM 21.69 71.042 0.061 6.96 3.01 7.58
6/30/2021 10:00:00 PM 21.56 70.808 0.061 6.93 2.95 7.59
6/30/2021 10:15:00 PM 21.46 70.628 0.061 6.96 3.99 7.63
6/30/2021 10:30:00 PM 21.37 70.466 0.061 6.93 3.11 7.62
6/30/2021 10:45:00 PM 21.26 70.268 0.061 6.96 3.19 7.63
6/30/2021 11:00:00 PM 21.17 70.106 0.061 6.95 3.64 7.63
6/30/2021 11:15:00 PM 21.08 69.944 0.061 6.96 8.04 7.68
6/30/2021 11:30:00 PM 20.98 69.764 0.061 6.95 4.9 7.7
6/30/2021 11:45:00 PM 20.9 69.62 0.061 6.96 5.71 7.74
7/1/2021 12:00:00 AM 20.81 69.458 0.061 6.94 3.83 7.77
7/1/2021 12:15:00 AM 20.75 69.35 0.061 6.97 3.4 7.79
7/1/2021 12:30:00 AM 20.67 69.206 0.061 6.97 3.41 7.79
7/1/2021 12:45:00 AM 20.58 69.044 0.061 6.96 3.28 7.85
7/1/2021 1:00:00 AM 20.53 68.954 0.061 6.94 3.97 7.83
7/1/2021 1:15:00 AM 20.47 68.846 0.061 6.94 3.58 7.85
7/1/2021 1:30:00 AM 20.43 68.774 0.061 6.96 4.58 7.85
7/1/2021 1:45:00 AM 20.35 68.63 0.061 6.94 3.56 7.9
7/1/2021 2:00:00 AM 20.31 68.558 0.061 6.97 3.42 7.88
7/1/2021 2:15:00 AM 20.26 68.468 0.061 6.96 6.45 7.89
7/1/2021 2:30:00 AM 20.2 68.36 0.061 6.97 3.51 7.95
7/1/2021 2:45:00 AM 20.14 68.252 0.061 6.97 3.69 7.97
7/1/2021 3:00:00 AM 20.09 68.162 0.061 6.95 4.18 7.96
7/1/2021 3:15:00 AM 20.03 68.054 0.061 6.97 4.64 8
7/1/2021 3:30:00 AM 19.99 67.982 0.061 6.96 3.43 7.99
7/1/2021 3:45:00 AM 19.95 67.91 0.061 6.97 3.7 7.99
7/1/2021 4:00:00 AM 19.9 67.82 0.061 6.96 3.28 7.99
7/1/2021 4:15:00 AM 19.86 67.748 0.061 6.95 3.89 7.97
7/1/2021 4:30:00 AM 19.8 67.64 0.061 6.96 5.25 8.02
7/1/2021 4:45:00 AM 19.76 67.568 0.061 6.92 3.71 8.02
7/1/2021 5:00:00 AM 19.71 67.478 0.06 6.96 3.17 8.05
7/1/2021 5:15:00 AM 19.66 67.388 0.06 6.96 3.88 8.03
7/1/2021 5:30:00 AM 19.61 67.298 0.06 6.94 4.08 8.06
7/1/2021 5:45:00 AM 19.56 67.208 0.06 6.94 3.96 8.07
7/1/2021 6:00:00 AM 19.52 67.136 0.06 6.96 3.6 8.09
7/1/2021 6:15:00 AM 19.47 67.046 0.059 6.97 3.84 8.16
7/1/2021 6:30:00 AM 19.44 66.992 0.06 6.95 4.21 8.13
7/1/2021 6:45:00 AM 19.39 66.902 0.059 6.96 4.35 8.14
7/1/2021 7:00:00 AM 19.36 66.848 0.059 6.96 3.75 8.14
7/1/2021 7:15:00 AM 19.31 66.758 0.059 6.95 4.09 8.17
7/1/2021 7:30:00 AM 19.28 66.704 0.059 6.97 4.73 8.21
7/1/2021 7:45:00 AM 19.25 66.65 0.059 6.93 4.51 8.21
7/1/2021 8:00:00 AM 19.23 66.614 0.059 6.98 3.71 8.24
7/1/2021 8:15:00 AM 19.2 66.56 0.059 7 4.18 8.32
7/1/2021 8:30:00 AM 19.16 66.488 0.059 7 3.64 8.34
7/1/2021 8:45:00 AM 19.13 66.434 0.059 7.01 4.09 8.34
7/1/2021 9:00:00 AM 19.11 66.398 0.059 7.02 4.42 8.36
7/1/2021 9:15:00 AM 19.09 66.362 0.059 7.03 4.3 8.41
7/1/2021 9:30:00 AM 19.08 66.344 0.059 7.02 11.24 8.44
7/1/2021 9:45:00 AM 19.07 66.326 0.059 7.03 3.86 8.47
7/1/2021 10:00:00 AM 19.07 66.326 0.059 7.05 3.88 8.5
7/1/2021 10:15:00 AM 19.09 66.362 0.059 7.01 3.54 8.54
7/1/2021 10:30:00 AM 19.12 66.416 0.059 7.08 3.95 8.58
7/1/2021 10:45:00 AM 19.11 66.398 0.06 7.09 3.48 8.56
7/1/2021 11:00:00 AM 19.09 66.362 0.059 7.08 3.66 8.52
7/1/2021 11:15:00 AM 19.16 66.488 0.059 7.08 4.42 8.57
7/1/2021 11:30:00 AM 19.25 66.65 0.059 7.11 3.66 8.63
7/1/2021 11:45:00 AM 19.2 66.56 0.058 7.08 4.33 8.58
7/1/2021 12:00:00 PM 19.23 66.614 0.058 7.1 3.93 8.59
7/1/2021 12:15:00 PM 19.29 66.722 0.058 7.1 3.76 8.68
7/1/2021 12:30:00 PM 19.26 66.668 0.058 7.14 3.86 8.66
7/1/2021 12:45:00 PM 19.28 66.704 0.058 7.14 3.85 8.63
7/1/2021 1:00:00 PM 19.3 66.74 0.058 7.14 3.63 8.66
7/1/2021 1:15:00 PM 19.3 66.74 0.058 7.15 3.46 8.64
7/1/2021 1:30:00 PM 19.31 66.758 0.058 7.15 3.93 8.64
7/1/2021 1:45:00 PM 19.37 66.866 0.057 7.16 2.89 8.68
7/1/2021 2:00:00 PM 19.41 66.938 0.057 7.17 3.32 8.71
7/1/2021 2:15:00 PM 19.4 66.92 0.057 7.17 3.46 8.71
7/1/2021 2:30:00 PM 19.42 66.956 0.057 7.19 3.78 8.71
7/1/2021 2:45:00 PM 19.46 67.028 0.057 7.2 3.62 8.73
7/1/2021 3:00:00 PM 19.51 67.118 0.057 7.21 3.7 8.74
7/1/2021 3:15:00 PM 19.55 67.19 0.057 7.2 3.74 8.74
7/1/2021 3:30:00 PM 19.59 67.262 0.057 7.22 4.79 8.74
7/1/2021 3:45:00 PM 19.59 67.262 0.057 7.22 4.35 8.7
7/1/2021 4:00:00 PM 19.58 67.244 0.058 7.21 4.71 8.66
7/1/2021 4:15:00 PM 19.58 67.244 0.058 7.18 4.49 8.63
7/1/2021 4:30:00 PM 19.6 67.28 0.058 7.2 4.4 8.64
7/1/2021 4:45:00 PM 19.59 67.262 0.058 7.18 4.27 8.62
7/1/2021 5:00:00 PM 19.57 67.226 0.058 7.21 3.77 8.64
7/1/2021 5:15:00 PM 19.57 67.226 0.058 7.21 3.89 8.65
7/1/2021 5:30:00 PM 19.53 67.154 0.058 7.2 4 8.64
7/1/2021 5:45:00 PM 19.47 67.046 0.058 7.2 4.31 8.61
7/1/2021 6:00:00 PM 19.43 66.974 0.058 7.18 4.15 8.58
7/1/2021 6:15:00 PM 19.37 66.866 0.058 7.16 4.13 8.53
7/1/2021 6:30:00 PM 19.3 66.74 0.058 7.15 4.14 8.49
7/1/2021 6:45:00 PM 19.26 66.668 0.058 7.14 3.99 8.46
7/1/2021 7:00:00 PM 19.19 66.542 0.058 7.12 3.89 8.45
7/1/2021 7:15:00 PM 19.13 66.434 0.058 7.11 3.99 8.44
7/1/2021 7:30:00 PM 19.05 66.29 0.058 7.11 4.07 8.45
7/1/2021 7:45:00 PM 18.98 66.164 0.058 7.09 4.17 8.41
7/1/2021 8:00:00 PM 18.91 66.038 0.058 7.08 4.31 8.43
7/1/2021 8:15:00 PM 18.83 65.894 0.058 7.07 4.47 8.44
7/1/2021 8:30:00 PM 18.77 65.786 0.058 7.07 4.46 8.43
7/1/2021 8:45:00 PM 18.7 65.66 0.058 7.06 4.01 8.43
7/1/2021 9:00:00 PM 18.64 65.552 0.058 7.06 4.06 8.41
7/1/2021 9:15:00 PM 18.58 65.444 0.058 7.04 3.77 8.4
7/1/2021 9:30:00 PM 18.52 65.336 0.058 7.04 4.07 8.39
7/1/2021 9:45:00 PM 18.46 65.228 0.058 7.04 4.27 8.39
7/1/2021 10:00:00 PM 18.4 65.12 0.058 6.98 4.17 8.4
7/1/2021 10:15:00 PM 18.33 64.994 0.059 7.02 5.17 8.42
7/1/2021 10:30:00 PM 18.28 64.904 0.059 6.98 7.52 8.41
7/1/2021 10:45:00 PM 18.22 64.796 0.059 6.99 5.77 8.44
7/1/2021 11:00:00 PM 18.16 64.688 0.059 7.02 4 8.44
7/1/2021 11:15:00 PM 18.11 64.598 0.059 7.02 3.85 8.45
7/1/2021 11:30:00 PM 18.06 64.508 0.059 6.96 5.28 8.47
7/1/2021 11:45:00 PM 18.02 64.436 0.059 7.02 4.19 8.47
7/2/2021 12:00:00 AM 17.97 64.346 0.059 7.01 4.46 8.46
7/2/2021 12:15:00 AM 17.94 64.292 0.059 7.01 6.12 8.46
7/2/2021 12:30:00 AM 17.9 64.22 0.059 7.01 4.71 8.48
7/2/2021 12:45:00 AM 17.86 64.148 0.059 7.02 4.66 8.48
7/2/2021 1:00:00 AM 17.82 64.076 0.059 6.98 5.34 8.5
7/2/2021 1:15:00 AM 17.79 64.022 0.059 7.02 5.45 8.49
7/2/2021 1:30:00 AM 17.74 63.932 0.059 7.02 4.55 8.51
7/2/2021 1:45:00 AM 17.69 63.842 0.059 7.02 4.77 8.53
7/2/2021 2:00:00 AM 17.65 63.77 0.059 7.02 4.73 8.54
7/2/2021 2:15:00 AM 17.61 63.698 0.059 7.01 4.1 8.53
7/2/2021 2:30:00 AM 17.55 63.59 0.059 7.02 4.23 8.56
7/2/2021 2:45:00 AM 17.5 63.5 0.059 6.96 4.85 8.56
7/2/2021 3:00:00 AM 17.45 63.41 0.059 7.03 4.65 8.58
7/2/2021 3:15:00 AM 17.41 63.338 0.059 7.01 4.45 8.57
7/2/2021 3:30:00 AM 17.36 63.248 0.059 7.03 4.2 8.59
7/2/2021 3:45:00 AM 17.32 63.176 0.059 6.97 4.33 8.59
7/2/2021 4:00:00 AM 17.28 63.104 0.059 7.02 4.25 8.58
7/2/2021 4:15:00 AM 17.23 63.014 0.059 7.02 4.67 8.61
7/2/2021 4:30:00 AM 17.19 62.942 0.059 7.02 4.41 8.61
7/2/2021 4:45:00 AM 17.14 62.852 0.059 7 4.33 8.62
7/2/2021 5:00:00 AM 17.11 62.798 0.059 7.02 4.05 8.62
7/2/2021 5:15:00 AM 17.06 62.708 0.059 7.02 4.52 8.65
7/2/2021 5:30:00 AM 17.01 62.618 0.059 7.01 4.12 8.65
7/2/2021 5:45:00 AM 16.96 62.528 0.059 7.03 4.24 8.67
7/2/2021 6:00:00 AM 16.91 62.438 0.059 7.02 4.67 8.66
7/2/2021 6:15:00 AM 16.84 62.312 0.059 6.99 4.41 8.7
7/2/2021 6:30:00 AM 16.8 62.24 0.059 7.01 4.71 8.69
7/2/2021 6:45:00 AM 16.75 62.15 0.059 7.02 4 8.74
7/2/2021 7:00:00 AM 16.72 62.096 0.059 7 4.35 8.72
7/2/2021 7:15:00 AM 16.68 62.024 0.059 7.01 4.1 8.75
7/2/2021 7:30:00 AM 16.66 61.988 0.059 7.03 4.05 8.8
7/2/2021 7:45:00 AM 16.64 61.952 0.059 6.99 4.05 8.85
7/2/2021 8:00:00 AM 16.66 61.988 0.059 7.03 3.83 8.87
7/2/2021 8:15:00 AM 16.65 61.97 0.059 7.03 3.73 8.93
7/2/2021 8:30:00 AM 16.63 61.934 0.059 7.03 3.72 8.9
7/2/2021 8:45:00 AM 16.62 61.916 0.059 7.04 3.73 8.93
7/2/2021 9:00:00 AM 16.62 61.916 0.059 7.05 3.5 8.94
7/2/2021 9:15:00 AM 16.64 61.952 0.059 7.08 3.9 8.94
7/2/2021 9:30:00 AM 16.67 62.006 0.059 7.09 3.72 9.01
7/2/2021 9:45:00 AM 16.72 62.096 0.059 7.06 3.67 9.07
7/2/2021 10:00:00 AM 16.78 62.204 0.059 7.13 3.57 9.12
7/2/2021 10:15:00 AM 16.77 62.186 0.059 7.14 5.53 9.07
7/2/2021 10:30:00 AM 16.78 62.204 0.059 7.13 3.51 9.1
7/2/2021 10:45:00 AM 16.82 62.276 0.059 7.14 3.67 9.1
7/2/2021 11:00:00 AM 16.92 62.456 0.059 7.14 3.55 9.14
7/2/2021 11:15:00 AM 17.15 62.87 0.059 7.14 3.23 9.13
7/2/2021 11:30:00 AM 17.4 63.32 0.059 7.13 3.51 9.16
7/2/2021 11:45:00 AM 17.51 63.518 0.059 7.19 3.62 9.16
7/2/2021 12:00:00 PM 17.86 64.148 0.059 7.18 3.38 9.14
7/2/2021 12:15:00 PM 18.1 64.58 0.059 7.15 3.27 9.15
7/2/2021 12:30:00 PM 18.34 65.012 0.059 7.21 3.14 9.16
7/2/2021 12:45:00 PM 18.58 65.444 0.059 7.2 3.15 9.11
7/2/2021 1:00:00 PM 18.74 65.732 0.059 7.24 3.19 9.03
7/2/2021 1:15:00 PM 19.04 66.272 0.059 7.24 3.25 9
7/2/2021 1:30:00 PM 19.59 67.262 0.059 7.25 2.97 8.96
7/2/2021 1:45:00 PM 19.8 67.64 0.06 7.26 3.12 8.91
7/2/2021 2:00:00 PM 19.55 67.19 0.06 7.22 2.93 8.82
7/2/2021 2:15:00 PM 19.66 67.388 0.06 7.26 2.98 8.82
7/2/2021 2:30:00 PM 19.7 67.46 0.06 7.25 2.74 8.71
7/2/2021 2:45:00 PM 19.57 67.226 0.06 7.17 2.69 8.6
7/2/2021 3:00:00 PM 18.85 65.93 0.058 7.19 4.18 8.63
7/2/2021 3:15:00 PM 18.9 66.02 0.058 7.15 4.32 8.57
7/2/2021 3:30:00 PM 18.93 66.074 0.059 7.14 6.46 8.51
7/2/2021 3:45:00 PM 18.83 65.894 0.059 7.13 3.45 8.5
7/2/2021 4:00:00 PM 18.63 65.534 0.058 7.06 3.89 8.54
7/2/2021 4:15:00 PM 18.39 65.102 0.058 7.11 3.6 8.57
7/2/2021 4:30:00 PM 18.23 64.814 0.058 7.1 3.28 8.64
7/2/2021 4:45:00 PM 18.13 64.634 0.059 7.11 3.4 8.68
7/2/2021 5:00:00 PM 18.05 64.49 0.059 7.13 3.31 8.82
7/2/2021 5:15:00 PM 17.95 64.31 0.059 7.11 3.07 8.84
7/2/2021 5:30:00 PM 17.84 64.112 0.059 7.16 3.48 8.85
7/2/2021 5:45:00 PM 17.73 63.914 0.06 7.13 4.09 8.84
7/2/2021 6:00:00 PM 17.56 63.608 0.061 7.15 38.02 8.8
7/2/2021 6:15:00 PM 17.46 63.428 0.061 7.12 25.09 8.8
7/2/2021 6:30:00 PM 17.34 63.212 0.061 7.11 18.11 8.82
7/2/2021 6:45:00 PM 17.23 63.014 0.062 7.12 17.96 8.83
7/2/2021 7:00:00 PM 17.13 62.834 0.062 7.12 16.84 8.85
7/2/2021 7:15:00 PM 17 62.6 0.061 7.12 15.49 8.87
7/2/2021 7:30:00 PM 16.87 62.366 0.06 7.1 15.17 8.89
7/2/2021 7:45:00 PM 16.71 62.078 0.057 7.09 14.76 8.91
7/2/2021 8:00:00 PM 16.57 61.826 0.056 7.07 15.08 8.91
7/2/2021 8:15:00 PM 16.44 61.592 0.054 7 12.93 8.93
7/2/2021 8:30:00 PM 16.3 61.34 0.053 7.04 14.77 8.94
7/2/2021 8:45:00 PM 16.17 61.106 0.052 7.03 13.36 8.96
7/2/2021 9:00:00 PM 16.04 60.872 0.052 7.02 12.14 8.97
7/2/2021 9:15:00 PM 15.93 60.674 0.052 7.01 12.77 8.99
7/2/2021 9:30:00 PM 15.85 60.53 0.052 7 12.61 8.98
7/2/2021 9:45:00 PM 15.75 60.35 0.053 7.01 12.53 9.02
7/2/2021 10:00:00 PM 15.67 60.206 0.053 7.01 12.54 9.03
7/2/2021 10:15:00 PM 15.59 60.062 0.053 7 11.86 9.04
7/2/2021 10:30:00 PM 15.53 59.954 0.053 7 11.35 9.05
7/2/2021 10:45:00 PM 15.46 59.828 0.053 7 10.81 9.06
7/2/2021 11:00:00 PM 15.32 59.576 0.054 6.98 11.2 9.08
7/2/2021 11:15:00 PM 15.26 59.468 0.054 6.94 10.77 9.09
7/2/2021 11:30:00 PM 15.2 59.36 0.054 7 11.62 9.11
7/2/2021 11:45:00 PM 15.15 59.27 0.054 7 11.61 9.12
7/3/2021 12:00:00 AM 15.09 59.162 0.054 7 10.72 9.13
7/3/2021 12:15:00 AM 15.05 59.09 0.055 6.99 11.38 9.13
7/3/2021 12:30:00 AM 15 59 0.055 6.96 10.11 9.15
7/3/2021 12:45:00 AM 14.97 58.946 0.055 7.01 10.74 9.17
7/3/2021 1:00:00 AM 14.92 58.856 0.055 7.01 12.1 9.16
7/3/2021 1:15:00 AM 14.87 58.766 0.055 7 11.16 9.18
7/3/2021 1:30:00 AM 14.83 58.694 0.055 7 11.91 9.19
7/3/2021 1:45:00 AM 14.81 58.658 0.055 7 13.59 9.18
7/3/2021 2:00:00 AM 14.78 58.604 0.055 6.99 13.38 9.2
7/3/2021 2:15:00 AM 14.75 58.55 0.055 7 14.96 9.2
7/3/2021 2:30:00 AM 14.72 58.496 0.055 7 15.28 9.2
7/3/2021 2:45:00 AM 14.69 58.442 0.055 7 12.51 9.22
7/3/2021 3:00:00 AM 14.68 58.424 0.055 7 13.95 9.21
7/3/2021 3:15:00 AM 14.66 58.388 0.055 6.95 14.99 9.2
7/3/2021 3:30:00 AM 14.63 58.334 0.055 6.98 14.31 9.2
7/3/2021 3:45:00 AM 14.61 58.298 0.055 7 13.04 9.23
7/3/2021 4:00:00 AM 14.59 58.262 0.055 6.99 16.23 9.23
7/3/2021 4:15:00 AM 14.57 58.226 0.055 6.99 16.89 9.22
7/3/2021 4:30:00 AM 14.54 58.172 0.055 6.95 12.92 9.25
7/3/2021 4:45:00 AM 14.52 58.136 0.055 6.97 13.2 9.26
7/3/2021 5:00:00 AM 14.49 58.082 0.055 7 12.7 9.26
7/3/2021 5:15:00 AM 14.48 58.064 0.055 7 13.27 9.26
7/3/2021 5:30:00 AM 14.46 58.028 0.056 7 12.47 9.26
7/3/2021 5:45:00 AM 14.43 57.974 0.056 7 12.42 9.27
7/3/2021 6:00:00 AM 14.41 57.938 0.056 7 13.25 9.29
7/3/2021 6:15:00 AM 14.4 57.92 0.056 7 13.41 9.31
7/3/2021 6:30:00 AM 14.39 57.902 0.056 7.01 13.89 9.31
7/3/2021 6:45:00 AM 14.38 57.884 0.057 7.01 13.61 9.31
7/3/2021 7:00:00 AM 14.37 57.866 0.057 7.01 13.26 9.35
7/3/2021 7:15:00 AM 14.38 57.884 0.057 7.02 13.72 9.37
7/3/2021 7:30:00 AM 14.38 57.884 0.057 7.03 12.94 9.4
7/3/2021 7:45:00 AM 14.39 57.902 0.057 7.04 12.99 9.43
7/3/2021 8:00:00 AM 14.43 57.974 0.057 7.03 11.73 9.46
7/3/2021 8:15:00 AM 14.48 58.064 0.057 7.07 5.68 9.5
7/3/2021 8:30:00 AM 14.51 58.118 0.057 7.09 5.99 9.52
7/3/2021 8:45:00 AM 14.54 58.172 0.057 7.1 5.58 9.54
7/3/2021 9:00:00 AM 14.59 58.262 0.058 7.05 5.66 9.55
7/3/2021 9:15:00 AM 14.63 58.334 0.058 7.12 5.53 9.55
7/3/2021 9:30:00 AM 14.67 58.406 0.058 7.12 4.1 9.55
7/3/2021 9:45:00 AM 14.72 58.496 0.058 7.14 3.67 9.57
7/3/2021 10:00:00 AM 14.82 58.676 0.058 7.15 3.74 9.6
7/3/2021 10:15:00 AM 14.93 58.874 0.058 7.16 3.8 9.61
7/3/2021 10:30:00 AM 14.93 58.874 0.058 7.17 3.78 9.59
7/3/2021 10:45:00 AM 14.99 58.982 0.058 7.17 3.97 9.58
7/3/2021 11:00:00 AM 15.05 59.09 0.058 7.11 4.18 9.57
7/3/2021 11:15:00 AM 15.13 59.234 0.058 7.18 4.51 9.55
7/3/2021 11:30:00 AM 15.33 59.594 0.058 7.19 3.9 9.57
7/3/2021 11:45:00 AM 15.49 59.882 0.058 7.2 4.6 9.57
7/3/2021 12:00:00 PM 15.64 60.152 0.058 7.22 3.89 9.57
7/3/2021 12:15:00 PM 15.93 60.674 0.058 7.23 3.74 9.56
7/3/2021 12:30:00 PM 16.02 60.836 0.058 7.23 3.82 9.53
7/3/2021 12:45:00 PM 16.38 61.484 0.058 7.22 3.64 9.49
7/3/2021 1:00:00 PM 16.43 61.574 0.058 7.24 3.34 9.44
7/3/2021 1:15:00 PM 16.78 62.204 0.058 7.25 3.07 9.42
7/3/2021 1:30:00 PM 17.06 62.708 0.058 7.23 3.05 9.38
7/3/2021 1:45:00 PM 16.89 62.402 0.059 7.25 3.46 9.27
7/3/2021 2:00:00 PM 17.21 62.978 0.059 7.24 3.51 9.27
7/3/2021 2:15:00 PM 17.16 62.888 0.059 7.21 3.18 9.2
7/3/2021 2:30:00 PM 17.21 62.978 0.059 7.24 3.49 9.15
7/3/2021 2:45:00 PM 17.55 63.59 0.059 7.19 3.41 9.21
7/3/2021 3:00:00 PM 17.47 63.446 0.059 7.25 3.23 9.2
7/3/2021 3:15:00 PM 17.57 63.626 0.059 7.25 4.22 9.2
7/3/2021 3:30:00 PM 17.37 63.266 0.059 7.19 4.15 9.12
7/3/2021 3:45:00 PM 17.39 63.302 0.059 7.21 3.71 9.15
7/3/2021 4:00:00 PM 17.64 63.752 0.059 7.24 3.31 9.17
7/3/2021 4:15:00 PM 17.72 63.896 0.059 7.24 3.43 9.16
7/3/2021 4:30:00 PM 17.5 63.5 0.059 7.2 3.56 9.08
7/3/2021 4:45:00 PM 17.48 63.464 0.059 7.23 3.88 9.09
7/3/2021 5:00:00 PM 17.49 63.482 0.059 7.23 3.81 9.07
7/3/2021 5:15:00 PM 17.6 63.68 0.059 7.23 3.48 9.06
7/3/2021 5:30:00 PM 17.61 63.698 0.059 7.21 3.48 9.04
7/3/2021 5:45:00 PM 17.62 63.716 0.059 7.21 3.43 9.02
7/3/2021 6:00:00 PM 17.63 63.734 0.059 7.22 3.63 9
7/3/2021 6:15:00 PM 17.56 63.608 0.059 7.21 3.62 8.97
7/3/2021 6:30:00 PM 17.48 63.464 0.059 7.2 4.06 8.93
7/3/2021 6:45:00 PM 17.41 63.338 0.059 7.19 3.62 8.92
7/3/2021 7:00:00 PM 17.35 63.23 0.059 7.18 3.38 8.91
7/3/2021 7:15:00 PM 17.27 63.086 0.06 7.13 3.28 8.87
7/3/2021 7:30:00 PM 17.17 62.906 0.06 7.13 3.45 8.89
7/3/2021 7:45:00 PM 17.12 62.816 0.06 7.15 3.46 8.89
7/3/2021 8:00:00 PM 17.04 62.672 0.06 7.13 5.63 8.89
7/3/2021 8:15:00 PM 16.96 62.528 0.06 7.08 3.68 8.89
7/3/2021 8:30:00 PM 16.85 62.33 0.06 7.1 3.46 8.9
7/3/2021 8:45:00 PM 16.77 62.186 0.06 7.11 3.45 8.87
7/3/2021 9:00:00 PM 16.69 62.042 0.06 7.09 3.69 8.84
7/3/2021 9:15:00 PM 16.6 61.88 0.06 7.09 3.72 8.84
7/3/2021 9:30:00 PM 16.53 61.754 0.06 7.07 4.23 8.85
7/3/2021 9:45:00 PM 16.46 61.628 0.06 7.07 4.32 8.85
7/3/2021 10:00:00 PM 16.37 61.466 0.06 7.07 4.18 8.87
7/3/2021 10:15:00 PM 16.3 61.34 0.06 7.06 4.33 8.89
7/3/2021 10:30:00 PM 16.23 61.214 0.06 7.06 5.39 8.89
7/3/2021 10:45:00 PM 16.17 61.106 0.06 7.06 4.75 8.92
7/3/2021 11:00:00 PM 16.12 61.016 0.06 6.99 4.6 8.92
7/3/2021 11:15:00 PM 16.06 60.908 0.061 7.04 5.06 8.92
7/3/2021 11:30:00 PM 16 60.8 0.061 7.02 4.84 8.94
7/3/2021 11:45:00 PM 15.95 60.71 0.061 7.03 4.92 8.92
7/4/2021 12:00:00 AM 15.89 60.602 0.061 7.04 6.23 8.95
7/4/2021 12:15:00 AM 15.84 60.512 0.061 7.02 4.2 8.97
7/4/2021 12:30:00 AM 15.8 60.44 0.061 7.04 5.24 8.98
7/4/2021 12:45:00 AM 15.75 60.35 0.061 7.03 4.02 9
7/4/2021 1:00:00 AM 15.7 60.26 0.061 7.03 4.67 9
7/4/2021 1:15:00 AM 15.64 60.152 0.061 7.03 4.91 9.02
7/4/2021 1:30:00 AM 15.59 60.062 0.061 7.03 4.73 9.04
7/4/2021 1:45:00 AM 15.55 59.99 0.061 7.03 4.96 9.04
7/4/2021 2:00:00 AM 15.52 59.936 0.061 7.03 4.51 9.04
7/4/2021 2:15:00 AM 15.48 59.864 0.061 7 4.42 9.05
7/4/2021 2:30:00 AM 15.44 59.792 0.061 7.03 4.52 9.07
7/4/2021 2:45:00 AM 15.41 59.738 0.061 7.02 8.97 9.05
7/4/2021 3:00:00 AM 15.38 59.684 0.061 7.02 4.1 9.08
7/4/2021 3:15:00 AM 15.35 59.63 0.061 7.03 4.56 9.08
7/4/2021 3:30:00 AM 15.31 59.558 0.061 7.02 6.86 9.08
7/4/2021 3:45:00 AM 15.28 59.504 0.061 7.02 4.76 9.08
7/4/2021 4:00:00 AM 15.25 59.45 0.061 7.03 5 9.1
7/4/2021 4:15:00 AM 15.21 59.378 0.061 7.03 4.11 9.1
7/4/2021 4:30:00 AM 15.17 59.306 0.061 7.04 4.08 9.13
7/4/2021 4:45:00 AM 15.15 59.27 0.061 7.01 4.19 9.11
7/4/2021 5:00:00 AM 15.11 59.198 0.061 7 3.97 9.12
7/4/2021 5:15:00 AM 15.07 59.126 0.061 7.01 4.29 9.14
7/4/2021 5:30:00 AM 15.04 59.072 0.061 7 3.78 9.15
7/4/2021 5:45:00 AM 15 59 0.061 7.02 4.39 9.16
7/4/2021 6:00:00 AM 14.95 58.91 0.061 7.04 3.96 9.2
7/4/2021 6:15:00 AM 14.92 58.856 0.061 7.04 3.79 9.21
7/4/2021 6:30:00 AM 14.9 58.82 0.061 7.04 3.24 9.21
7/4/2021 6:45:00 AM 14.86 58.748 0.061 7.04 4 9.24
7/4/2021 7:00:00 AM 14.84 58.712 0.061 7.04 4.03 9.27
7/4/2021 7:15:00 AM 14.83 58.694 0.061 7.03 3.88 9.29
7/4/2021 7:30:00 AM 14.82 58.676 0.061 7.06 3.96 9.33
7/4/2021 7:45:00 AM 14.83 58.694 0.06 7.07 3.98 9.36
7/4/2021 8:00:00 AM 14.83 58.694 0.06 7.07 4.24 9.42
7/4/2021 8:15:00 AM 14.82 58.676 0.06 7.1 3.68 9.45
7/4/2021 8:30:00 AM 14.82 58.676 0.06 7.11 3.83 9.45
7/4/2021 8:45:00 AM 14.83 58.694 0.06 7.11 3.78 9.48
7/4/2021 9:00:00 AM 14.88 58.784 0.06 7.11 3.51 9.49
7/4/2021 9:15:00 AM 14.94 58.892 0.06 7.12 4.37 9.44
7/4/2021 9:30:00 AM 15.01 59.018 0.06 7.12 3.93 9.49
7/4/2021 9:45:00 AM 15.08 59.144 0.06 7.12 3.37 9.49
7/4/2021 10:00:00 AM 15.22 59.396 0.06 7.13 3.25 9.48
7/4/2021 10:15:00 AM 15.38 59.684 0.06 7.14 3.67 9.45
7/4/2021 10:30:00 AM 15.57 60.026 0.06 7.15 3.52 9.43
7/4/2021 10:45:00 AM 15.81 60.458 0.06 7.15 3.15 9.39
7/4/2021 11:00:00 AM 16.04 60.872 0.06 7.16 3.43 9.37
7/4/2021 11:15:00 AM 16.3 61.34 0.06 7.16 3.2 9.35
7/4/2021 11:30:00 AM 16.55 61.79 0.06 7.18 3.34 9.31
7/4/2021 11:45:00 AM 16.82 62.276 0.06 7.19 3.21 9.31
7/4/2021 12:00:00 PM 17.12 62.816 0.06 7.2 3.16 9.29
7/4/2021 12:15:00 PM 17.44 63.392 0.06 7.21 7.45 9.29
7/4/2021 12:30:00 PM 17.58 63.644 0.06 7.22 3.2 9.26
7/4/2021 12:45:00 PM 17.98 64.364 0.06 7.23 3.39 9.19
7/4/2021 1:00:00 PM 17.85 64.13 0.06 7.19 3.55 9.18
7/4/2021 1:15:00 PM 17.89 64.202 0.06 7.23 3.51 9.16
7/4/2021 1:30:00 PM 18.13 64.634 0.06 7.24 3.2 9.13
7/4/2021 1:45:00 PM 18.54 65.372 0.06 7.2 3.21 9.15
7/4/2021 2:00:00 PM 18.75 65.75 0.06 7.26 3.58 9.17
7/4/2021 2:15:00 PM 18.95 66.11 0.06 7.21 3.53 9.14
7/4/2021 2:30:00 PM 19.02 66.236 0.059 7.25 3.46 9.11
7/4/2021 2:45:00 PM 19.23 66.614 0.059 7.27 4.4 9.08
7/4/2021 3:00:00 PM 19.31 66.758 0.059 7.27 3.65 9.04
7/4/2021 3:15:00 PM 19.38 66.884 0.059 7.25 3.83 9
7/4/2021 3:30:00 PM 19.4 66.92 0.059 7.27 3.39 8.94
7/4/2021 3:45:00 PM 19.46 67.028 0.059 7.25 3.17 8.87
7/4/2021 4:00:00 PM 19.77 67.586 0.059 7.26 3.29 8.88
7/4/2021 4:15:00 PM 19.95 67.91 0.059 7.26 3.84 8.8
7/4/2021 4:30:00 PM 19.98 67.964 0.06 7.25 2.96 8.76
7/4/2021 4:45:00 PM 20.05 68.09 0.059 7.25 3.18 8.77
7/4/2021 5:00:00 PM 20.14 68.252 0.06 7.26 3.26 8.75
7/4/2021 5:15:00 PM 20 68 0.059 7.24 3.2 8.7
7/4/2021 5:30:00 PM 19.92 67.856 0.06 7.25 3.06 8.65
7/4/2021 5:45:00 PM 19.82 67.676 0.06 7.23 3.35 8.64
7/4/2021 6:00:00 PM 19.71 67.478 0.06 7.21 3.67 8.63
7/4/2021 6:15:00 PM 19.61 67.298 0.06 7.2 3.06 8.61
7/4/2021 6:30:00 PM 19.48 67.064 0.06 7.19 3.15 8.59
7/4/2021 6:45:00 PM 19.37 66.866 0.06 7.17 3.08 8.58
7/4/2021 7:00:00 PM 19.23 66.614 0.06 7.1 2.93 8.56
7/4/2021 7:15:00 PM 19.07 66.326 0.06 7.15 3.02 8.55
7/4/2021 7:30:00 PM 18.89 66.002 0.06 7.13 2.97 8.58
7/4/2021 7:45:00 PM 18.75 65.75 0.06 7.12 2.97 8.58
7/4/2021 8:00:00 PM 18.62 65.516 0.06 7.11 3.54 8.56
7/4/2021 8:15:00 PM 18.45 65.21 0.06 7.09 3.28 8.58
7/4/2021 8:30:00 PM 18.31 64.958 0.06 7.09 3.18 8.58
7/4/2021 8:45:00 PM 18.17 64.706 0.06 7.08 3.37 8.57
7/4/2021 9:00:00 PM 18.02 64.436 0.06 7.08 3.43 8.59
7/4/2021 9:15:00 PM 17.88 64.184 0.061 7.03 3.49 8.58
7/4/2021 9:30:00 PM 17.76 63.968 0.061 7.06 3.8 8.6
7/4/2021 9:45:00 PM 17.65 63.77 0.061 7.01 3.76 8.62
7/4/2021 10:00:00 PM 17.52 63.536 0.061 7.05 4.47 8.63
7/4/2021 10:15:00 PM 17.41 63.338 0.061 7.04 5.84 8.65
7/4/2021 10:30:00 PM 17.3 63.14 0.061 7.04 3.83 8.67
7/4/2021 10:45:00 PM 17.2 62.96 0.061 7.03 4.03 8.69
7/4/2021 11:00:00 PM 17.11 62.798 0.061 7.03 4.64 8.7
7/4/2021 11:15:00 PM 17.01 62.618 0.061 7.03 4.89 8.7
7/4/2021 11:30:00 PM 16.93 62.474 0.061 7.03 3.82 8.73
7/4/2021 11:45:00 PM 16.83 62.294 0.061 7.03 7.65 8.78
7/5/2021 12:00:00 AM 16.75 62.15 0.061 7.03 4.08 8.79
7/5/2021 12:15:00 AM 16.66 61.988 0.061 7.03 4.33 8.79
7/5/2021 12:30:00 AM 16.59 61.862 0.061 7.03 4.1 8.81
7/5/2021 12:45:00 AM 16.51 61.718 0.061 7.02 2.98 8.82
7/5/2021 1:00:00 AM 16.44 61.592 0.061 7.02 3.87 8.82
7/5/2021 1:15:00 AM 16.36 61.448 0.061 7.03 3.8 8.88
7/5/2021 1:30:00 AM 16.29 61.322 0.061 7.03 27.23 8.9
7/5/2021 1:45:00 AM 16.24 61.232 0.061 6.97 4.74 8.89
7/5/2021 2:00:00 AM 16.16 61.088 0.061 7.01 3.71 8.89
7/5/2021 2:15:00 AM 16.09 60.962 0.061 7.01 3.66 8.91
7/5/2021 2:30:00 AM 16.03 60.854 0.061 6.96 3.33 8.93
7/5/2021 2:45:00 AM 15.97 60.746 0.061 7.01 3.96 8.94
7/5/2021 3:00:00 AM 15.9 60.62 0.061 7.01 4.98 8.93
7/5/2021 3:15:00 AM 15.84 60.512 0.061 7.01 18.81 8.96
7/5/2021 3:30:00 AM 15.77 60.386 0.061 7.01 6.35 8.97
7/5/2021 3:45:00 AM 15.71 60.278 0.061 7.02 3.73 9.01
7/5/2021 4:00:00 AM 15.64 60.152 0.061 7.01 3.54 9.03
7/5/2021 4:15:00 AM 15.58 60.044 0.061 7.01 3.44 9.03
7/5/2021 4:30:00 AM 15.52 59.936 0.061 7.01 3.93 9.03
7/5/2021 4:45:00 AM 15.46 59.828 0.061 6.96 3.91 9.01
7/5/2021 5:00:00 AM 15.4 59.72 0.061 7.01 3.71 9.05
7/5/2021 5:15:00 AM 15.34 59.612 0.061 7 3.95 9.06
7/5/2021 5:30:00 AM 15.28 59.504 0.061 7.01 3.77 9.09
7/5/2021 5:45:00 AM 15.23 59.414 0.06 6.97 4.12 9.09
7/5/2021 6:00:00 AM 15.17 59.306 0.06 7 3.77 9.13
7/5/2021 6:15:00 AM 15.12 59.216 0.06 7.01 3.83 9.17
7/5/2021 6:30:00 AM 15.07 59.126 0.06 7.01 3.67 9.21
7/5/2021 6:45:00 AM 15.03 59.054 0.06 7.02 3.65 9.22
7/5/2021 7:00:00 AM 15 59 0.06 6.95 3.21 9.27
7/5/2021 7:15:00 AM 14.97 58.946 0.06 7.03 28.72 9.24
7/5/2021 7:30:00 AM 14.94 58.892 0.06 7.04 3.78 9.34
7/5/2021 7:45:00 AM 14.94 58.892 0.06 7.06 3.42 9.39
7/5/2021 8:00:00 AM 14.95 58.91 0.06 7.07 3.68 9.43
7/5/2021 8:15:00 AM 14.96 58.928 0.06 7.08 3.15 9.46
7/5/2021 8:30:00 AM 14.99 58.982 0.06 7.03 6.08 9.48
7/5/2021 8:45:00 AM 15.04 59.072 0.06 7.1 2.94 9.5
7/5/2021 9:00:00 AM 15.1 59.18 0.06 7.04 3.13 9.5
7/5/2021 9:15:00 AM 15.18 59.324 0.06 7.11 6.47 9.51
7/5/2021 9:30:00 AM 15.28 59.504 0.06 7.12 2.99 9.53
7/5/2021 9:45:00 AM 15.4 59.72 0.06 7.12 3.31 9.53
7/5/2021 10:00:00 AM 15.56 60.008 0.059 7.14 3.11 9.53
7/5/2021 10:15:00 AM 15.72 60.296 0.059 7.16 2.8 9.54
7/5/2021 10:30:00 AM 15.89 60.602 0.059 7.11 2.89 9.51
7/5/2021 10:45:00 AM 16.12 61.016 0.059 7.19 2.95 9.49
7/5/2021 11:00:00 AM 16.35 61.43 0.059 7.2 3 9.47
7/5/2021 11:15:00 AM 16.57 61.826 0.059 7.21 2.88 9.46
7/5/2021 11:30:00 AM 16.84 62.312 0.059 7.22 3.03 9.43
7/5/2021 11:45:00 AM 17.09 62.762 0.059 7.22 3.67 9.41
7/5/2021 12:00:00 PM 17.42 63.356 0.059 7.24 2.91 9.38
7/5/2021 12:15:00 PM 17.7 63.86 0.059 7.25 2.99 9.36
7/5/2021 12:30:00 PM 18.03 64.454 0.059 7.27 2.91 9.34
7/5/2021 12:45:00 PM 18.31 64.958 0.059 7.27 2.83 9.29
7/5/2021 1:00:00 PM 18.6 65.48 0.059 7.27 3.02 9.27
7/5/2021 1:15:00 PM 18.9 66.02 0.059 7.28 2.87 9.23
7/5/2021 1:30:00 PM 19.18 66.524 0.059 7.29 2.9 9.19
7/5/2021 1:45:00 PM 19.42 66.956 0.059 7.3 2.75 9.14
7/5/2021 2:00:00 PM 19.63 67.334 0.059 7.31 3.07 9.11
7/5/2021 2:15:00 PM 19.91 67.838 0.059 7.31 2.94 9.08
7/5/2021 2:30:00 PM 20.09 68.162 0.059 7.31 3.35 9.04
7/5/2021 2:45:00 PM 20.3 68.54 0.059 7.32 2.78 8.98
7/5/2021 3:00:00 PM 20.49 68.882 0.059 7.33 2.98 8.96
7/5/2021 3:15:00 PM 20.62 69.116 0.059 7.33 2.82 8.87
7/5/2021 3:30:00 PM 20.8 69.44 0.059 7.32 3.68 8.86
7/5/2021 3:45:00 PM 20.94 69.692 0.059 7.29 3.59 8.84
7/5/2021 4:00:00 PM 20.99 69.782 0.059 7.32 5.75 8.77
7/5/2021 4:15:00 PM 21.06 69.908 0.059 7.33 3.6 8.74
7/5/2021 4:30:00 PM 21.1 69.98 0.059 7.32 3.1 8.71
7/5/2021 4:45:00 PM 21.16 70.088 0.059 7.3 3.35 8.67
7/5/2021 5:00:00 PM 21.2 70.16 0.059 7.3 3.25 8.65
7/5/2021 5:15:00 PM 21.19 70.142 0.059 7.31 3.31 8.61
7/5/2021 5:30:00 PM 21.13 70.034 0.059 7.29 3.39 8.57
7/5/2021 5:45:00 PM 21.02 69.836 0.059 7.27 3.12 8.54
7/5/2021 6:00:00 PM 20.95 69.71 0.059 7.2 3.48 8.44
7/5/2021 6:15:00 PM 20.87 69.566 0.059 7.25 4.09 8.49
7/5/2021 6:30:00 PM 20.76 69.368 0.059 7.21 4.78 8.45
7/5/2021 6:45:00 PM 20.65 69.17 0.059 7.16 3.24 8.45
7/5/2021 7:00:00 PM 20.55 68.99 0.059 7.19 3.13 8.41
7/5/2021 7:15:00 PM 20.39 68.702 0.059 7.17 3.3 8.38
7/5/2021 7:30:00 PM 20.27 68.486 0.059 7.1 3.71 8.41
7/5/2021 7:45:00 PM 20.16 68.288 0.059 7.13 3.32 8.37
7/5/2021 8:00:00 PM 20.04 68.07201 0.059 7.06 3.7 8.32
7/5/2021 8:15:00 PM 19.92 67.856 0.06 7.08 4.48 8.31
7/5/2021 8:30:00 PM 19.81 67.658 0.06 7.06 4.6 8.3
7/5/2021 8:45:00 PM 19.67 67.406 0.06 7.04 4.77 8.31
7/5/2021 9:00:00 PM 19.56 67.208 0.06 6.96 4.44 8.3
7/5/2021 9:15:00 PM 19.45 67.01 0.06 7 4.04 8.28
7/5/2021 9:30:00 PM 19.33 66.794 0.06 6.99 4.1 8.28
7/5/2021 9:45:00 PM 19.22 66.596 0.06 6.99 4.08 8.31
7/5/2021 10:00:00 PM 19.13 66.434 0.06 6.98 4.27 8.33
7/5/2021 10:15:00 PM 19.03 66.254 0.06 6.97 4.99 8.32
7/5/2021 10:30:00 PM 18.95 66.11 0.06 6.96 4.7 8.32
7/5/2021 10:45:00 PM 18.86 65.948 0.061 6.96 5.01 8.32
7/5/2021 11:00:00 PM 18.77 65.786 0.061 6.95 12.88 8.37
7/5/2021 11:15:00 PM 18.69 65.642 0.061 6.92 4.02 8.36
7/5/2021 11:30:00 PM 18.6 65.48 0.061 6.94 3.63 8.4
7/5/2021 11:45:00 PM 18.53 65.354 0.061 6.93 4.59 8.4
7/6/2021 12:00:00 AM 18.45 65.21 0.061 6.87 4.23 8.41
7/6/2021 12:15:00 AM 18.38 65.084 0.061 6.93 4.22 8.42
7/6/2021 12:30:00 AM 18.31 64.958 0.061 6.92 4.17 8.42
7/6/2021 12:45:00 AM 18.23 64.814 0.061 6.94 4.74 8.47
7/6/2021 1:00:00 AM 18.16 64.688 0.061 6.93 6.49 8.49
7/6/2021 1:15:00 AM 18.09 64.562 0.061 6.92 19.08 8.48
7/6/2021 1:30:00 AM 18.04 64.472 0.061 6.89 3.99 8.49
7/6/2021 1:45:00 AM 17.97 64.346 0.061 6.93 5.52 8.5
7/6/2021 2:00:00 AM 17.91 64.238 0.061 6.93 4.08 8.5
7/6/2021 2:15:00 AM 17.85 64.13 0.061 6.93 6.02 8.52
7/6/2021 2:30:00 AM 17.78 64.004 0.061 6.94 3.66 8.57
7/6/2021 2:45:00 AM 17.73 63.914 0.061 6.87 4.52 8.57
7/6/2021 3:00:00 AM 17.68 63.824 0.061 6.9 3.58 8.57
7/6/2021 3:15:00 AM 17.62 63.716 0.061 6.94 3.74 8.6
7/6/2021 3:30:00 AM 17.57 63.626 0.061 6.93 3.52 8.6
7/6/2021 3:45:00 AM 17.52 63.536 0.061 6.93 3.48 8.6
7/6/2021 4:00:00 AM 17.47 63.446 0.061 6.92 3.41 8.6
7/6/2021 4:15:00 AM 17.42 63.356 0.061 6.94 3.27 8.63
7/6/2021 4:30:00 AM 17.36 63.248 0.061 6.93 3.65 8.65
7/6/2021 4:45:00 AM 17.31 63.158 0.061 6.94 3.6 8.65
7/6/2021 5:00:00 AM 17.25 63.05 0.061 6.93 3.61 8.67
7/6/2021 5:15:00 AM 17.2 62.96 0.061 6.88 3.44 8.66
7/6/2021 5:30:00 AM 17.15 62.87 0.061 6.93 3.61 8.68
7/6/2021 5:45:00 AM 17.09 62.762 0.061 6.88 4.19 8.7
7/6/2021 6:00:00 AM 17.04 62.672 0.061 6.94 3.47 8.72
7/6/2021 6:15:00 AM 16.99 62.582 0.061 6.92 3.7 8.76
7/6/2021 6:30:00 AM 16.95 62.51 0.061 6.95 3.5 8.79
7/6/2021 6:45:00 AM 16.92 62.456 0.061 6.94 3.54 8.82
7/6/2021 7:00:00 AM 16.9 62.42 0.061 6.96 3.36 8.86
7/6/2021 7:15:00 AM 16.88 62.384 0.061 6.93 3.82 8.93
7/6/2021 7:30:00 AM 16.88 62.384 0.061 6.97 3.88 8.95
7/6/2021 7:45:00 AM 16.88 62.384 0.061 6.98 3.7 8.99
7/6/2021 8:00:00 AM 16.89 62.402 0.061 6.94 3.52 9
7/6/2021 8:15:00 AM 16.91 62.438 0.061 7.02 3.28 9.08
7/6/2021 8:30:00 AM 16.96 62.528 0.061 6.98 3.33 9.09
7/6/2021 8:45:00 AM 17.04 62.672 0.06 7.05 3.4 9.12
7/6/2021 9:00:00 AM 17.14 62.852 0.06 7.07 3.47 9.14
7/6/2021 9:15:00 AM 17.22 62.996 0.06 7.1 3.81 9.15
7/6/2021 9:30:00 AM 17.32 63.176 0.06 7.12 3 9.18
7/6/2021 9:45:00 AM 17.46 63.428 0.06 7.14 3.02 9.18
7/6/2021 10:00:00 AM 17.62 63.716 0.06 7.16 3.24 9.2
7/6/2021 10:15:00 AM 17.81 64.058 0.06 7.17 3.66 9.18
7/6/2021 10:30:00 AM 17.99 64.382 0.06 7.17 3.29 9.16
7/6/2021 10:45:00 AM 18.27 64.886 0.06 7.18 3.1 9.14
7/6/2021 11:00:00 AM 18.54 65.372 0.06 7.19 2.96 9.11
7/6/2021 11:15:00 AM 18.74 65.732 0.059 7.21 3.04 9.05
7/6/2021 11:30:00 AM 18.98 66.164 0.059 7.24 2.86 9.04
7/6/2021 11:45:00 AM 19.34 66.812 0.059 7.21 3.09 8.97
7/6/2021 12:00:00 PM 19.65 67.37 0.059 7.25 3.01 9.01
7/6/2021 12:15:00 PM 20.02 68.036 0.059 7.24 3.05 8.97
7/6/2021 12:30:00 PM 20.23 68.414 0.059 7.28 3.04 8.94
7/6/2021 12:45:00 PM 20.57 69.026 0.059 7.29 2.84 8.87
7/6/2021 1:00:00 PM 20.92 69.656 0.059 7.29 3.06 8.86
7/6/2021 1:15:00 PM 21.21 70.17799 0.059 7.29 3.09 8.83
7/6/2021 1:30:00 PM 21.4 70.52 0.059 7.27 3.05 8.79
7/6/2021 1:45:00 PM 21.34 70.412 0.059 7.33 3.44 8.71
7/6/2021 2:00:00 PM 21.24 70.232 0.059 7.27 2.9 8.59
7/6/2021 2:15:00 PM 21.31 70.358 0.059 7.29 2.96 8.6
7/6/2021 2:30:00 PM 21.37 70.466 0.059 7.31 3.03 8.61
7/6/2021 2:45:00 PM 21.56 70.808 0.059 7.32 2.97 8.63
7/6/2021 3:00:00 PM 21.88 71.384 0.059 7.32 2.59 8.64
7/6/2021 3:15:00 PM 22.05 71.69 0.059 7.31 3.15 8.62
7/6/2021 3:30:00 PM 22.06 71.708 0.059 7.31 2.93 8.65
7/6/2021 3:45:00 PM 21.88 71.384 0.059 7.33 3.21 8.6
7/6/2021 4:00:00 PM 21.73 71.114 0.059 7.34 2.81 8.55
7/6/2021 4:15:00 PM 21.6 70.88 0.059 7.31 2.91 8.5
7/6/2021 4:30:00 PM 21.55 70.79 0.059 7.29 3.41 8.48
7/6/2021 4:45:00 PM 21.48 70.664 0.059 7.27 2.66 8.44
7/6/2021 5:00:00 PM 21.41 70.538 0.059 7.24 2.97 8.35
7/6/2021 5:15:00 PM 21.41 70.538 0.059 7.17 3.23 8.33
7/6/2021 5:30:00 PM 21.42 70.556 0.059 7.22 4.44 8.39
7/6/2021 5:45:00 PM 21.35 70.43 0.059 7.23 3.03 8.4
7/6/2021 6:00:00 PM 21.25 70.25 0.059 7.21 3.21 8.34
7/6/2021 6:15:00 PM 21.18 70.124 0.059 7.2 3.35 8.36
7/6/2021 6:30:00 PM 21.15 70.07 0.059 7.19 2.88 8.37
7/6/2021 6:45:00 PM 21.04 69.872 0.059 7.19 3 8.38
7/6/2021 7:00:00 PM 20.92 69.656 0.059 7.16 3.3 8.29
7/6/2021 7:15:00 PM 20.8 69.44 0.059 7.09 3 8.23
7/6/2021 7:30:00 PM 20.7 69.26 0.06 7.11 2.98 8.21
7/6/2021 7:45:00 PM 20.59 69.062 0.06 7.09 3.03 8.21
7/6/2021 8:00:00 PM 20.5 68.9 0.06 7.03 2.98 8.18
7/6/2021 8:15:00 PM 20.41 68.738 0.06 7.07 3.25 8.18
7/6/2021 8:30:00 PM 20.31 68.558 0.06 7.07 3.28 8.2
7/6/2021 8:45:00 PM 20.21 68.378 0.06 7.05 3.19 8.2
7/6/2021 9:00:00 PM 20.1 68.18 0.06 7.03 3.39 8.16
7/6/2021 9:15:00 PM 19.99 67.982 0.06 7.03 3.54 8.18
7/6/2021 9:30:00 PM 19.89 67.802 0.06 7.01 3.18 8.15
7/6/2021 9:45:00 PM 19.83 67.694 0.061 7 3.22 8.15
7/6/2021 10:00:00 PM 19.73 67.514 0.061 6.95 3.36 8.19
7/6/2021 10:15:00 PM 19.63 67.334 0.061 7.01 3.61 8.22
7/6/2021 10:30:00 PM 19.54 67.172 0.061 7.01 4.75 8.22
7/6/2021 10:45:00 PM 19.44 66.992 0.061 6.95 4.34 8.23
7/6/2021 11:00:00 PM 19.36 66.848 0.061 7 4.36 8.24
7/6/2021 11:15:00 PM 19.27 66.686 0.061 6.99 3.86 8.25
7/6/2021 11:30:00 PM 19.2 66.56 0.061 6.99 5.18 8.28
7/6/2021 11:45:00 PM 19.13 66.434 0.061 7 3.22 8.29
7/7/2021 12:00:00 AM 19.07 66.326 0.061 6.98 3.32 8.3
7/7/2021 12:15:00 AM 19 66.2 0.061 6.99 3.36 8.33
7/7/2021 12:30:00 AM 18.94 66.092 0.061 6.98 3.41 8.35
7/7/2021 12:45:00 AM 18.89 66.002 0.061 6.99 4.45 8.36
7/7/2021 1:00:00 AM 18.84 65.912 0.061 7 3.83 8.37
7/7/2021 1:15:00 AM 18.79 65.82201 0.061 7.01 3.76 8.41
7/7/2021 1:30:00 AM 18.74 65.732 0.061 7.01 3.19 8.39
7/7/2021 1:45:00 AM 18.71 65.67799 0.061 7.01 3.39 8.41
7/7/2021 2:00:00 AM 18.67 65.606 0.061 7.01 4.21 8.4
7/7/2021 2:15:00 AM 18.63 65.534 0.061 7.02 3.43 8.42
7/7/2021 2:30:00 AM 18.59 65.462 0.061 7.01 3.39 8.43
7/7/2021 2:45:00 AM 18.55 65.39 0.061 7.01 3.88 8.44
7/7/2021 3:00:00 AM 18.52 65.336 0.061 7.01 5.05 8.45
7/7/2021 3:15:00 AM 18.48 65.264 0.061 7.01 4.35 8.46
7/7/2021 3:30:00 AM 18.44 65.192 0.061 7.02 4.43 8.48
7/7/2021 3:45:00 AM 18.38 65.084 0.061 7.01 4.62 8.5
7/7/2021 4:00:00 AM 18.34 65.012 0.061 6.96 3.56 8.49
7/7/2021 4:15:00 AM 18.3 64.94 0.061 6.98 4.51 8.5
7/7/2021 4:30:00 AM 18.26 64.868 0.061 6.98 3.73 8.5
7/7/2021 4:45:00 AM 18.22 64.796 0.061 6.97 3.99 8.5
7/7/2021 5:00:00 AM 18.18 64.724 0.061 6.97 3.5 8.52
7/7/2021 5:15:00 AM 18.13 64.634 0.061 6.99 3.75 8.52
7/7/2021 5:30:00 AM 18.08 64.544 0.061 6.99 3.39 8.54
7/7/2021 5:45:00 AM 18.04 64.472 0.061 7 3.96 8.52
7/7/2021 6:00:00 AM 18 64.4 0.061 6.99 3.82 8.53
7/7/2021 6:15:00 AM 17.95 64.31 0.061 7.01 3.44 8.56
7/7/2021 6:30:00 AM 17.92 64.256 0.061 7.01 3.62 8.59
7/7/2021 6:45:00 AM 17.88 64.184 0.06 7.01 4.55 8.61
7/7/2021 7:00:00 AM 17.85 64.13 0.06 7.03 3.92 8.64
7/7/2021 7:15:00 AM 17.83 64.094 0.06 7.03 3.9 8.7
7/7/2021 7:30:00 AM 17.81 64.058 0.06 6.99 3.75 8.76
7/7/2021 7:45:00 AM 17.8 64.04 0.06 7.06 3.51 8.81
7/7/2021 8:00:00 AM 17.8 64.04 0.06 7.09 3.88 8.87
7/7/2021 8:15:00 AM 17.81 64.058 0.06 7.06 4.19 8.9
7/7/2021 8:30:00 AM 17.81 64.058 0.06 7.11 3.58 8.95
7/7/2021 8:45:00 AM 17.84 64.112 0.06 7.12 3.65 8.97
7/7/2021 9:00:00 AM 17.88 64.184 0.06 7.12 3.38 8.98
7/7/2021 9:15:00 AM 17.95 64.31 0.06 7.12 4.05 9
7/7/2021 9:30:00 AM 18.02 64.436 0.059 7.13 2.92 9.02
7/7/2021 9:45:00 AM 18.11 64.598 0.059 7.13 3.95 9.06
7/7/2021 10:00:00 AM 18.24 64.832 0.059 7.16 3.06 9.06
7/7/2021 10:15:00 AM 18.38 65.084 0.059 7.17 3.37 9.07
7/7/2021 10:30:00 AM 18.52 65.336 0.059 7.13 3.38 9.02
7/7/2021 10:45:00 AM 18.77 65.786 0.059 7.2 2.86 9.05
7/7/2021 11:00:00 AM 18.99 66.182 0.059 7.21 3.43 9.01
7/7/2021 11:15:00 AM 19.24 66.632 0.059 7.22 3.16 8.99
7/7/2021 11:30:00 AM 19.49 67.082 0.058 7.18 3.16 8.97
7/7/2021 11:45:00 AM 19.87 67.766 0.059 7.26 3.22 8.95
7/7/2021 12:00:00 PM 20.14 68.252 0.059 7.28 3.44 8.93
7/7/2021 12:15:00 PM 20.37 68.666 0.059 7.23 5.81 8.86
7/7/2021 12:30:00 PM 20.72 69.296 0.059 7.29 3.29 8.85
7/7/2021 12:45:00 PM 20.96 69.728 0.059 7.27 3.57 8.8
7/7/2021 1:00:00 PM 21.17 70.106 0.059 7.32 3.5 8.77
7/7/2021 1:15:00 PM 21.53 70.754 0.059 7.33 3.1 8.77
7/7/2021 1:30:00 PM 21.65 70.97 0.058 7.29 3.1 8.76
7/7/2021 1:45:00 PM 21.65 70.97 0.058 7.34 3.1 8.69
7/7/2021 2:00:00 PM 21.82 71.276 0.058 7.35 3.24 8.68
7/7/2021 2:15:00 PM 21.85 71.33 0.058 7.34 3.77 8.58
7/7/2021 2:30:00 PM 22.07 71.726 0.058 7.3 3.68 8.61
7/7/2021 2:45:00 PM 22.3 72.14 0.058 7.34 3.11 8.6
7/7/2021 3:00:00 PM 22.59 72.662 0.058 7.36 3.28 8.58
7/7/2021 3:15:00 PM 22.8 73.04 0.058 7.37 2.6 8.56
7/7/2021 3:30:00 PM 22.98 73.364 0.058 7.38 2.72 8.53
7/7/2021 3:45:00 PM 23.05 73.49 0.058 7.32 2.68 8.47
7/7/2021 4:00:00 PM 23.21 73.778 0.058 7.37 2.76 8.46
7/7/2021 4:15:00 PM 23.31 73.958 0.058 7.37 2.66 8.43
7/7/2021 4:30:00 PM 23.31 73.958 0.058 7.33 3.08 8.39
7/7/2021 4:45:00 PM 23.26 73.868 0.058 7.36 2.93 8.35
7/7/2021 5:00:00 PM 23.28 73.904 0.058 7.33 3.27 8.3
7/7/2021 5:15:00 PM 23.29 73.922 0.058 7.33 2.8 8.29
7/7/2021 5:30:00 PM 23.2 73.76 0.058 7.31 2.71 8.22
7/7/2021 5:45:00 PM 23.11 73.598 0.058 7.29 2.61 8.19
7/7/2021 6:00:00 PM 23.04 73.472 0.058 7.27 2.77 8.15
7/7/2021 6:15:00 PM 22.96 73.328 0.058 7.21 3.09 8.13
7/7/2021 6:30:00 PM 22.86 73.148 0.058 7.23 2.55 8.08
7/7/2021 6:45:00 PM 22.73 72.914 0.059 7.2 2.74 8.06
7/7/2021 7:00:00 PM 22.59 72.662 0.059 7.19 2.74 8
7/7/2021 7:15:00 PM 22.44 72.392 0.059 7.16 2.73 8
7/7/2021 7:30:00 PM 22.29 72.122 0.059 7.14 2.94 7.96
7/7/2021 7:45:00 PM 22.15 71.87 0.059 7.11 2.87 7.89
7/7/2021 8:00:00 PM 21.95 71.51 0.059 7.1 3.62 7.87
7/7/2021 8:15:00 PM 21.76 71.168 0.059 7.08 3.18 7.86
7/7/2021 8:30:00 PM 21.6 70.88 0.059 7.06 3.39 7.84
7/7/2021 8:45:00 PM 21.41 70.538 0.059 7.06 3.89 7.84
7/7/2021 9:00:00 PM 21.24 70.232 0.059 7.05 3.9 7.84
7/7/2021 9:15:00 PM 21.07 69.926 0.059 7.03 4.44 7.86
7/7/2021 9:30:00 PM 20.92 69.656 0.059 7.04 4.13 7.89
7/7/2021 9:45:00 PM 20.76 69.368 0.059 7.03 4.43 7.91
7/7/2021 10:00:00 PM 20.66 69.188 0.06 6.97 3.93 7.92
7/7/2021 10:15:00 PM 20.54 68.972 0.06 7.03 4.32 7.94
7/7/2021 10:30:00 PM 20.43 68.774 0.06 7.02 4.13 7.96
7/7/2021 10:45:00 PM 20.3 68.54 0.06 6.98 3.56 8
7/7/2021 11:00:00 PM 20.2 68.36 0.06 7.03 3.53 8.01
7/7/2021 11:15:00 PM 20.1 68.18 0.06 7.02 3.39 8.03
7/7/2021 11:30:00 PM 20 68 0.06 7.02 3.75 8.07
7/7/2021 11:45:00 PM 19.92 67.856 0.06 7.02 3.39 8.05
7/8/2021 12:00:00 AM 19.81 67.658 0.06 7.03 4.19 8.12
7/8/2021 12:15:00 AM 19.75 67.55 0.06 7.02 3.8 8.1
7/8/2021 12:30:00 AM 19.67 67.406 0.06 7.01 5.39 8.13
7/8/2021 12:45:00 AM 19.59 67.262 0.06 7.02 4.51 8.15
7/8/2021 1:00:00 AM 19.51 67.118 0.06 6.96 3.79 8.17
7/8/2021 1:15:00 AM 19.43 66.974 0.06 7.01 3.44 8.19
7/8/2021 1:30:00 AM 19.36 66.848 0.06 6.98 3.58 8.18
7/8/2021 1:45:00 AM 19.28 66.704 0.06 7.01 3.28 8.21
7/8/2021 2:00:00 AM 19.21 66.578 0.06 7.01 3.33 8.23
7/8/2021 2:15:00 AM 19.15 66.47 0.06 7 3.08 8.23
7/8/2021 2:30:00 AM 19.09 66.362 0.06 7.01 3.45 8.25
7/8/2021 2:45:00 AM 19.03 66.254 0.06 7.01 3.17 8.26
7/8/2021 3:00:00 AM 18.96 66.128 0.06 7.01 3.16 8.3
7/8/2021 3:15:00 AM 18.91 66.038 0.061 7.01 3.9 8.27
7/8/2021 3:30:00 AM 18.85 65.93 0.061 7.01 3.27 8.32
7/8/2021 3:45:00 AM 18.8 65.84 0.061 7 3.44 8.32
7/8/2021 4:00:00 AM 18.74 65.732 0.061 7 3.83 8.34
7/8/2021 4:15:00 AM 18.69 65.642 0.061 6.97 3.2 8.33
7/8/2021 4:30:00 AM 18.64 65.552 0.061 7.02 3.79 8.36
7/8/2021 4:45:00 AM 18.59 65.462 0.061 7.01 3.56 8.38
7/8/2021 5:00:00 AM 18.55 65.39 0.061 7.01 3.44 8.36
7/8/2021 5:15:00 AM 18.51 65.318 0.061 7.01 3.99 8.41
7/8/2021 5:30:00 AM 18.47 65.246 0.061 7 3.31 8.39
7/8/2021 5:45:00 AM 18.43 65.174 0.061 7 3.63 8.38
7/8/2021 6:00:00 AM 18.39 65.102 0.061 7 3.6 8.41
7/8/2021 6:15:00 AM 18.35 65.03 0.061 7.01 3.9 8.44
7/8/2021 6:30:00 AM 18.32 64.976 0.061 7 3.6 8.49
7/8/2021 6:45:00 AM 18.3 64.94 0.061 7.01 3.42 8.46
7/8/2021 7:00:00 AM 18.26 64.868 0.061 7.03 4.18 8.56
7/8/2021 7:15:00 AM 18.25 64.85 0.061 7.01 4.19 8.58
7/8/2021 7:30:00 AM 18.22 64.796 0.06 7.02 4.58 8.55
7/8/2021 7:45:00 AM 18.2 64.76 0.061 7.01 3.68 8.57
7/8/2021 8:00:00 AM 18.18 64.724 0.06 6.97 4.27 8.61
7/8/2021 8:15:00 AM 18.16 64.688 0.06 7.03 3.71 8.65
7/8/2021 8:30:00 AM 18.16 64.688 0.06 7.04 3.43 8.65
7/8/2021 8:45:00 AM 18.16 64.688 0.06 7.04 3.32 8.7
7/8/2021 9:00:00 AM 18.19 64.742 0.06 7 3.45 8.81
7/8/2021 9:15:00 AM 18.19 64.742 0.06 7.06 3.19 8.82
7/8/2021 9:30:00 AM 18.2 64.76 0.06 7.03 3.06 8.85
7/8/2021 9:45:00 AM 18.21 64.778 0.06 7.09 2.86 8.85
7/8/2021 10:00:00 AM 18.24 64.832 0.06 7.07 2.93 8.88
7/8/2021 10:15:00 AM 18.26 64.868 0.06 7.13 2.92 8.92
7/8/2021 10:30:00 AM 18.33 64.994 0.059 7.14 3.01 8.96
7/8/2021 10:45:00 AM 18.47 65.246 0.059 7.16 2.83 9.04
7/8/2021 11:00:00 AM 18.61 65.498 0.059 7.2 2.57 9.06
7/8/2021 11:15:00 AM 18.7 65.66 0.059 7.18 2.9 9.11
7/8/2021 11:30:00 AM 18.8 65.84 0.059 7.22 2.8 9.08
7/8/2021 11:45:00 AM 18.91 66.038 0.059 7.23 2.76 9.1
7/8/2021 12:00:00 PM 19.15 66.47 0.059 7.26 2.74 9.09
7/8/2021 12:15:00 PM 19.18 66.524 0.059 7.28 3.35 9.08
7/8/2021 12:30:00 PM 19.21 66.578 0.059 7.29 2.86 9.03
7/8/2021 12:45:00 PM 19.28 66.704 0.059 7.28 2.7 8.92
7/8/2021 1:00:00 PM 19.32 66.776 0.059 7.25 2.99 8.84
7/8/2021 1:15:00 PM 19.43 66.974 0.059 7.24 2.78 8.85
7/8/2021 1:30:00 PM 19.56 67.208 0.059 7.27 2.65 8.87
7/8/2021 1:45:00 PM 19.66 67.388 0.059 7.27 2.85 8.8
7/8/2021 2:00:00 PM 19.71 67.478 0.059 7.27 2.74 8.8
7/8/2021 2:15:00 PM 19.76 67.568 0.059 7.27 3.13 8.8
7/8/2021 2:30:00 PM 19.75 67.55 0.059 7.25 2.86 8.77
7/8/2021 2:45:00 PM 19.75 67.55 0.059 7.26 2.75 8.78
7/8/2021 3:00:00 PM 19.75 67.55 0.059 7.28 3.21 8.82
7/8/2021 3:15:00 PM 19.69 67.442 0.059 7.28 2.66 8.81
7/8/2021 3:30:00 PM 19.68 67.424 0.059 7.27 3.13 8.8
7/8/2021 3:45:00 PM 19.68 67.424 0.059 7.28 2.99 8.81
7/8/2021 4:00:00 PM 19.61 67.298 0.059 7.23 2.67 8.68
7/8/2021 4:15:00 PM 19.59 67.262 0.058 7.22 2.8 8.68
7/8/2021 4:30:00 PM 19.57 67.226 0.059 7.19 2.83 8.7
7/8/2021 4:45:00 PM 19.61 67.298 0.059 7.23 2.83 8.73
7/8/2021 5:00:00 PM 19.59 67.262 0.059 7.23 2.74 8.72
7/8/2021 5:15:00 PM 19.53 67.154 0.059 7.19 2.61 8.6
7/8/2021 5:30:00 PM 19.53 67.154 0.058 7.17 2.79 8.57
7/8/2021 5:45:00 PM 19.53 67.154 0.058 7.16 2.98 8.66
7/8/2021 6:00:00 PM 19.49 67.082 0.058 7.16 3.02 8.62
7/8/2021 6:15:00 PM 19.48 67.064 0.058 7.15 2.93 8.64
7/8/2021 6:30:00 PM 19.44 66.992 0.058 7.18 2.98 8.61
7/8/2021 6:45:00 PM 19.41 66.938 0.058 7.15 2.95 8.54
7/8/2021 7:00:00 PM 19.34 66.812 0.059 7.1 2.89 8.48
7/8/2021 7:15:00 PM 19.3 66.74 0.059 7.11 3.45 8.44
7/8/2021 7:30:00 PM 19.27 66.686 0.058 7.09 3.52 8.43
7/8/2021 7:45:00 PM 19.21 66.578 0.059 7.08 3.16 8.43
7/8/2021 8:00:00 PM 19.16 66.488 0.059 7.08 3.28 8.45
7/8/2021 8:15:00 PM 19.11 66.398 0.059 7.06 3.43 8.4
7/8/2021 8:30:00 PM 19.08 66.344 0.059 6.99 3.69 8.36
7/8/2021 8:45:00 PM 19.01 66.218 0.059 7.04 3 8.37
7/8/2021 9:00:00 PM 18.94 66.092 0.059 7.03 3.3 8.35
7/8/2021 9:15:00 PM 18.88 65.984 0.059 7.01 3.67 8.34
7/8/2021 9:30:00 PM 18.81 65.858 0.059 7.01 3.51 8.37
7/8/2021 9:45:00 PM 18.77 65.786 0.06 6.94 3.64 8.36
7/8/2021 10:00:00 PM 18.72 65.696 0.06 6.99 3.48 8.36
7/8/2021 10:15:00 PM 18.66 65.588 0.06 6.98 3.41 8.37
7/8/2021 10:30:00 PM 18.62 65.516 0.06 6.96 3.69 8.35
7/8/2021 10:45:00 PM 18.58 65.444 0.06 6.95 9.05 8.32
7/8/2021 11:00:00 PM 18.53 65.354 0.06 6.95 4.23 8.36
7/8/2021 11:15:00 PM 18.49 65.282 0.06 6.89 5.15 8.37
7/8/2021 11:30:00 PM 18.45 65.21 0.06 6.95 3.67 8.39
7/8/2021 11:45:00 PM 18.4 65.12 0.06 6.95 3.78 8.39
7/9/2021 12:00:00 AM 18.37 65.066 0.06 6.93 4.51 8.38
7/9/2021 12:15:00 AM 18.34 65.012 0.06 6.96 3.58 8.4
7/9/2021 12:30:00 AM 18.3 64.94 0.06 6.92 4.15 8.42
7/9/2021 12:45:00 AM 18.26 64.868 0.06 6.97 4.03 8.41
7/9/2021 1:00:00 AM 18.22 64.796 0.06 6.98 3.76 8.44
7/9/2021 1:15:00 AM 18.17 64.706 0.061 6.99 3.53 8.45
7/9/2021 1:30:00 AM 18.12 64.616 0.061 7 3.27 8.47
7/9/2021 1:45:00 AM 18.07 64.526 0.061 6.99 4.04 8.45
7/9/2021 2:00:00 AM 18.02 64.436 0.061 7.01 4.83 8.46
7/9/2021 2:15:00 AM 17.98 64.364 0.061 7 5.07 8.47
7/9/2021 2:30:00 AM 17.93 64.274 0.061 7.01 4.74 8.49
7/9/2021 2:45:00 AM 17.89 64.202 0.061 7.01 3.66 8.5
7/9/2021 3:00:00 AM 17.86 64.148 0.061 7.01 3.84 8.52
7/9/2021 3:15:00 AM 17.83 64.094 0.061 6.95 3.62 8.51
7/9/2021 3:30:00 AM 17.8 64.04 0.061 7.01 3.56 8.5
7/9/2021 3:45:00 AM 17.76 63.968 0.061 7.02 4.45 8.54
7/9/2021 4:00:00 AM 17.72 63.896 0.061 7.02 4.11 8.55
7/9/2021 4:15:00 AM 17.69 63.842 0.061 7.02 4.19 8.56
7/9/2021 4:30:00 AM 17.66 63.788 0.061 6.97 3.72 8.58
7/9/2021 4:45:00 AM 17.63 63.734 0.061 6.98 3.87 8.56
7/9/2021 5:00:00 AM 17.61 63.698 0.061 7.02 3.86 8.56
7/9/2021 5:15:00 AM 17.58 63.644 0.061 6.97 3.85 8.56
7/9/2021 5:30:00 AM 17.55 63.59 0.061 7.02 3.99 8.58
7/9/2021 5:45:00 AM 17.53 63.554 0.061 6.96 3.79 8.56
7/9/2021 6:00:00 AM 17.51 63.518 0.061 7.01 3.65 8.55
7/9/2021 6:15:00 AM 17.49 63.482 0.061 7.01 3.47 8.6
7/9/2021 6:30:00 AM 17.47 63.446 0.061 6.99 3.22 8.63
7/9/2021 6:45:00 AM 17.46 63.428 0.061 7.02 3.43 8.63
7/9/2021 7:00:00 AM 17.43 63.374 0.061 7 3.46 8.71
7/9/2021 7:15:00 AM 17.43 63.374 0.061 7.04 3.41 8.75
7/9/2021 7:30:00 AM 17.45 63.41 0.061 7.06 3.35 8.83
7/9/2021 7:45:00 AM 17.5 63.5 0.061 7.06 3.79 8.91
7/9/2021 8:00:00 AM 17.49 63.482 0.061 7.06 3.35 8.95
7/9/2021 8:15:00 AM 17.51 63.518 0.061 7.07 3.29 8.93
7/9/2021 8:30:00 AM 17.54 63.572 0.06 7.11 3.28 9
7/9/2021 8:45:00 AM 17.59 63.662 0.06 7.13 3.21 9.02
7/9/2021 9:00:00 AM 17.62 63.716 0.06 7.15 2.9 9.07
7/9/2021 9:15:00 AM 17.71 63.878 0.06 7.16 3.16 9.1
7/9/2021 9:30:00 AM 17.78 64.004 0.06 7.18 3 9.12
7/9/2021 9:45:00 AM 17.87 64.166 0.06 7.19 4.4 9.12
7/9/2021 10:00:00 AM 18 64.4 0.06 7.21 4.51 9.16
7/9/2021 10:15:00 AM 18.13 64.634 0.06 7.23 3.45 9.18
7/9/2021 10:30:00 AM 18.22 64.796 0.059 7.25 2.73 9.18
7/9/2021 10:45:00 AM 18.27 64.886 0.059 7.26 2.74 9.13
7/9/2021 11:00:00 AM 18.38 65.084 0.059 7.26 2.83 9.13
7/9/2021 11:15:00 AM 18.52 65.336 0.059 7.22 2.89 9.15
7/9/2021 11:30:00 AM 18.51 65.318 0.059 7.28 2.93 9.06
7/9/2021 11:45:00 AM 18.57 65.426 0.059 7.26 2.7 9.06
7/9/2021 12:00:00 PM 18.7 65.66 0.059 7.26 2.75 9.06
7/9/2021 12:15:00 PM 18.84 65.912 0.059 7.27 2.87 9.1
7/9/2021 12:30:00 PM 18.97 66.146 0.059 7.3 3.04 9.09
7/9/2021 12:45:00 PM 19.05 66.29 0.059 7.31 3.04 9.04
7/9/2021 1:00:00 PM 19.47 67.046 0.059 7.32 3.11 9.1
7/9/2021 1:15:00 PM 19.85 67.73 0.059 7.31 2.73 9.08
7/9/2021 1:30:00 PM 19.84 67.712 0.059 7.27 2.86 9.02
7/9/2021 1:45:00 PM 19.98 67.964 0.059 7.34 2.9 8.94
7/9/2021 2:00:00 PM 19.83 67.694 0.059 7.32 7.11 8.8
7/9/2021 2:15:00 PM 19.87 67.766 0.059 7.21 2.9 8.74
7/9/2021 2:30:00 PM 20.02 68.036 0.059 7.25 2.99 8.77
7/9/2021 2:45:00 PM 20.37 68.666 0.059 7.3 2.77 8.8
7/9/2021 3:00:00 PM 20.54 68.972 0.059 7.31 2.86 8.74
7/9/2021 3:15:00 PM 20.78 69.404 0.059 7.32 2.74 8.75
7/9/2021 3:30:00 PM 20.78 69.404 0.059 7.33 3.64 8.68
7/9/2021 3:45:00 PM 20.92 69.656 0.059 7.33 2.87 8.7
7/9/2021 4:00:00 PM 21.02 69.836 0.059 7.32 3.29 8.68
7/9/2021 4:15:00 PM 21.02 69.836 0.059 7.27 3.05 8.65
7/9/2021 4:30:00 PM 20.96 69.728 0.059 7.32 3.05 8.61
7/9/2021 4:45:00 PM 20.98 69.764 0.059 7.32 2.58 8.58
7/9/2021 5:00:00 PM 20.97 69.746 0.059 7.31 3.43 8.56
7/9/2021 5:15:00 PM 21 69.8 0.059 7.29 2.83 8.54
7/9/2021 5:30:00 PM 21.05 69.89 0.059 7.29 2.77 8.52
7/9/2021 5:45:00 PM 20.92 69.656 0.059 7.28 3.07 8.47
7/9/2021 6:00:00 PM 20.85 69.53 0.059 7.27 3.12 8.46
7/9/2021 6:15:00 PM 20.77 69.386 0.059 7.2 2.75 8.44
7/9/2021 6:30:00 PM 20.67 69.206 0.059 7.26 3.37 8.44
7/9/2021 6:45:00 PM 20.57 69.026 0.059 7.25 3.01 8.42
7/9/2021 7:00:00 PM 20.47 68.846 0.059 7.23 3.07 8.31
7/9/2021 7:15:00 PM 20.37 68.666 0.059 7.21 2.87 8.36
7/9/2021 7:30:00 PM 20.27 68.486 0.059 7.12 3.01 8.36
7/9/2021 7:45:00 PM 20.15 68.27 0.059 7.18 3.14 8.32
7/9/2021 8:00:00 PM 20.06 68.108 0.06 7.16 3.2 8.29
7/9/2021 8:15:00 PM 19.94 67.892 0.06 7.15 3.31 8.29
7/9/2021 8:30:00 PM 19.85 67.73 0.06 7.13 3.56 8.26
7/9/2021 8:45:00 PM 19.73 67.514 0.06 7.12 3.53 8.26
7/9/2021 9:00:00 PM 19.62 67.316 0.06 7.09 3.93 8.25
7/9/2021 9:15:00 PM 19.5 67.1 0.06 7.08 3.65 8.23
7/9/2021 9:30:00 PM 19.38 66.884 0.06 7.08 3.36 8.24
7/9/2021 9:45:00 PM 19.23 66.614 0.06 7.08 3.81 8.26
7/9/2021 10:00:00 PM 19.12 66.416 0.06 7.07 3.61 8.24
7/9/2021 10:15:00 PM 18.99 66.182 0.061 7.07 3.84 8.3
7/9/2021 10:30:00 PM 18.88 65.984 0.061 7 3.66 8.29
7/9/2021 10:45:00 PM 18.76 65.768 0.061 7.07 3.67 8.34
7/9/2021 11:00:00 PM 18.65 65.57 0.061 7.06 3.4 8.36
7/9/2021 11:15:00 PM 18.54 65.372 0.061 7.06 3.33 8.34
7/9/2021 11:30:00 PM 18.43 65.174 0.061 7.05 3.41 8.35
7/9/2021 11:45:00 PM 18.32 64.976 0.061 7.06 3.23 8.43
7/10/2021 12:00:00 AM 18.24 64.832 0.061 7.04 3.27 8.4
7/10/2021 12:15:00 AM 18.13 64.634 0.061 7.02 3.65 8.44
7/10/2021 12:30:00 AM 18.06 64.508 0.061 7.03 3.6 8.44
7/10/2021 12:45:00 AM 17.95 64.31 0.061 7.05 3.95 8.48
7/10/2021 1:00:00 AM 17.87 64.166 0.061 7.04 3.6 8.51
7/10/2021 1:15:00 AM 17.79 64.022 0.061 7.01 3.54 8.53
7/10/2021 1:30:00 AM 17.71 63.878 0.061 7.05 3.76 8.54
7/10/2021 1:45:00 AM 17.67 63.806 0.061 7.04 4.59 8.54
7/10/2021 2:00:00 AM 17.6 63.68 0.061 7.04 4.17 8.56
7/10/2021 2:15:00 AM 17.56 63.608 0.061 7.04 5.39 8.56
7/10/2021 2:30:00 AM 17.51 63.518 0.061 7.03 4.03 8.55
7/10/2021 2:45:00 AM 17.46 63.428 0.061 7.03 3.48 8.59
7/10/2021 3:00:00 AM 17.42 63.356 0.061 7.02 3.99 8.57
7/10/2021 3:15:00 AM 17.37 63.266 0.061 7.02 3.42 8.58
7/10/2021 3:30:00 AM 17.32 63.176 0.061 7.04 3.32 8.62
7/10/2021 3:45:00 AM 17.26 63.068 0.061 6.96 3.77 8.61
7/10/2021 4:00:00 AM 17.2 62.96 0.061 7.03 3.51 8.63
7/10/2021 4:15:00 AM 17.14 62.852 0.061 7.02 3.52 8.62
7/10/2021 4:30:00 AM 17.07 62.726 0.061 7.03 3.71 8.66
7/10/2021 4:45:00 AM 17.01 62.618 0.061 7.03 3.53 8.65
7/10/2021 5:00:00 AM 16.94 62.492 0.061 7.03 3.76 8.67
7/10/2021 5:15:00 AM 16.86 62.348 0.061 7.03 3.77 8.68
7/10/2021 5:30:00 AM 16.82 62.276 0.061 7.03 3.48 8.66
7/10/2021 5:45:00 AM 16.75 62.15 0.061 7.03 3.48 8.74
7/10/2021 6:00:00 AM 16.7 62.06 0.061 7.03 3.61 8.74
7/10/2021 6:15:00 AM 16.64 61.952 0.061 7.03 3.64 8.77
7/10/2021 6:30:00 AM 16.6 61.88 0.061 7 3.57 8.81
7/10/2021 6:45:00 AM 16.58 61.844 0.061 6.99 3.49 8.85
7/10/2021 7:00:00 AM 16.53 61.754 0.061 7.04 3.73 8.88
7/10/2021 7:15:00 AM 16.49 61.682 0.061 7.01 4.68 8.98
7/10/2021 7:30:00 AM 16.48 61.664 0.061 7.08 3.61 9.01
7/10/2021 7:45:00 AM 16.49 61.682 0.061 7.08 3.89 9.04
7/10/2021 8:00:00 AM 16.51 61.718 0.061 7.11 3.65 9.09
7/10/2021 8:15:00 AM 16.58 61.844 0.061 7.12 7.83 9.17
7/10/2021 8:30:00 AM 16.62 61.916 0.061 7.15 4.14 9.21
7/10/2021 8:45:00 AM 16.65 61.97 0.06 7.15 2.85 9.18
7/10/2021 9:00:00 AM 16.73 62.114 0.06 7.11 2.92 9.23
7/10/2021 9:15:00 AM 16.81 62.258 0.06 7.16 3.89 9.25
7/10/2021 9:30:00 AM 16.83 62.294 0.06 7.18 2.76 9.26
7/10/2021 9:45:00 AM 16.89 62.402 0.06 7.19 2.91 9.3
7/10/2021 10:00:00 AM 17 62.6 0.06 7.12 2.76 9.31
7/10/2021 10:15:00 AM 17.1 62.78 0.06 7.22 2.87 9.34
7/10/2021 10:30:00 AM 17.29 63.122 0.06 7.18 2.92 9.34
7/10/2021 10:45:00 AM 17.44 63.392 0.06 7.25 2.7 9.34
7/10/2021 11:00:00 AM 17.52 63.536 0.06 7.21 2.47 9.25
7/10/2021 11:15:00 AM 17.75 63.95 0.059 7.22 2.53 9.22
7/10/2021 11:30:00 AM 17.91 64.238 0.059 7.26 2.84 9.23
7/10/2021 11:45:00 AM 18.03 64.454 0.059 7.24 2.56 9.21
7/10/2021 12:00:00 PM 18.29 64.922 0.059 7.28 5.33 9.21
7/10/2021 12:15:00 PM 18.37 65.066 0.059 7.23 6.32 9.18
7/10/2021 12:30:00 PM 18.38 65.084 0.059 7.28 6.09 9.12
7/10/2021 12:45:00 PM 18.66 65.588 0.059 7.25 4.91 9.13
7/10/2021 1:00:00 PM 18.67 65.606 0.059 7.32 2.82 9.17
7/10/2021 1:15:00 PM 18.85 65.93 0.059 7.28 2.7 9.14
7/10/2021 1:30:00 PM 18.97 66.146 0.059 7.33 2.33 9.19
7/10/2021 1:45:00 PM 18.93 66.074 0.059 7.33 2.45 9.19
7/10/2021 2:00:00 PM 18.94 66.092 0.059 7.26 2.83 9.15
7/10/2021 2:15:00 PM 19 66.2 0.059 7.35 2.99 9.15
7/10/2021 2:30:00 PM 18.99 66.182 0.059 7.35 2.29 9.15
7/10/2021 2:45:00 PM 18.99 66.182 0.059 7.34 2.55 9.14
7/10/2021 3:00:00 PM 19.07 66.326 0.059 7.36 2.55 9.16
7/10/2021 3:15:00 PM 19.14 66.452 0.059 7.33 2.6 9.15
7/10/2021 3:30:00 PM 19.18 66.524 0.059 7.37 2.79 9.09
7/10/2021 3:45:00 PM 19.28 66.704 0.059 7.38 2.45 9.12
7/10/2021 4:00:00 PM 19.33 66.794 0.059 7.38 2.66 9.13
7/10/2021 4:15:00 PM 19.35 66.83 0.059 7.36 3 9.11
7/10/2021 4:30:00 PM 19.39 66.902 0.059 7.39 2.7 9.09
7/10/2021 4:45:00 PM 19.43 66.974 0.059 7.3 2.9 9.05
7/10/2021 5:00:00 PM 19.49 67.082 0.059 7.36 2.69 9.04
7/10/2021 5:15:00 PM 19.68 67.424 0.059 7.36 2.88 9
7/10/2021 5:30:00 PM 19.61 67.298 0.059 7.35 2.49 8.94
7/10/2021 5:45:00 PM 19.61 67.298 0.059 7.31 2.55 8.87
7/10/2021 6:00:00 PM 19.57 67.226 0.059 7.31 2.71 8.85
7/10/2021 6:15:00 PM 19.55 67.19 0.059 7.28 2.62 8.82
7/10/2021 6:30:00 PM 19.55 67.19 0.059 7.26 2.52 8.79
7/10/2021 6:45:00 PM 19.5 67.1 0.059 7.26 2.68 8.69
7/10/2021 7:00:00 PM 19.48 67.064 0.059 7.2 2.89 8.74
7/10/2021 7:15:00 PM 19.41 66.938 0.059 7.23 2.42 8.66
7/10/2021 7:30:00 PM 19.35 66.83 0.059 7.2 3.29 8.57
7/10/2021 7:45:00 PM 19.27 66.686 0.059 7.19 3.46 8.58
7/10/2021 8:00:00 PM 19.21 66.578 0.06 7.17 2.72 8.52
7/10/2021 8:15:00 PM 19.13 66.434 0.06 7.14 2.79 8.49
7/10/2021 8:30:00 PM 19.03 66.254 0.06 7.13 2.93 8.45
7/10/2021 8:45:00 PM 18.92 66.056 0.06 7.11 3.25 8.41
7/10/2021 9:00:00 PM 18.8 65.84 0.06 7.09 3.33 8.38
7/10/2021 9:15:00 PM 18.67 65.606 0.06 7.09 3.21 8.38
7/10/2021 9:30:00 PM 18.57 65.426 0.061 7.06 3.63 8.32
7/10/2021 9:45:00 PM 18.42 65.156 0.061 7.05 3.35 8.36
7/10/2021 10:00:00 PM 18.29 64.922 0.061 7.05 3.13 8.42
7/10/2021 10:15:00 PM 18.19 64.742 0.061 7 3.64 8.37
7/10/2021 10:30:00 PM 18.06 64.508 0.061 7.05 3.34 8.46
7/10/2021 10:45:00 PM 17.96 64.328 0.061 7.03 6.05 8.39
7/10/2021 11:00:00 PM 17.84 64.112 0.061 7.04 4.14 8.44
7/10/2021 11:15:00 PM 17.74 63.932 0.061 6.96 4.21 8.45
7/10/2021 11:30:00 PM 17.64 63.752 0.061 7.02 3.78 8.49
7/10/2021 11:45:00 PM 17.54 63.572 0.061 6.97 3.39 8.56
7/11/2021 12:00:00 AM 17.45 63.41 0.061 7.04 3.49 8.58
7/11/2021 12:15:00 AM 17.35 63.23 0.061 7.04 3.13 8.6
7/11/2021 12:30:00 AM 17.29 63.122 0.062 7.02 2.96 8.55
7/11/2021 12:45:00 AM 17.21 62.978 0.062 7 5.13 8.52
7/11/2021 1:00:00 AM 17.11 62.798 0.062 7.02 3.57 8.63
7/11/2021 1:15:00 AM 17.04 62.672 0.062 7.03 3.08 8.62
7/11/2021 1:30:00 AM 16.98 62.564 0.062 7.01 3.58 8.61
7/11/2021 1:45:00 AM 16.91 62.438 0.062 7.02 3.02 8.66
7/11/2021 2:00:00 AM 16.83 62.294 0.062 6.95 5.02 8.65
7/11/2021 2:15:00 AM 16.76 62.168 0.062 7.02 3.7 8.69
7/11/2021 2:30:00 AM 16.69 62.042 0.062 7.02 2.98 8.69
7/11/2021 2:45:00 AM 16.62 61.916 0.062 7.02 2.95 8.71
7/11/2021 3:00:00 AM 16.57 61.826 0.062 6.93 4.03 8.74
7/11/2021 3:15:00 AM 16.5 61.7 0.062 7.02 3.61 8.74
7/11/2021 3:30:00 AM 16.47 61.646 0.062 7 3.45 8.74
7/11/2021 3:45:00 AM 16.41 61.538 0.062 7.03 3.42 8.79
7/11/2021 4:00:00 AM 16.38 61.484 0.062 7.02 3.39 8.79
7/11/2021 4:15:00 AM 16.34 61.412 0.062 7.02 3.44 8.77
7/11/2021 4:30:00 AM 16.3 61.34 0.062 6.95 4.45 8.79
7/11/2021 4:45:00 AM 16.26 61.268 0.062 7.02 3.69 8.8
7/11/2021 5:00:00 AM 16.23 61.214 0.062 7.03 3.42 8.84
7/11/2021 5:15:00 AM 16.2 61.16 0.062 7.03 3.6 8.82
7/11/2021 5:30:00 AM 16.17 61.106 0.062 6.95 3.24 8.85
7/11/2021 5:45:00 AM 16.15 61.07 0.062 7.02 3.29 8.85
7/11/2021 6:00:00 AM 16.14 61.052 0.062 7.02 5.18 8.84
7/11/2021 6:15:00 AM 16.13 61.034 0.062 7.01 3.51 8.81
7/11/2021 6:30:00 AM 16.1 60.98 0.062 7.02 3.2 8.88
7/11/2021 6:45:00 AM 16.09 60.962 0.062 7.03 4.16 8.88
7/11/2021 7:00:00 AM 16.08 60.944 0.062 6.96 3.29 8.92
7/11/2021 7:15:00 AM 16.09 60.962 0.062 7.02 3.76 8.91
7/11/2021 7:30:00 AM 16.08 60.944 0.061 7.05 4.47 9
7/11/2021 7:45:00 AM 16.1 60.98 0.061 7.06 10.73 9.08
7/11/2021 8:00:00 AM 16.13 61.034 0.061 7.07 3.49 9.14
7/11/2021 8:15:00 AM 16.12 61.016 0.061 7.09 3.56 9.11
7/11/2021 8:30:00 AM 16.13 61.034 0.061 7.08 3.59 9.1
7/11/2021 8:45:00 AM 16.17 61.106 0.061 7.07 3.12 9.13
7/11/2021 9:00:00 AM 16.16 61.088 0.061 7.09 3.15 9.16
7/11/2021 9:15:00 AM 16.2 61.16 0.061 7.06 3.06 9.12
7/11/2021 9:30:00 AM 16.21 61.178 0.061 7.09 2.78 9.17
7/11/2021 9:45:00 AM 16.3 61.34 0.061 7.09 2.73 9.26
7/11/2021 10:00:00 AM 16.4 61.52 0.061 7.14 2.65 9.35
7/11/2021 10:15:00 AM 16.56 61.808 0.061 7.16 2.73 9.4
7/11/2021 10:30:00 AM 16.62 61.916 0.06 7.18 3.9 9.42
7/11/2021 10:45:00 AM 16.68 62.024 0.06 7.2 3.39 9.44
7/11/2021 11:00:00 AM 16.72 62.096 0.06 7.21 2.97 9.43
7/11/2021 11:15:00 AM 16.78 62.204 0.06 7.21 2.84 9.4
7/11/2021 11:30:00 AM 16.85 62.33 0.06 7.2 2.58 9.4
7/11/2021 11:45:00 AM 16.9 62.42 0.06 7.22 2.82 9.37
7/11/2021 12:00:00 PM 17 62.6 0.06 7.22 2.71 9.37
7/11/2021 12:15:00 PM 17.07 62.726 0.06 7.24 2.56 9.34
7/11/2021 12:30:00 PM 17.15 62.87 0.06 7.24 3.72 9.31
7/11/2021 12:45:00 PM 17.19 62.942 0.06 7.24 3.43 9.26
7/11/2021 1:00:00 PM 17.24 63.032 0.06 7.22 2.53 9.22
7/11/2021 1:15:00 PM 17.3 63.14 0.06 7.21 2.85 9.23
7/11/2021 1:30:00 PM 17.34 63.212 0.06 7.22 2.28 9.21
7/11/2021 1:45:00 PM 17.36 63.248 0.06 7.23 2.4 9.18
7/11/2021 2:00:00 PM 17.37 63.266 0.06 7.22 2.69 9.17
7/11/2021 2:15:00 PM 17.39 63.302 0.06 7.2 2.47 9.14
7/11/2021 2:30:00 PM 17.41 63.338 0.06 7.13 2.36 9.17
7/11/2021 2:45:00 PM 17.43 63.374 0.06 7.19 2.52 9.16
7/11/2021 3:00:00 PM 17.44 63.392 0.06 7.16 3.15 9.17
7/11/2021 3:15:00 PM 17.5 63.5 0.06 7.23 3.93 9.22
7/11/2021 3:30:00 PM 17.57 63.626 0.06 7.25 2.7 9.26
7/11/2021 3:45:00 PM 17.63 63.734 0.06 7.26 2.41 9.28
7/11/2021 4:00:00 PM 17.71 63.878 0.06 7.29 2.82 9.31
7/11/2021 4:15:00 PM 17.71 63.878 0.06 7.27 2.61 9.26
7/11/2021 4:30:00 PM 17.68 63.824 0.06 7.27 2.67 9.16
7/11/2021 4:45:00 PM 17.67 63.806 0.06 7.25 2.57 9.1
7/11/2021 5:00:00 PM 17.67 63.806 0.059 7.22 2.99 9.02
7/11/2021 5:15:00 PM 17.71 63.878 0.058 7.18 3.36 8.93
7/11/2021 5:30:00 PM 17.71 63.878 0.057 7.13 4.19 8.81
7/11/2021 5:45:00 PM 17.7 63.86 0.057 7.1 4.18 8.73
7/11/2021 6:00:00 PM 17.71 63.878 0.057 7.08 3.75 8.68
7/11/2021 6:15:00 PM 17.7 63.86 0.056 7.05 4.39 8.65
7/11/2021 6:30:00 PM 17.68 63.824 0.056 7.03 4.5 8.61
7/11/2021 6:45:00 PM 17.65 63.77 0.056 7.02 6.05 8.6
7/11/2021 7:00:00 PM 17.63 63.734 0.054 7.03 5.91 8.7
7/11/2021 7:15:00 PM 17.59 63.662 0.054 6.99 5.86 8.62
7/11/2021 7:30:00 PM 17.51 63.518 0.054 6.99 7.26 8.66
7/11/2021 7:45:00 PM 17.42 63.356 0.054 6.98 7.42 8.67
7/11/2021 8:00:00 PM 17.33 63.194 0.055 6.97 7.01 8.65
7/11/2021 8:15:00 PM 17.25 63.05 0.056 6.98 8.08 8.67
7/11/2021 8:30:00 PM 17.19 62.942 0.056 6.98 9.04 8.7
7/11/2021 8:45:00 PM 17.12 62.816 0.057 6.97 16.56 8.73
7/11/2021 9:00:00 PM 17.06 62.708 0.056 6.96 22.36 8.74
7/11/2021 9:15:00 PM 17.05 62.69 0.056 6.94 17.21 8.76
7/11/2021 9:30:00 PM 17.05 62.69 0.056 6.93 24.68 8.78
7/11/2021 9:45:00 PM 17.03 62.654 0.057 6.93 35.79 8.8
7/11/2021 10:00:00 PM 16.98 62.564 0.058 6.95 31.9 8.82
7/11/2021 10:15:00 PM 16.9 62.42 0.059 6.95 37.73 8.83
7/11/2021 10:30:00 PM 16.83 62.294 0.058 6.95 42.39 8.85
7/11/2021 10:45:00 PM 16.76 62.168 0.057 6.94 49.26 8.87
7/11/2021 11:00:00 PM 16.68 62.024 0.055 6.93 35.16 8.88
7/11/2021 11:15:00 PM 16.61 61.898 0.054 6.92 27.73 8.9
7/11/2021 11:30:00 PM 16.54 61.772 0.053 6.91 28.94 8.91
7/11/2021 11:45:00 PM 16.47 61.646 0.053 6.89 23.48 8.94
7/12/2021 12:00:00 AM 16.42 61.556 0.053 6.89 24.22 8.93
7/12/2021 12:15:00 AM 16.37 61.466 0.053 6.88 22.13 8.97
7/12/2021 12:30:00 AM 16.31 61.358 0.053 6.87 19.72 8.96
7/12/2021 12:45:00 AM 16.27 61.286 0.053 6.87 18.78 8.99
7/12/2021 1:00:00 AM 16.23 61.214 0.053 6.87 18.12 9
7/12/2021 1:15:00 AM 16.19 61.142 0.054 6.87 16.2 8.98
7/12/2021 1:30:00 AM 16.16 61.088 0.054 6.86 16.81 9
7/12/2021 1:45:00 AM 16.13 61.034 0.054 6.78 15.48 9
7/12/2021 2:00:00 AM 16.11 60.998 0.054 6.86 15.31 9
7/12/2021 2:15:00 AM 16.09 60.962 0.055 6.87 15.03 8.99
7/12/2021 2:30:00 AM 16.08 60.944 0.055 6.86 15.07 8.99
7/12/2021 2:45:00 AM 16.06 60.908 0.055 6.86 14.76 8.99
7/12/2021 3:00:00 AM 16.05 60.89 0.055 6.86 16.93 8.99
7/12/2021 3:15:00 AM 16.04 60.872 0.055 6.86 13.88 8.99
7/12/2021 3:30:00 AM 16.02 60.836 0.055 6.87 14.46 9
7/12/2021 3:45:00 AM 16.01 60.818 0.055 6.86 13.41 8.99
7/12/2021 4:00:00 AM 16 60.8 0.055 6.86 13.99 9
7/12/2021 4:15:00 AM 15.99 60.782 0.054 6.78 12.71 9
7/12/2021 4:30:00 AM 15.98 60.764 0.055 6.86 12.76 9
7/12/2021 4:45:00 AM 15.96 60.728 0.055 6.79 13.26 9.01
7/12/2021 5:00:00 AM 15.95 60.71 0.055 6.86 13.42 9.01
7/12/2021 5:15:00 AM 15.93 60.674 0.055 6.86 13.36 9.01
7/12/2021 5:30:00 AM 15.91 60.638 0.055 6.86 12.86 9.03
7/12/2021 5:45:00 AM 15.9 60.62 0.055 6.85 13.65 9.03
7/12/2021 6:00:00 AM 15.88 60.584 0.055 6.85 13 9.04
7/12/2021 6:15:00 AM 15.87 60.566 0.055 6.85 12.87 9.04
7/12/2021 6:30:00 AM 15.86 60.548 0.055 6.85 13.05 9.05
7/12/2021 6:45:00 AM 15.85 60.53 0.055 6.85 12.14 9.11
7/12/2021 7:00:00 AM 15.86 60.548 0.055 6.86 12.98 9.13
7/12/2021 7:15:00 AM 15.85 60.53 0.055 6.8 12.55 9.14
7/12/2021 7:30:00 AM 15.85 60.53 0.055 6.82 12.3 9.15
7/12/2021 7:45:00 AM 15.86 60.548 0.055 6.88 12.13 9.18
7/12/2021 8:00:00 AM 15.89 60.602 0.055 6.82 12.07 9.22
7/12/2021 8:15:00 AM 15.9 60.62 0.055 6.9 11.56 9.24
7/12/2021 8:30:00 AM 15.94 60.692 0.055 6.92 11.77 9.3
7/12/2021 8:45:00 AM 15.98 60.764 0.055 6.94 11.78 9.34
7/12/2021 9:00:00 AM 16 60.8 0.055 6.95 11.47 9.35
7/12/2021 9:15:00 AM 16.04 60.872 0.055 7 11.59 9.36
7/12/2021 9:30:00 AM 16.12 61.016 0.055 7 11.05 9.4
7/12/2021 9:45:00 AM 16.21 61.178 0.055 7.01 11.46 9.41
7/12/2021 10:00:00 AM 16.26 61.268 0.055 7.08 11.48 9.4
7/12/2021 10:15:00 AM 16.33 61.394 0.056 7.1 11.32 9.42
7/12/2021 10:30:00 AM 16.44 61.592 0.056 7.12 11.82 9.43
7/12/2021 10:45:00 AM 16.57 61.826 0.056 7.14 11.12 9.44
7/12/2021 11:00:00 AM 16.66 61.988 0.056 7.16 11.65 9.43
7/12/2021 11:15:00 AM 16.83 62.294 0.056 7.18 11.26 9.46
7/12/2021 11:30:00 AM 16.93 62.474 0.056 7.19 11.31 9.44
7/12/2021 11:45:00 AM 17.15 62.87 0.056 7.2 11.22 9.42
7/12/2021 12:00:00 PM 17.22 62.996 0.056 7.22 11.12 9.4
7/12/2021 12:15:00 PM 17.36 63.248 0.056 7.22 10.67 9.38
7/12/2021 12:30:00 PM 17.47 63.446 0.056 7.23 11.05 9.34
7/12/2021 12:45:00 PM 17.72 63.896 0.056 7.24 10.7 9.31
7/12/2021 1:00:00 PM 17.65 63.77 0.056 7.14 10.68 9.23
7/12/2021 1:15:00 PM 17.7 63.86 0.056 7.19 11.07 9.2
7/12/2021 1:30:00 PM 17.8 64.04 0.056 7.2 11 9.25
7/12/2021 1:45:00 PM 17.92 64.256 0.056 7.23 10.86 9.26
7/12/2021 2:00:00 PM 18.09 64.562 0.056 7.25 11.21 9.31
7/12/2021 2:15:00 PM 18.16 64.688 0.056 7.27 10.9 9.33
7/12/2021 2:30:00 PM 18.38 65.084 0.056 7.28 10.84 9.31
7/12/2021 2:45:00 PM 18.54 65.372 0.056 7.29 11.04 9.28
7/12/2021 3:00:00 PM 18.6 65.48 0.057 7.29 11.11 9.24
7/12/2021 3:15:00 PM 18.8 65.84 0.057 7.29 10.49 9.21
7/12/2021 3:30:00 PM 18.99 66.182 0.057 7.29 10.91 9.17
7/12/2021 3:45:00 PM 19.2 66.56 0.057 7.2 11.18 9.13
7/12/2021 4:00:00 PM 19.4 66.92 0.057 7.29 11.48 9.08
7/12/2021 4:15:00 PM 19.48 67.064 0.057 7.29 11.57 9.05
7/12/2021 4:30:00 PM 19.47 67.046 0.057 7.29 11.64 9
7/12/2021 4:45:00 PM 19.37 66.866 0.057 7.26 11.78 8.92
7/12/2021 5:00:00 PM 19.27 66.686 0.057 7.22 11.99 8.77
7/12/2021 5:15:00 PM 19.23 66.614 0.057 7.1 12.31 8.72
7/12/2021 5:30:00 PM 19.25 66.65 0.057 7.19 11.88 8.81
7/12/2021 5:45:00 PM 19.09 66.362 0.057 7.2 11.91 8.82
7/12/2021 6:00:00 PM 18.91 66.038 0.057 7.18 11.15 8.79
7/12/2021 6:15:00 PM 18.76 65.768 0.058 7.1 6.14 8.83
7/12/2021 6:30:00 PM 18.66 65.588 0.058 7.17 5.9 8.82
7/12/2021 6:45:00 PM 18.59 65.462 0.058 7.17 5.98 8.86
7/12/2021 7:00:00 PM 18.45 65.21 0.058 7.17 7.35 8.87
7/12/2021 7:15:00 PM 18.32 64.976 0.058 7.17 7.61 8.87
7/12/2021 7:30:00 PM 18.12 64.616 0.058 7.15 12.3 8.88
7/12/2021 7:45:00 PM 17.94 64.292 0.058 7.12 13.63 8.87
7/12/2021 8:00:00 PM 17.88 64.184 0.057 7.08 17.25 8.85
7/12/2021 8:15:00 PM 17.84 64.112 0.057 7.06 18.18 8.83
7/12/2021 8:30:00 PM 17.8 64.04 0.059 7.06 21.94 8.81
7/12/2021 8:45:00 PM 17.76 63.968 0.06 7.06 25.3 8.8
7/12/2021 9:00:00 PM 17.72 63.896 0.06 7.05 23.08 8.77
7/12/2021 9:15:00 PM 17.68 63.824 0.058 7.02 28.19 8.78
7/12/2021 9:30:00 PM 17.65 63.77 0.057 7 26.26 8.77
7/12/2021 9:45:00 PM 17.62 63.716 0.056 6.98 24.08 8.77
7/12/2021 10:00:00 PM 17.57 63.626 0.055 6.96 24.83 8.78
7/12/2021 10:15:00 PM 17.52 63.536 0.055 6.95 22.13 8.77
7/12/2021 10:30:00 PM 17.47 63.446 0.055 6.93 19.99 8.8
7/12/2021 10:45:00 PM 17.4 63.32 0.055 6.93 18.5 8.81
7/12/2021 11:00:00 PM 17.34 63.212 0.055 6.92 18.78 8.81
7/12/2021 11:15:00 PM 17.28 63.104 0.055 6.91 18.38 8.83
7/12/2021 11:30:00 PM 17.22 62.996 0.055 6.91 17.49 8.84
7/12/2021 11:45:00 PM 17.16 62.888 0.055 6.91 16.12 8.85
7/13/2021 12:00:00 AM 17.11 62.798 0.055 6.91 15.84 8.86
7/13/2021 12:15:00 AM 17.05 62.69 0.055 6.9 14.45 8.87
7/13/2021 12:30:00 AM 16.99 62.582 0.055 6.9 13.99 8.86
7/13/2021 12:45:00 AM 16.95 62.51 0.055 6.89 14.04 8.89
7/13/2021 1:00:00 AM 16.9 62.42 0.055 6.89 14.67 8.9
7/13/2021 1:15:00 AM 16.85 62.33 0.055 6.89 13.58 8.92
7/13/2021 1:30:00 AM 16.81 62.258 0.055 6.89 14.24 8.92
7/13/2021 1:45:00 AM 16.76 62.168 0.055 6.89 16.31 8.93
7/13/2021 2:00:00 AM 16.73 62.114 0.055 6.88 13.67 8.94
7/13/2021 2:15:00 AM 16.69 62.042 0.055 6.83 13.5 8.93
7/13/2021 2:30:00 AM 16.64 61.952 0.055 6.88 13.33 8.96
7/13/2021 2:45:00 AM 16.6 61.88 0.055 6.88 12.93 8.95
7/13/2021 3:00:00 AM 16.56 61.808 0.055 6.88 13.23 8.95
7/13/2021 3:15:00 AM 16.5 61.7 0.055 6.88 12.3 8.98
7/13/2021 3:30:00 AM 16.46 61.628 0.055 6.88 13.88 9
7/13/2021 3:45:00 AM 16.43 61.574 0.055 6.87 13.94 9.01
7/13/2021 4:00:00 AM 16.37 61.466 0.055 6.87 13.11 9.01
7/13/2021 4:15:00 AM 16.32 61.376 0.055 6.87 11.2 9.03
7/13/2021 4:30:00 AM 16.28 61.304 0.055 6.86 12.86 9.03
7/13/2021 4:45:00 AM 16.24 61.232 0.055 6.86 11.69 9.06
7/13/2021 5:00:00 AM 16.2 61.16 0.055 6.86 14.65 9.06
7/13/2021 5:15:00 AM 16.15 61.07 0.055 6.86 11.75 9.07
7/13/2021 5:30:00 AM 16.1 60.98 0.055 6.77 12.47 9.08
7/13/2021 5:45:00 AM 16.05 60.89 0.055 6.85 12.02 9.08
7/13/2021 6:00:00 AM 16.01 60.818 0.055 6.85 11.73 9.09
7/13/2021 6:15:00 AM 15.98 60.764 0.055 6.76 9.64 9.08
7/13/2021 6:30:00 AM 15.94 60.692 0.055 6.83 114.64 9.09
7/13/2021 6:45:00 AM 15.91 60.638 0.055 6.84 12.21 9.15
7/13/2021 7:00:00 AM 15.89 60.602 0.055 6.85 8.53 9.2
7/13/2021 7:15:00 AM 15.87 60.566 0.055 6.86 6.23 9.27
7/13/2021 7:30:00 AM 15.88 60.584 0.055 6.88 6.36 9.3
7/13/2021 7:45:00 AM 15.87 60.566 0.055 6.9 6.22 9.29
7/13/2021 8:00:00 AM 15.87 60.566 0.055 6.92 6.05 9.28
7/13/2021 8:15:00 AM 15.88 60.584 0.055 6.93 5.27 9.27
7/13/2021 8:30:00 AM 15.88 60.584 0.055 6.94 6.26 9.32
7/13/2021 8:45:00 AM 15.86 60.548 0.055 6.95 5.58 9.35
7/13/2021 9:00:00 AM 15.85 60.53 0.055 6.97 5.32 9.39
7/13/2021 9:15:00 AM 15.85 60.53 0.054 6.92 5.86 9.43
7/13/2021 9:30:00 AM 15.88 60.584 0.054 7 5.81 9.46
7/13/2021 9:45:00 AM 15.93 60.674 0.054 6.99 5.66 9.47
7/13/2021 10:00:00 AM 15.96 60.728 0.054 7.06 5.4 9.47
7/13/2021 10:15:00 AM 16 60.8 0.054 7.07 5.56 9.47
7/13/2021 10:30:00 AM 16.12 61.016 0.054 7.09 5.68 9.52
7/13/2021 10:45:00 AM 16.24 61.232 0.054 7.05 5.35 9.52
7/13/2021 11:00:00 AM 16.33 61.394 0.054 7.13 5.45 9.5
7/13/2021 11:15:00 AM 16.51 61.718 0.054 7.13 5.44 9.46
7/13/2021 11:30:00 AM 16.67 62.006 0.054 7.14 5.14 9.42
7/13/2021 11:45:00 AM 16.79 62.222 0.054 7.14 5.52 9.39
7/13/2021 12:00:00 PM 16.92 62.456 0.053 7.16 5.19 9.4
7/13/2021 12:15:00 PM 17.04 62.672 0.053 7.16 5.08 9.38
7/13/2021 12:30:00 PM 17.02 62.636 0.053 7.16 5.35 9.37
7/13/2021 12:45:00 PM 17.1 62.78 0.053 7.1 5.72 9.35
7/13/2021 1:00:00 PM 17.13 62.834 0.053 7.16 6.04 9.32
7/13/2021 1:15:00 PM 17.23 63.014 0.053 7.11 4.94 9.29
7/13/2021 1:30:00 PM 17.38 63.284 0.053 7.17 5.09 9.31
7/13/2021 1:45:00 PM 17.44 63.392 0.053 7.12 5.89 9.32
7/13/2021 2:00:00 PM 17.4 63.32 0.053 7.19 5.35 9.3
7/13/2021 2:15:00 PM 17.6 63.68 0.053 7.2 5.36 9.33
7/13/2021 2:30:00 PM 17.6 63.68 0.053 7.2 5.57 9.28
7/13/2021 2:45:00 PM 17.65 63.77 0.053 7.2 5.42 9.25
7/13/2021 3:00:00 PM 17.68 63.824 0.053 7.19 5.39 9.21
7/13/2021 3:15:00 PM 17.75 63.95 0.052 7.19 5.55 9.23
7/13/2021 3:30:00 PM 17.92 64.256 0.052 7.2 6.14 9.21
7/13/2021 3:45:00 PM 18.08 64.544 0.052 7.21 6.13 9.23
7/13/2021 4:00:00 PM 18.25 64.85 0.052 7.21 5.43 9.19
7/13/2021 4:15:00 PM 18.32 64.976 0.052 7.2 5.61 9.09
7/13/2021 4:30:00 PM 18.5 65.3 0.052 7.13 6.08 9.06
7/13/2021 4:45:00 PM 18.6 65.48 0.052 7.19 5.65 9.05
7/13/2021 5:00:00 PM 18.64 65.552 0.052 7.19 5.38 9.02
7/13/2021 5:15:00 PM 18.63 65.534 0.052 7.13 5.59 9.02
7/13/2021 5:30:00 PM 18.55 65.39 0.052 7.18 5.49 8.95
7/13/2021 5:45:00 PM 18.49 65.282 0.052 7.16 5.79 8.96
7/13/2021 6:00:00 PM 18.37 65.066 0.052 7.14 5.87 8.93
7/13/2021 6:15:00 PM 18.33 64.994 0.052 7.13 5.63 8.95
7/13/2021 6:30:00 PM 18.23 64.814 0.052 7.12 6.34 8.92
7/13/2021 6:45:00 PM 18.12 64.616 0.052 7.1 6.57 8.88
7/13/2021 7:00:00 PM 18.08 64.544 0.052 7.08 6.13 8.83
7/13/2021 7:15:00 PM 17.97 64.346 0.052 7.07 6.83 8.81
7/13/2021 7:30:00 PM 17.87 64.166 0.052 7.03 7.06 8.78
7/13/2021 7:45:00 PM 17.79 64.022 0.052 7.04 6.88 8.79
7/13/2021 8:00:00 PM 17.71 63.878 0.052 7.04 7.1 8.79
7/13/2021 8:15:00 PM 17.65 63.77 0.052 7.02 6.85 8.8
7/13/2021 8:30:00 PM 17.58 63.644 0.052 7.02 7.41 8.81
7/13/2021 8:45:00 PM 17.53 63.554 0.051 7 7.03 8.81
7/13/2021 9:00:00 PM 17.47 63.446 0.051 6.99 7.11 8.82
7/13/2021 9:15:00 PM 17.41 63.338 0.051 6.99 8.33 8.83
7/13/2021 9:30:00 PM 17.34 63.212 0.051 6.99 7.85 8.83
7/13/2021 9:45:00 PM 17.28 63.104 0.051 6.98 8.44 8.83
7/13/2021 10:00:00 PM 17.21 62.978 0.051 6.91 9.01 8.86
7/13/2021 10:15:00 PM 17.14 62.852 0.051 6.97 8.55 8.87
7/13/2021 10:30:00 PM 17.07 62.726 0.052 6.97 9.23 8.89
7/13/2021 10:45:00 PM 17 62.6 0.052 6.93 10.25 8.91
7/13/2021 11:00:00 PM 16.93 62.474 0.052 6.92 10.79 8.92
7/13/2021 11:15:00 PM 16.87 62.366 0.052 6.95 11.86 8.96
7/13/2021 11:30:00 PM 16.8 62.24 0.052 6.95 11.22 8.97
7/13/2021 11:45:00 PM 16.72 62.096 0.052 6.95 11.21 8.98
7/14/2021 12:00:00 AM 16.65 61.97 0.052 6.95 18.53 8.99
7/14/2021 12:15:00 AM 16.58 61.844 0.052 6.94 12.24 9.01
7/14/2021 12:30:00 AM 16.5 61.7 0.051 6.93 11.92 9.03
7/14/2021 12:45:00 AM 16.42 61.556 0.051 6.93 11.56 9.05
7/14/2021 1:00:00 AM 16.34 61.412 0.051 6.93 11.97 9.06
7/14/2021 1:15:00 AM 16.27 61.286 0.051 6.93 11.78 9.08
7/14/2021 1:30:00 AM 16.2 61.16 0.051 6.93 10.53 9.09
7/14/2021 1:45:00 AM 16.14 61.052 0.051 6.92 13.33 9.1
7/14/2021 2:00:00 AM 16.08 60.944 0.051 6.85 10.4 9.11
7/14/2021 2:15:00 AM 16.02 60.836 0.051 6.93 11.75 9.13
7/14/2021 2:30:00 AM 15.96 60.728 0.051 6.92 9 9.13
7/14/2021 2:45:00 AM 15.91 60.638 0.051 6.92 9.27 9.15
7/14/2021 3:00:00 AM 15.87 60.566 0.051 6.86 8.78 9.11
7/14/2021 3:15:00 AM 15.82 60.476 0.051 6.92 9.27 9.18
7/14/2021 3:30:00 AM 15.77 60.386 0.051 6.89 9.27 9.17
7/14/2021 3:45:00 AM 15.73 60.314 0.051 6.93 9.31 9.19
7/14/2021 4:00:00 AM 15.69 60.242 0.051 6.93 9.57 9.21
7/14/2021 4:15:00 AM 15.65 60.17 0.051 6.94 9.3 9.21
7/14/2021 4:30:00 AM 15.61 60.098 0.051 6.94 9.69 9.21
7/14/2021 4:45:00 AM 15.57 60.026 0.051 6.94 8.87 9.22
7/14/2021 5:00:00 AM 15.54 59.972 0.051 6.94 9.96 9.22
7/14/2021 5:15:00 AM 15.51 59.918 0.051 6.94 8.64 9.24
7/14/2021 5:30:00 AM 15.47 59.846 0.051 6.93 9.54 9.25
7/14/2021 5:45:00 AM 15.44 59.792 0.051 6.93 11.08 9.24
7/14/2021 6:00:00 AM 15.42 59.756 0.051 6.87 9.8 9.25
7/14/2021 6:15:00 AM 15.39 59.702 0.051 6.93 8.89 9.25
7/14/2021 6:30:00 AM 15.37 59.666 0.051 6.92 10.14 9.28
7/14/2021 6:45:00 AM 15.34 59.612 0.051 6.93 9.45 9.29
7/14/2021 7:00:00 AM 15.31 59.558 0.051 6.91 8.33 9.31
7/14/2021 7:15:00 AM 15.3 59.54 0.051 6.93 8.13 9.33
7/14/2021 7:30:00 AM 15.28 59.504 0.051 6.93 8.03 9.35
7/14/2021 7:45:00 AM 15.27 59.486 0.051 6.93 7.98 9.39
7/14/2021 8:00:00 AM 15.25 59.45 0.051 6.93 7.54 9.4
7/14/2021 8:15:00 AM 15.25 59.45 0.051 6.95 7.28 9.43
7/14/2021 8:30:00 AM 15.24 59.432 0.051 6.96 7.45 9.44
7/14/2021 8:45:00 AM 15.24 59.432 0.051 6.95 6.67 9.46
7/14/2021 9:00:00 AM 15.26 59.468 0.051 6.99 6.81 9.51
7/14/2021 9:15:00 AM 15.28 59.504 0.051 7.01 6.59 9.52
7/14/2021 9:30:00 AM 15.3 59.54 0.051 7.02 6.17 9.53
7/14/2021 9:45:00 AM 15.32 59.576 0.051 7.02 6.13 9.5
7/14/2021 10:00:00 AM 15.34 59.612 0.051 7.03 16.61 9.48
7/14/2021 10:15:00 AM 15.34 59.612 0.05 7.03 9.31 9.49
7/14/2021 10:30:00 AM 15.36 59.648 0.05 7.05 7.52 9.55
7/14/2021 10:45:00 AM 15.4 59.72 0.05 7.07 6.74 9.57
7/14/2021 11:00:00 AM 15.49 59.882 0.05 7.09 7.67 9.63
7/14/2021 11:15:00 AM 15.62 60.116 0.05 7.11 7.4 9.63
7/14/2021 11:30:00 AM 15.76 60.368 0.05 7.12 7.9 9.59
7/14/2021 11:45:00 AM 16.01 60.818 0.05 7.14 7.03 9.58
7/14/2021 12:00:00 PM 16.14 61.052 0.05 7.15 7.6 9.59
7/14/2021 12:15:00 PM 16.24 61.232 0.05 7.17 7.43 9.59
7/14/2021 12:30:00 PM 16.41 61.538 0.05 7.17 7.28 9.56
7/14/2021 12:45:00 PM 16.56 61.808 0.05 7.19 7.23 9.55
7/14/2021 1:00:00 PM 16.79 62.222 0.05 7.19 7.14 9.51
7/14/2021 1:15:00 PM 17 62.6 0.05 7.19 6.99 9.49
7/14/2021 1:30:00 PM 17.14 62.852 0.05 7.2 7.34 9.46
7/14/2021 1:45:00 PM 17.31 63.158 0.05 7.2 7.31 9.44
7/14/2021 2:00:00 PM 17.45 63.41 0.05 7.16 7.32 9.39
7/14/2021 2:15:00 PM 17.47 63.446 0.05 7.21 7.1 9.39
7/14/2021 2:30:00 PM 17.49 63.482 0.05 7.21 7.32 9.38
7/14/2021 2:45:00 PM 17.56 63.608 0.05 7.21 7.71 9.34
7/14/2021 3:00:00 PM 17.61 63.698 0.05 7.21 7.31 9.32
7/14/2021 3:15:00 PM 17.7 63.86 0.05 7.2 7.16 9.3
7/14/2021 3:30:00 PM 17.84 64.112 0.05 7.21 7.83 9.29
7/14/2021 3:45:00 PM 17.87 64.166 0.05 7.15 6.93 9.2
7/14/2021 4:00:00 PM 17.88 64.184 0.05 7.17 7.37 9.19
7/14/2021 4:15:00 PM 17.84 64.112 0.05 7.16 6.84 9.18
7/14/2021 4:30:00 PM 17.81 64.058 0.05 7.19 7.03 9.19
7/14/2021 4:45:00 PM 17.84 64.112 0.05 7.2 8.54 9.19
7/14/2021 5:00:00 PM 17.83 64.094 0.05 7.14 7.22 9.16
7/14/2021 5:15:00 PM 17.87 64.166 0.05 7.19 6.88 9.15
7/14/2021 5:30:00 PM 17.87 64.166 0.05 7.18 7.23 9.13
7/14/2021 5:45:00 PM 17.79 64.022 0.05 7.16 7.38 9.11
7/14/2021 6:00:00 PM 17.74 63.932 0.05 7.15 7.86 9.11
7/14/2021 6:15:00 PM 17.67 63.806 0.05 7.14 7.03 9.1
7/14/2021 6:30:00 PM 17.57 63.626 0.05 7.13 7.43 9.09
7/14/2021 6:45:00 PM 17.47 63.446 0.05 7.11 7.06 9.08
7/14/2021 7:00:00 PM 17.37 63.266 0.05 7.09 7.88 9.07
7/14/2021 7:15:00 PM 17.28 63.104 0.05 7.08 7.04 9.06
7/14/2021 7:30:00 PM 17.19 62.942 0.05 7.06 7.32 9.04
7/14/2021 7:45:00 PM 17.11 62.798 0.05 7.05 7.4 9.06
7/14/2021 8:00:00 PM 17.01 62.618 0.05 7.04 6.88 9.06
7/14/2021 8:15:00 PM 16.93 62.474 0.05 7.03 6.84 9.06
7/14/2021 8:30:00 PM 16.85 62.33 0.05 7.01 8.17 9.05
7/14/2021 8:45:00 PM 16.75 62.15 0.05 7 7.32 9.04
7/14/2021 9:00:00 PM 16.66 61.988 0.05 6.98 7.66 9.03
7/14/2021 9:15:00 PM 16.57 61.826 0.05 6.97 7.33 9.03
7/14/2021 9:30:00 PM 16.49 61.682 0.05 6.96 8.46 9.05
7/14/2021 9:45:00 PM 16.41 61.538 0.05 6.95 7.61 9.06
7/14/2021 10:00:00 PM 16.34 61.412 0.05 6.94 7.83 9.09
7/14/2021 10:15:00 PM 16.26 61.268 0.05 6.94 7.39 9.09
7/14/2021 10:30:00 PM 16.19 61.142 0.05 6.94 8.4 9.11
7/14/2021 10:45:00 PM 16.13 61.034 0.05 6.87 7.38 9.11
7/14/2021 11:00:00 PM 16.06 60.908 0.05 6.93 8.42 9.12
7/14/2021 11:15:00 PM 15.99 60.782 0.05 6.94 7.58 9.14
7/14/2021 11:30:00 PM 15.92 60.656 0.05 6.94 8.36 9.15
7/14/2021 11:45:00 PM 15.86 60.548 0.05 6.94 7.15 9.17
7/15/2021 12:00:00 AM 15.79 60.422 0.05 6.93 13 9.18
7/15/2021 12:15:00 AM 15.72 60.296 0.05 6.93 7.71 9.19
7/15/2021 12:30:00 AM 15.66 60.188 0.05 6.93 7.65 9.2
7/15/2021 12:45:00 AM 15.6 60.08 0.05 6.93 7.49 9.22
7/15/2021 1:00:00 AM 15.54 59.972 0.05 6.9 7.6 9.24
7/15/2021 1:15:00 AM 15.48 59.864 0.05 6.93 6.78 9.24
7/15/2021 1:30:00 AM 15.41 59.738 0.05 6.93 7.9 9.25
7/15/2021 1:45:00 AM 15.35 59.63 0.05 6.93 7.6 9.26
7/15/2021 2:00:00 AM 15.3 59.54 0.05 6.92 7.32 9.28
7/15/2021 2:15:00 AM 15.24 59.432 0.05 6.92 7.04 9.29
7/15/2021 2:30:00 AM 15.18 59.324 0.05 6.92 7.53 9.3
7/15/2021 2:45:00 AM 15.13 59.234 0.05 6.92 7.44 9.32
7/15/2021 3:00:00 AM 15.08 59.144 0.05 6.92 7.36 9.33
7/15/2021 3:15:00 AM 15.03 59.054 0.05 6.89 7.29 9.34
7/15/2021 3:30:00 AM 14.99 58.982 0.05 6.92 7.09 9.35
7/15/2021 3:45:00 AM 14.94 58.892 0.05 6.92 8.11 9.35
7/15/2021 4:00:00 AM 14.9 58.82 0.05 6.91 7.01 9.37
7/15/2021 4:15:00 AM 14.85 58.73 0.05 6.87 7.54 9.37
7/15/2021 4:30:00 AM 14.8 58.64 0.05 6.91 7.68 9.39
7/15/2021 4:45:00 AM 14.76 58.568 0.05 6.91 7.05 9.39
7/15/2021 5:00:00 AM 14.73 58.514 0.05 6.91 7.41 9.39
7/15/2021 5:15:00 AM 14.68 58.424 0.05 6.91 7.77 9.41
7/15/2021 5:30:00 AM 14.65 58.37 0.05 6.92 7.61 9.42
7/15/2021 5:45:00 AM 14.61 58.298 0.05 6.93 7.55 9.43
7/15/2021 6:00:00 AM 14.57 58.226 0.05 6.93 7.55 9.44
7/15/2021 6:15:00 AM 14.54 58.172 0.05 6.92 7.4 9.45
7/15/2021 6:30:00 AM 14.51 58.118 0.05 6.93 8.02 9.48
7/15/2021 6:45:00 AM 14.48 58.064 0.05 6.9 11.11 9.51
7/15/2021 7:00:00 AM 14.46 58.028 0.05 6.95 7.19 9.54
7/15/2021 7:15:00 AM 14.43 57.974 0.05 6.9 6.87 9.58
7/15/2021 7:30:00 AM 14.43 57.974 0.05 6.98 7.63 9.62
7/15/2021 7:45:00 AM 14.41 57.938 0.05 6.98 6.69 9.64
7/15/2021 8:00:00 AM 14.4 57.92 0.05 6.95 6.65 9.67
7/15/2021 8:15:00 AM 14.41 57.938 0.05 6.99 7.33 9.7
7/15/2021 8:30:00 AM 14.42 57.956 0.05 7.01 6.4 9.72
7/15/2021 8:45:00 AM 14.43 57.974 0.05 7.02 6.37 9.73
7/15/2021 9:00:00 AM 14.45 58.01 0.05 7.02 6.39 9.73
7/15/2021 9:15:00 AM 14.5 58.1 0.05 7.02 6.68 9.74
7/15/2021 9:30:00 AM 14.57 58.226 0.05 7.03 7.3 9.73
7/15/2021 9:45:00 AM 14.66 58.388 0.05 7.04 12.01 9.74
7/15/2021 10:00:00 AM 14.78 58.604 0.05 7.06 6.3 9.72
7/15/2021 10:15:00 AM 14.91 58.838 0.049 7.07 6.11 9.73
7/15/2021 10:30:00 AM 15.04 59.072 0.049 7.09 6.22 9.73
7/15/2021 10:45:00 AM 15.2 59.36 0.049 7.1 6.02 9.73
7/15/2021 11:00:00 AM 15.35 59.63 0.049 7.12 6.51 9.71
7/15/2021 11:15:00 AM 15.53 59.954 0.049 7.13 6.51 9.69
7/15/2021 11:30:00 AM 15.67 60.206 0.049 7.15 6.39 9.69
7/15/2021 11:45:00 AM 15.85 60.53 0.049 7.16 6.24 9.67
7/15/2021 12:00:00 PM 16.03 60.854 0.049 7.16 7.01 9.65
7/15/2021 12:15:00 PM 16.23 61.214 0.049 7.18 6.34 9.62
7/15/2021 12:30:00 PM 16.41 61.538 0.049 7.19 6.09 9.61
7/15/2021 12:45:00 PM 16.53 61.754 0.049 7.2 5.93 9.56
7/15/2021 1:00:00 PM 16.74 62.132 0.049 7.2 6.38 9.56
7/15/2021 1:15:00 PM 16.72 62.096 0.049 7.2 6.5 9.49
7/15/2021 1:30:00 PM 16.82 62.276 0.049 7.17 6.39 9.49
7/15/2021 1:45:00 PM 16.89 62.402 0.049 7.2 6.1 9.47
7/15/2021 2:00:00 PM 16.92 62.456 0.049 7.22 5.83 9.48
7/15/2021 2:15:00 PM 16.99 62.582 0.049 7.21 5.97 9.49
7/15/2021 2:30:00 PM 17.1 62.78 0.049 7.23 6.32 9.47
7/15/2021 2:45:00 PM 17.24 63.032 0.049 7.24 5.85 9.44
7/15/2021 3:00:00 PM 17.43 63.374 0.049 7.21 5.56 9.43
7/15/2021 3:15:00 PM 17.59 63.662 0.049 7.24 5.77 9.39
7/15/2021 3:30:00 PM 17.68 63.824 0.049 7.24 5.84 9.36
7/15/2021 3:45:00 PM 17.71 63.878 0.049 7.24 5.65 9.33
7/15/2021 4:00:00 PM 17.82 64.076 0.049 7.19 6.24 9.33
7/15/2021 4:15:00 PM 17.82 64.076 0.049 7.24 5.92 9.32
7/15/2021 4:30:00 PM 17.81 64.058 0.049 7.24 5.92 9.3
7/15/2021 4:45:00 PM 17.8 64.04 0.049 7.23 5.76 9.26
7/15/2021 5:00:00 PM 17.77 63.986 0.049 7.23 5.29 9.24
7/15/2021 5:15:00 PM 17.73 63.914 0.049 7.18 5.69 9.21
7/15/2021 5:30:00 PM 17.64 63.752 0.049 7.2 6.92 9.19
7/15/2021 5:45:00 PM 17.55 63.59 0.049 7.18 5.22 9.17
7/15/2021 6:00:00 PM 17.53 63.554 0.049 7.18 6.48 9.21
7/15/2021 6:15:00 PM 17.45 63.41 0.049 7.17 5.56 9.18
7/15/2021 6:30:00 PM 17.4 63.32 0.049 7.15 5.63 9.16
7/15/2021 6:45:00 PM 17.36 63.248 0.049 7.12 5.54 9.1
7/15/2021 7:00:00 PM 17.26 63.068 0.049 7.05 5.67 9.08
7/15/2021 7:15:00 PM 17.19 62.942 0.049 7.06 5.26 9.08
7/15/2021 7:30:00 PM 17.13 62.834 0.049 7.08 4.89 9.07
7/15/2021 7:45:00 PM 17.06 62.708 0.049 7.08 5.48 9.06
7/15/2021 8:00:00 PM 16.96 62.528 0.049 7.06 8.08 9.07
7/15/2021 8:15:00 PM 16.88 62.384 0.049 7.04 5.32 9.03
7/15/2021 8:30:00 PM 16.81 62.258 0.049 6.98 5.04 9.02
7/15/2021 8:45:00 PM 16.74 62.132 0.049 7.02 4.64 8.99
7/15/2021 9:00:00 PM 16.66 61.988 0.049 6.96 4.88 8.99
7/15/2021 9:15:00 PM 16.59 61.862 0.05 6.97 6.02 8.99
7/15/2021 9:30:00 PM 16.53 61.754 0.05 6.96 4.9 8.99
7/15/2021 9:45:00 PM 16.48 61.664 0.05 6.94 5 8.98
7/15/2021 10:00:00 PM 16.45 61.61 0.05 6.93 5.06 8.99
7/15/2021 10:15:00 PM 16.4 61.52 0.05 6.9 4.87 9.01
7/15/2021 10:30:00 PM 16.36 61.448 0.05 6.93 6.01 9.02
7/15/2021 10:45:00 PM 16.31 61.358 0.05 6.94 4.86 9.02
7/15/2021 11:00:00 PM 16.27 61.286 0.05 6.95 4.89 9.03
7/15/2021 11:15:00 PM 16.22 61.196 0.05 6.95 4.66 9.05
7/15/2021 11:30:00 PM 16.17 61.106 0.05 6.95 5.42 9.06
7/15/2021 11:45:00 PM 16.13 61.034 0.05 6.95 5.7 9.06
7/16/2021 12:00:00 AM 16.08 60.944 0.05 6.95 4.58 9.07
7/16/2021 12:15:00 AM 16.03 60.854 0.05 6.94 4.74 9.07
7/16/2021 12:30:00 AM 15.99 60.782 0.05 6.95 5.21 9.08
7/16/2021 12:45:00 AM 15.95 60.71 0.05 6.94 4.98 9.1
7/16/2021 1:00:00 AM 15.9 60.62 0.05 6.95 5.03 9.09
7/16/2021 1:15:00 AM 15.86 60.548 0.05 6.95 5.11 9.11
7/16/2021 1:30:00 AM 15.81 60.458 0.05 6.95 4.69 9.13
7/16/2021 1:45:00 AM 15.76 60.368 0.05 6.95 5.02 9.14
7/16/2021 2:00:00 AM 15.72 60.296 0.05 6.95 5.29 9.15
7/16/2021 2:15:00 AM 15.68 60.224 0.05 6.95 4.98 9.16
7/16/2021 2:30:00 AM 15.63 60.134 0.05 6.95 4.52 9.17
7/16/2021 2:45:00 AM 15.6 60.08 0.05 6.95 6.55 9.17
7/16/2021 3:00:00 AM 15.54 59.972 0.05 6.94 5.87 9.19
7/16/2021 3:15:00 AM 15.49 59.882 0.05 6.94 5.53 9.19
7/16/2021 3:30:00 AM 15.44 59.792 0.05 6.93 5.72 9.19
7/16/2021 3:45:00 AM 15.39 59.702 0.05 6.94 5.47 9.21
7/16/2021 4:00:00 AM 15.33 59.594 0.05 6.92 5.06 9.22
7/16/2021 4:15:00 AM 15.27 59.486 0.05 6.88 5.05 9.22
7/16/2021 4:30:00 AM 15.22 59.396 0.05 6.92 4.79 9.24
7/16/2021 4:45:00 AM 15.18 59.324 0.05 6.92 5.07 9.26
7/16/2021 5:00:00 AM 15.12 59.216 0.05 6.92 4.74 9.25
7/16/2021 5:15:00 AM 15.07 59.126 0.05 6.84 5.05 9.27
7/16/2021 5:30:00 AM 15.03 59.054 0.05 6.86 13.21 9.28
7/16/2021 5:45:00 AM 14.98 58.964 0.05 6.9 5.82 9.29
7/16/2021 6:00:00 AM 14.94 58.892 0.05 6.83 5.47 9.32
7/16/2021 6:15:00 AM 14.89 58.802 0.05 6.89 5.32 9.32
7/16/2021 6:30:00 AM 14.86 58.748 0.05 6.89 6.04 9.34
7/16/2021 6:45:00 AM 14.83 58.694 0.05 6.9 7.39 9.37
7/16/2021 7:00:00 AM 14.8 58.64 0.05 6.91 6.27 9.42
7/16/2021 7:15:00 AM 14.78 58.604 0.05 6.93 6.03 9.45
7/16/2021 7:30:00 AM 14.77 58.586 0.05 6.94 5.94 9.5
7/16/2021 7:45:00 AM 14.77 58.586 0.05 6.96 5.15 9.54
7/16/2021 8:00:00 AM 14.76 58.568 0.05 6.97 5.43 9.59
7/16/2021 8:15:00 AM 14.74 58.532 0.05 6.96 8.27 9.59
7/16/2021 8:30:00 AM 14.75 58.55 0.05 6.98 4.22 9.61
7/16/2021 8:45:00 AM 14.77 58.586 0.05 6.99 4.26 9.66
7/16/2021 9:00:00 AM 14.76 58.568 0.049 6.98 3.78 9.67
7/16/2021 9:15:00 AM 14.78 58.604 0.049 7 3.89 9.68
7/16/2021 9:30:00 AM 14.82 58.676 0.049 7.01 3.8 9.68
7/16/2021 9:45:00 AM 14.89 58.802 0.049 7.03 4.33 9.71
7/16/2021 10:00:00 AM 15.02 59.036 0.049 7.05 4.05 9.74
7/16/2021 10:15:00 AM 15.21 59.378 0.049 7.08 5.12 9.73
7/16/2021 10:30:00 AM 15.36 59.648 0.049 7.1 3.89 9.71
7/16/2021 10:45:00 AM 15.52 59.936 0.049 7.12 3.85 9.71
7/16/2021 11:00:00 AM 15.61 60.098 0.049 7.13 4.16 9.72
7/16/2021 11:15:00 AM 15.68 60.224 0.049 7.14 6.52 9.72
7/16/2021 11:30:00 AM 15.7 60.26 0.049 7.11 3.46 9.7
7/16/2021 11:45:00 AM 15.73 60.314 0.049 7.16 3.55 9.71
7/16/2021 12:00:00 PM 15.79 60.422 0.049 7.17 3.62 9.69
7/16/2021 12:15:00 PM 15.83 60.494 0.049 7.18 4.88 9.69
7/16/2021 12:30:00 PM 15.9 60.62 0.049 7.19 3.52 9.68
7/16/2021 12:45:00 PM 15.9 60.62 0.049 7.17 3.23 9.63
7/16/2021 1:00:00 PM 16.07 60.926 0.049 7.15 3.16 9.58
7/16/2021 1:15:00 PM 16.21 61.178 0.049 7.18 3.59 9.64
7/16/2021 1:30:00 PM 16.52 61.736 0.049 7.2 3.91 9.63
7/16/2021 1:45:00 PM 16.66 61.988 0.049 7.21 3.5 9.59
7/16/2021 2:00:00 PM 16.68 62.024 0.049 7.2 3.51 9.55
7/16/2021 2:15:00 PM 16.77 62.186 0.049 7.21 3.36 9.54
7/16/2021 2:30:00 PM 16.84 62.312 0.049 7.21 3.37 9.55
7/16/2021 2:45:00 PM 16.87 62.366 0.049 7.21 7.69 9.51
7/16/2021 3:00:00 PM 16.82 62.276 0.049 7.2 3.5 9.45
7/16/2021 3:15:00 PM 17 62.6 0.049 7.19 3.61 9.47
7/16/2021 3:30:00 PM 17.1 62.78 0.049 7.21 4.54 9.44
7/16/2021 3:45:00 PM 17.13 62.834 0.049 7.14 3.3 9.4
7/16/2021 4:00:00 PM 17.12 62.816 0.049 7.2 3.44 9.32
7/16/2021 4:15:00 PM 17.21 62.978 0.048 7.08 4.53 9.17
7/16/2021 4:30:00 PM 17.15 62.87 0.048 7.1 3.95 9.07
7/16/2021 4:45:00 PM 17.1 62.78 0.048 7.01 3.97 9.06
7/16/2021 5:00:00 PM 17.03 62.654 0.048 7.04 3.99 9.05
7/16/2021 5:15:00 PM 16.94 62.492 0.048 7.04 3.81 9.11
7/16/2021 5:30:00 PM 16.8 62.24 0.048 7.03 4.06 9.12
7/16/2021 5:45:00 PM 16.68 62.024 0.049 7.02 6.21 9.09
7/16/2021 6:00:00 PM 16.61 61.898 0.049 6.93 4.14 9.08
7/16/2021 6:15:00 PM 16.57 61.826 0.049 6.98 4.94 9.09
7/16/2021 6:30:00 PM 16.51 61.718 0.049 6.97 4.84 9.09
7/16/2021 6:45:00 PM 16.46 61.628 0.049 6.96 4.47 9.1
7/16/2021 7:00:00 PM 16.44 61.592 0.049 6.95 6.82 9.14
7/16/2021 7:15:00 PM 16.4 61.52 0.049 6.96 5.21 9.18
7/16/2021 7:30:00 PM 16.37 61.466 0.049 6.97 5.26 9.19
7/16/2021 7:45:00 PM 16.34 61.412 0.049 6.96 5.28 9.18
7/16/2021 8:00:00 PM 16.3 61.34 0.049 6.95 5.23 9.17
7/16/2021 8:15:00 PM 16.24 61.232 0.05 6.95 5.52 9.15
7/16/2021 8:30:00 PM 16.18 61.124 0.05 6.91 7.73 9.13
7/16/2021 8:45:00 PM 16.12 61.016 0.05 6.93 10.8 9.11
7/16/2021 9:00:00 PM 16.07 60.926 0.05 6.92 6.66 9.1
7/16/2021 9:15:00 PM 16.03 60.854 0.05 6.91 6.03 9.07
7/16/2021 9:30:00 PM 16 60.8 0.05 6.89 6.24 9.09
7/16/2021 9:45:00 PM 15.96 60.728 0.05 6.89 5.73 9.09
7/16/2021 10:00:00 PM 15.93 60.674 0.05 6.88 5.3 9.09
7/16/2021 10:15:00 PM 15.88 60.584 0.05 6.88 4.9 9.1
7/16/2021 10:30:00 PM 15.84 60.512 0.05 6.87 5.37 9.11
7/16/2021 10:45:00 PM 15.8 60.44 0.05 6.87 7.88 9.12
7/16/2021 11:00:00 PM 15.77 60.386 0.05 6.82 5.44 9.13
7/16/2021 11:15:00 PM 15.73 60.314 0.05 6.86 4.66 9.12
7/16/2021 11:30:00 PM 15.69 60.242 0.05 6.83 5.14 9.14
7/16/2021 11:45:00 PM 15.66 60.188 0.05 6.87 5.77 9.16
7/17/2021 12:00:00 AM 15.63 60.134 0.051 6.87 4.71 9.15
7/17/2021 12:15:00 AM 15.6 60.08 0.051 6.87 4.65 9.16
7/17/2021 12:30:00 AM 15.57 60.026 0.051 6.86 5.53 9.16
7/17/2021 12:45:00 AM 15.55 59.99 0.051 6.8 7.25 9.17
7/17/2021 1:00:00 AM 15.52 59.936 0.051 6.87 5.59 9.16
7/17/2021 1:15:00 AM 15.49 59.882 0.051 6.87 4.45 9.18
7/17/2021 1:30:00 AM 15.47 59.846 0.051 6.87 4.42 9.18
7/17/2021 1:45:00 AM 15.44 59.792 0.051 6.87 4.67 9.19
7/17/2021 2:00:00 AM 15.42 59.756 0.051 6.87 4.43 9.19
7/17/2021 2:15:00 AM 15.4 59.72 0.051 6.87 4.05 9.19
7/17/2021 2:30:00 AM 15.38 59.684 0.051 6.86 6.19 9.18
7/17/2021 2:45:00 AM 15.35 59.63 0.051 6.87 5.94 9.2
7/17/2021 3:00:00 AM 15.32 59.576 0.051 6.87 4.01 9.21
7/17/2021 3:15:00 AM 15.29 59.522 0.051 6.79 3.92 9.21
7/17/2021 3:30:00 AM 15.27 59.486 0.051 6.87 3.97 9.22
7/17/2021 3:45:00 AM 15.24 59.432 0.051 6.87 4.65 9.23
7/17/2021 4:00:00 AM 15.21 59.378 0.051 6.79 3.97 9.23
7/17/2021 4:15:00 AM 15.19 59.342 0.051 6.88 4.04 9.25
7/17/2021 4:30:00 AM 15.16 59.288 0.051 6.88 4.03 9.25
7/17/2021 4:45:00 AM 15.14 59.252 0.051 6.8 6.23 9.25
7/17/2021 5:00:00 AM 15.11 59.198 0.051 6.86 3.89 9.26
7/17/2021 5:15:00 AM 15.09 59.162 0.052 6.83 4.25 9.27
7/17/2021 5:30:00 AM 15.06 59.108 0.052 6.88 3.96 9.28
7/17/2021 5:45:00 AM 15.03 59.054 0.052 6.87 4.17 9.28
7/17/2021 6:00:00 AM 15.01 59.018 0.052 6.84 4.31 9.3
7/17/2021 6:15:00 AM 15 59 0.052 6.88 5.84 9.31
7/17/2021 6:30:00 AM 14.97 58.946 0.052 6.89 5.88 9.34
7/17/2021 6:45:00 AM 14.96 58.928 0.051 6.88 4.25 9.35
7/17/2021 7:00:00 AM 14.94 58.892 0.051 6.85 4.01 9.4
7/17/2021 7:15:00 AM 14.93 58.874 0.051 6.91 4.35 9.46
7/17/2021 7:30:00 AM 14.93 58.874 0.051 6.85 4.42 9.47
7/17/2021 7:45:00 AM 14.94 58.892 0.051 6.94 4.29 9.51
7/17/2021 8:00:00 AM 14.96 58.928 0.051 6.96 3.42 9.56
7/17/2021 8:15:00 AM 14.96 58.928 0.051 6.97 3.5 9.56
7/17/2021 8:30:00 AM 14.96 58.928 0.051 6.98 3.03 9.58
7/17/2021 8:45:00 AM 15.01 59.018 0.051 6.99 3.15 9.6
7/17/2021 9:00:00 AM 15.05 59.09 0.051 6.94 3.5 9.67
7/17/2021 9:15:00 AM 15.1 59.18 0.051 7.04 3.13 9.7
7/17/2021 9:30:00 AM 15.16 59.288 0.051 7.05 7.68 9.72
7/17/2021 9:45:00 AM 15.19 59.342 0.051 7.08 3.22 9.69
7/17/2021 10:00:00 AM 15.23 59.414 0.051 7.01 4.11 9.61
7/17/2021 10:15:00 AM 15.29 59.522 0.051 7.08 3.39 9.6
7/17/2021 10:30:00 AM 15.35 59.63 0.051 7.09 3.17 9.64
7/17/2021 10:45:00 AM 15.42 59.756 0.051 7.11 2.88 9.68
7/17/2021 11:00:00 AM 15.43 59.774 0.051 7.05 3.16 9.71
7/17/2021 11:15:00 AM 15.49 59.882 0.051 7.14 3.56 9.72
7/17/2021 11:30:00 AM 15.6 60.08 0.05 7.16 7.09 9.73
7/17/2021 11:45:00 AM 15.75 60.35 0.05 7.18 6.13 9.73
7/17/2021 12:00:00 PM 15.87 60.566 0.05 7.19 5.5 9.69
7/17/2021 12:15:00 PM 15.99 60.782 0.05 7.21 8.71 9.72
7/17/2021 12:30:00 PM 16.18 61.124 0.05 7.23 4 9.72
7/17/2021 12:45:00 PM 16.2 61.16 0.05 7.23 3.7 9.71
7/17/2021 1:00:00 PM 16.34 61.412 0.05 7.24 2.83 9.69
7/17/2021 1:15:00 PM 16.48 61.664 0.05 7.25 3.14 9.65
7/17/2021 1:30:00 PM 16.52 61.736 0.05 7.24 3.05 9.59
7/17/2021 1:45:00 PM 16.5 61.7 0.05 7.2 2.81 9.45
7/17/2021 2:00:00 PM 16.66 61.988 0.049 7.13 5.56 9.29
7/17/2021 2:15:00 PM 16.67 62.006 0.048 7.07 6.19 9.18
7/17/2021 2:30:00 PM 16.65 61.97 0.048 7.03 6.82 9.17
7/17/2021 2:45:00 PM 16.58 61.844 0.048 7.03 7.66 9.23
7/17/2021 3:00:00 PM 16.59 61.862 0.048 7.02 7.22 9.28
7/17/2021 3:15:00 PM 16.54 61.772 0.049 7.03 10.59 9.24
7/17/2021 3:30:00 PM 16.69 62.042 0.048 7.01 10.81 9.16
7/17/2021 3:45:00 PM 16.94 62.492 0.047 6.93 19.7 9.15
7/17/2021 4:00:00 PM 16.93 62.474 0.047 6.95 34.99 9.13
7/17/2021 4:15:00 PM 16.92 62.456 0.047 6.9 48.4 9.04
7/17/2021 4:30:00 PM 16.96 62.528 0.047 6.86 59.59 8.96
7/17/2021 4:45:00 PM 16.95 62.51 0.049 6.87 62.15 8.92
7/17/2021 5:00:00 PM 16.95 62.51 0.049 6.87 75.05 8.91
7/17/2021 5:15:00 PM 16.93 62.474 0.048 6.79 80.91 8.89
7/17/2021 5:30:00 PM 16.89 62.402 0.047 6.82 75.65 8.89
7/17/2021 5:45:00 PM 16.82 62.276 0.048 6.8 66.84 8.91
7/17/2021 6:00:00 PM 16.73 62.114 0.048 6.82 59.72 8.93
7/17/2021 6:15:00 PM 16.66 61.988 0.048 6.84 56.02 8.94
7/17/2021 6:30:00 PM 16.63 61.934 0.048 6.82 50.01 8.96
7/17/2021 6:45:00 PM 16.61 61.898 0.048 6.81 44.29 8.97
7/17/2021 7:00:00 PM 16.59 61.862 0.047 6.83 41.35 8.98
7/17/2021 7:15:00 PM 16.55 61.79 0.047 6.82 39.56 8.99
7/17/2021 7:30:00 PM 16.48 61.664 0.047 6.82 32.33 9.02
7/17/2021 7:45:00 PM 16.37 61.466 0.047 6.83 39.46 9.04
7/17/2021 8:00:00 PM 16.24 61.232 0.047 6.83 34.01 9.07
7/17/2021 8:15:00 PM 16.11 60.998 0.047 6.79 32.14 9.08
7/17/2021 8:30:00 PM 16 60.8 0.047 6.81 30.22 9.1
7/17/2021 8:45:00 PM 15.88 60.584 0.048 6.81 25.45 9.12
7/17/2021 9:00:00 PM 15.78 60.404 0.048 6.81 31.72 9.13
7/17/2021 9:15:00 PM 15.69 60.242 0.049 6.81 30.59 9.15
7/17/2021 9:30:00 PM 15.59 60.062 0.049 6.8 31.86 9.16
7/17/2021 9:45:00 PM 15.51 59.918 0.049 6.8 29.04 9.18
7/17/2021 10:00:00 PM 15.42 59.756 0.049 6.78 27.54 9.19
7/17/2021 10:15:00 PM 15.33 59.594 0.049 6.79 27.87 9.2
7/17/2021 10:30:00 PM 15.25 59.45 0.049 6.79 21.71 9.22
7/17/2021 10:45:00 PM 15.17 59.306 0.049 6.78 22.2 9.25
7/17/2021 11:00:00 PM 15.09 59.162 0.049 6.77 22.09 9.27
7/17/2021 11:15:00 PM 15.01 59.018 0.049 6.77 20.59 9.28
7/17/2021 11:30:00 PM 14.94 58.892 0.049 6.77 19.09 9.3
7/17/2021 11:45:00 PM 14.86 58.748 0.049 6.77 19.67 9.31
7/18/2021 12:00:00 AM 14.79 58.622 0.049 6.73 19.68 9.32
7/18/2021 12:15:00 AM 14.72 58.496 0.049 6.76 19.69 9.33
7/18/2021 12:30:00 AM 14.67 58.406 0.049 6.7 18.87 9.35
7/18/2021 12:45:00 AM 14.63 58.334 0.048 6.74 18.85 9.36
7/18/2021 1:00:00 AM 14.59 58.262 0.048 6.78 19.04 9.38
7/18/2021 1:15:00 AM 14.54 58.172 0.048 6.75 18.39 9.4
7/18/2021 1:30:00 AM 14.5 58.1 0.048 6.79 21.38 9.41
7/18/2021 1:45:00 AM 14.46 58.028 0.048 6.8 18.8 9.42
7/18/2021 2:00:00 AM 14.41 57.938 0.048 6.81 19.15 9.43
7/18/2021 2:15:00 AM 14.35 57.83 0.048 6.81 18.6 9.44
7/18/2021 2:30:00 AM 14.28 57.704 0.048 6.82 19.98 9.46
7/18/2021 2:45:00 AM 14.21 57.578 0.048 6.81 19.19 9.48
7/18/2021 3:00:00 AM 14.06 57.308 0.048 6.82 20.09 9.52
7/18/2021 3:15:00 AM 14.01 57.218 0.048 6.82 20.51 9.53
7/18/2021 3:30:00 AM 13.96 57.128 0.048 6.78 23.59 9.54
7/18/2021 3:45:00 AM 13.91 57.038 0.047 6.78 22.89 9.57
7/18/2021 4:00:00 AM 13.87 56.966 0.047 6.82 23.54 9.58
7/18/2021 4:15:00 AM 13.82 56.876 0.047 6.81 24.61 9.59
7/18/2021 4:30:00 AM 13.78 56.804 0.047 6.55 23.52 9.6
7/18/2021 4:45:00 AM 13.74 56.732 0.046 6.66 23.07 9.62
7/18/2021 5:00:00 AM 13.71 56.678 0.046 6.7 22.07 9.62
7/18/2021 5:15:00 AM 13.68 56.624 0.046 6.73 24.08 9.62
7/18/2021 5:30:00 AM 13.64 56.552 0.046 6.65 23.33 9.61
7/18/2021 5:45:00 AM 13.6 56.48 0.046 6.74 29.8 9.63
7/18/2021 6:00:00 AM 13.57 56.426 0.046 6.74 23.95 9.64
7/18/2021 6:15:00 AM 13.53 56.354 0.046 6.74 19.92 9.64
7/18/2021 6:30:00 AM 13.5 56.3 0.046 6.75 23.81 9.65
7/18/2021 6:45:00 AM 13.47 56.246 0.046 6.74 24.7 9.66
7/18/2021 7:00:00 AM 13.43 56.174 0.046 6.75 24.07 9.67
7/18/2021 7:15:00 AM 13.4 56.12 0.046 6.74 17.13 9.69
7/18/2021 7:30:00 AM 13.36 56.048 0.046 6.74 22.19 9.71
7/18/2021 7:45:00 AM 13.33 55.994 0.046 6.68 26.01 9.73
7/18/2021 8:00:00 AM 13.31 55.958 0.046 6.76 19.22 9.74
7/18/2021 8:15:00 AM 13.28 55.904 0.046 6.76 23.34 9.75
7/18/2021 8:30:00 AM 13.26 55.868 0.046 6.76 18.12 9.76
7/18/2021 8:45:00 AM 13.23 55.814 0.046 6.77 32.88 9.77
7/18/2021 9:00:00 AM 13.22 55.796 0.046 6.77 25.4 9.78
7/18/2021 9:15:00 AM 13.2 55.76 0.046 6.78 25.99 9.8
7/18/2021 9:30:00 AM 13.2 55.76 0.046 6.8 23.18 9.83
7/18/2021 9:45:00 AM 13.21 55.778 0.045 6.8 29.51 9.85
7/18/2021 10:00:00 AM 13.22 55.796 0.045 6.82 29.22 9.87
7/18/2021 10:15:00 AM 13.22 55.796 0.045 6.83 30 9.88
7/18/2021 10:30:00 AM 13.24 55.832 0.045 6.84 31.45 9.89
7/18/2021 10:45:00 AM 13.26 55.868 0.045 6.86 32.61 9.91
7/18/2021 11:00:00 AM 13.29 55.922 0.045 6.86 35.18 9.91
7/18/2021 11:15:00 AM 13.31 55.958 0.045 6.85 29.25 9.92
7/18/2021 11:30:00 AM 13.31 55.958 0.045 6.84 29.02 9.91
7/18/2021 11:45:00 AM 13.32 55.976 0.044 6.84 28.4 9.92
7/18/2021 12:00:00 PM 13.34 56.012 0.044 6.84 30.5 9.92
7/18/2021 12:15:00 PM 13.35 56.03 0.044 6.83 29.48 9.91
7/18/2021 12:30:00 PM 13.38 56.084 0.044 6.77 30.59 9.92
7/18/2021 12:45:00 PM 13.42 56.156 0.044 6.84 27.71 9.91
7/18/2021 1:00:00 PM 13.46 56.228 0.044 6.85 28.59 9.92
7/18/2021 1:15:00 PM 13.52 56.336 0.044 6.86 28.88 9.93
7/18/2021 1:30:00 PM 13.56 56.408 0.044 6.81 35.08 9.93
7/18/2021 1:45:00 PM 13.64 56.552 0.043 6.85 30.07 9.92
7/18/2021 2:00:00 PM 13.71 56.678 0.043 6.87 30.55 9.91
7/18/2021 2:15:00 PM 13.74 56.732 0.043 6.87 29.3 9.89
7/18/2021 2:30:00 PM 13.8 56.84 0.043 6.88 26.63 9.89
7/18/2021 2:45:00 PM 13.89 57.002 0.043 6.86 29.82 9.87
7/18/2021 3:00:00 PM 13.96 57.128 0.043 6.88 29.82 9.86
7/18/2021 3:15:00 PM 13.96 57.128 0.043 6.88 29.82 9.86
7/18/2021 3:30:00 PM 14.14 57.452 0.043 6.87 30.12 9.84
7/18/2021 3:45:00 PM 14.21 57.578 0.041 6.87 31.37 9.82
7/18/2021 4:00:00 PM 14.22 57.596 0.043 6.82 31.31 9.79
7/18/2021 4:15:00 PM 14.21 57.578 0.043 6.88 30.24 9.79
7/18/2021 4:30:00 PM 14.2 57.56 0.043 6.87 29.73 9.78
7/18/2021 4:45:00 PM 14.2 57.56 0.043 6.87 28.85 9.77
7/18/2021 5:00:00 PM 14.18 57.524 0.043 6.86 28.94 9.76
7/18/2021 5:15:00 PM 14.18 57.524 0.043 6.86 28.65 9.75
7/18/2021 5:30:00 PM 14.17 57.506 0.043 6.86 26.71 9.74
7/18/2021 5:45:00 PM 14.13 57.434 0.043 6.85 25.53 9.73
7/18/2021 6:00:00 PM 14.08 57.344 0.043 6.85 28 9.72
7/18/2021 6:15:00 PM 14.03 57.254 0.043 6.79 29.66 9.72
7/18/2021 6:30:00 PM 13.98 57.164 0.042 6.85 28.1 9.71
7/18/2021 6:45:00 PM 13.93 57.074 0.042 6.84 26.16 9.72
7/18/2021 7:00:00 PM 13.87 56.966 0.043 6.77 26.4 9.73
7/18/2021 7:15:00 PM 13.79 56.822 0.042 6.8 25.68 9.74
7/18/2021 7:30:00 PM 13.72 56.696 0.043 6.78 27.45 9.74
7/18/2021 7:45:00 PM 13.65 56.57 0.043 6.8 25.73 9.74
7/18/2021 8:00:00 PM 13.58 56.444 0.043 6.73 26.81 9.74
7/18/2021 8:15:00 PM 13.5 56.3 0.042 6.75 34.84 9.75
7/18/2021 8:30:00 PM 13.42 56.156 0.042 6.75 29.74 9.75
7/18/2021 8:45:00 PM 13.35 56.03 0.043 6.73 26.71 9.75
7/18/2021 9:00:00 PM 13.27 55.886 0.043 6.7 26.24 9.76
7/18/2021 9:15:00 PM 13.19 55.742 0.043 6.63 25.94 9.78
7/18/2021 9:30:00 PM 13.12 55.616 0.042 6.68 27.33 9.8
7/18/2021 9:45:00 PM 13.05 55.49 0.043 6.65 28.2 9.82
7/18/2021 10:00:00 PM 12.98 55.364 0.042 6.64 27.39 9.82
7/18/2021 10:15:00 PM 12.92 55.256 0.042 6.68 24.93 9.84
7/18/2021 10:30:00 PM 12.86 55.148 0.043 6.62 24.35 9.86
7/18/2021 10:45:00 PM 12.8 55.04 0.043 6.68 27.08 9.86
7/18/2021 11:00:00 PM 12.75 54.95 0.042 6.68 25.76 9.87
7/18/2021 11:15:00 PM 12.71 54.878 0.042 6.68 20.89 9.89
7/18/2021 11:30:00 PM 12.66 54.788 0.043 6.67 25.6 9.9
7/18/2021 11:45:00 PM 12.62 54.716 0.042 6.61 26.88 9.91
7/19/2021 12:00:00 AM 12.58 54.644 0.042 6.69 26.92 9.92
7/19/2021 12:15:00 AM 12.54 54.572 0.042 6.65 36.78 9.94
7/19/2021 12:30:00 AM 12.51 54.518 0.042 6.71 20.77 9.95
7/19/2021 12:45:00 AM 12.47 54.446 0.042 6.71 17.6 9.95
7/19/2021 1:00:00 AM 12.44 54.392 0.042 6.71 20.49 9.96
7/19/2021 1:15:00 AM 12.4 54.32 0.042 6.72 20.43 9.97
7/19/2021 1:30:00 AM 12.38 54.284 0.042 6.72 19.72 9.98
7/19/2021 1:45:00 AM 12.35 54.23 0.042 6.71 19.77 9.99
7/19/2021 2:00:00 AM 12.32 54.176 0.042 6.65 20.48 9.99
7/19/2021 2:15:00 AM 12.3 54.14 0.042 6.72 27.65 10
7/19/2021 2:30:00 AM 12.27 54.086 0.042 6.73 19.76 10.01
7/19/2021 2:45:00 AM 12.25 54.05 0.042 6.68 19.43 10.01
7/19/2021 3:00:00 AM 12.23 54.014 0.042 6.73 17.82 10.01
7/19/2021 3:15:00 AM 12.21 53.978 0.042 6.67 17.91 10.02
7/19/2021 3:30:00 AM 12.19 53.942 0.042 6.74 18.86 10.03
7/19/2021 3:45:00 AM 12.18 53.924 0.042 6.68 18.58 10.02
7/19/2021 4:00:00 AM 12.16 53.888 0.042 6.71 60.99 10.02
7/19/2021 4:15:00 AM 12.15 53.87 0.042 6.73 19.27 10.02
7/19/2021 4:30:00 AM 12.13 53.834 0.042 6.73 20.02 10.03
7/19/2021 4:45:00 AM 12.11 53.798 0.042 6.69 21.17 10.03
7/19/2021 5:00:00 AM 12.09 53.762 0.042 6.74 18.24 10.04
7/19/2021 5:15:00 AM 12.07 53.726 0.042 6.69 18.37 10.04
7/19/2021 5:30:00 AM 12.05 53.69 0.042 6.74 17.45 10.05
7/19/2021 5:45:00 AM 12.02 53.636 0.042 6.68 18.28 10.05
7/19/2021 6:00:00 AM 12.01 53.618 0.042 6.7 18.22 10.06
7/19/2021 6:15:00 AM 12 53.6 0.042 6.7 17.63 10.06
7/19/2021 6:30:00 AM 11.98 53.564 0.042 6.74 17.56 10.07
7/19/2021 6:45:00 AM 11.97 53.546 0.042 6.7 19.13 10.08
7/19/2021 7:00:00 AM 11.96 53.528 0.042 6.72 19.15 10.1
7/19/2021 7:15:00 AM 11.95 53.51 0.042 6.7 16.47 10.11
7/19/2021 7:30:00 AM 11.95 53.51 0.042 6.76 17.77 10.12
7/19/2021 7:45:00 AM 11.95 53.51 0.042 6.72 19.5 10.14
7/19/2021 8:00:00 AM 11.95 53.51 0.042 6.75 17.37 10.16
7/19/2021 8:15:00 AM 11.96 53.528 0.042 6.78 18.62 10.17
7/19/2021 8:30:00 AM 11.97 53.546 0.042 6.74 18.23 10.19
7/19/2021 8:45:00 AM 11.98 53.564 0.042 6.79 17.04 10.2
7/19/2021 9:00:00 AM 12 53.6 0.042 6.8 15.85 10.21
7/19/2021 9:15:00 AM 12.04 53.672 0.042 6.77 16.25 10.22
7/19/2021 9:30:00 AM 12.08 53.744 0.042 6.79 16.19 10.22
7/19/2021 9:45:00 AM 12.13 53.834 0.042 6.79 14.68 10.22
7/19/2021 10:00:00 AM 12.19 53.942 0.042 6.8 15.94 10.22
7/19/2021 10:15:00 AM 12.26 54.068 0.042 6.79 18.59 10.22
7/19/2021 10:30:00 AM 12.33 54.194 0.042 6.79 17.64 10.22
7/19/2021 10:45:00 AM 12.42 54.356 0.042 6.81 18.16 10.21
7/19/2021 11:00:00 AM 12.5 54.5 0.042 6.84 18.15 10.21
7/19/2021 11:15:00 AM 12.59 54.662 0.042 6.84 13.06 10.19
7/19/2021 11:30:00 AM 12.69 54.842 0.042 6.86 12.6 10.17
7/19/2021 11:45:00 AM 12.79 55.022 0.042 6.83 13.01 10.16
7/19/2021 12:00:00 PM 12.87 55.166 0.041 6.87 16.01 10.15
7/19/2021 12:15:00 PM 12.98 55.364 0.042 6.83 14.79 10.14
7/19/2021 12:30:00 PM 13.11 55.598 0.042 6.87 15.34 10.11
7/19/2021 12:45:00 PM 13.24 55.832 0.041 6.86 14.51 10.09
7/19/2021 1:00:00 PM 13.32 55.976 0.042 6.9 15.47 10.06
7/19/2021 1:15:00 PM 13.41 56.138 0.041 6.89 15.75 10.05
7/19/2021 1:30:00 PM 13.5 56.3 0.041 6.88 15.91 10.03
7/19/2021 1:45:00 PM 13.58 56.444 0.041 6.9 15.28 9.99
7/19/2021 2:00:00 PM 13.57 56.426 0.041 6.88 14.58 9.97
7/19/2021 2:15:00 PM 13.6 56.48 0.041 6.85 14.75 9.94
7/19/2021 2:30:00 PM 13.7 56.66 0.041 6.88 15.46 9.93
7/19/2021 2:45:00 PM 13.82 56.876 0.041 6.89 15.23 9.93
7/19/2021 3:00:00 PM 13.91 57.038 0.041 6.86 14.9 9.92
7/19/2021 3:15:00 PM 14 57.2 0.041 6.9 15.06 9.89
7/19/2021 3:30:00 PM 14.1 57.38 0.041 6.92 14.77 9.89
7/19/2021 3:45:00 PM 14.12 57.416 0.042 6.9 14.29 9.87
7/19/2021 4:00:00 PM 14.12 57.416 0.041 6.88 16.38 9.86
7/19/2021 4:15:00 PM 14.16 57.488 0.041 6.91 15.75 9.85
7/19/2021 4:30:00 PM 14.15 57.47 0.041 6.91 12.94 9.84
7/19/2021 4:45:00 PM 14.14 57.452 0.042 6.91 11.72 9.83
7/19/2021 5:00:00 PM 14.15 57.47 0.041 6.91 11.37 9.82
7/19/2021 5:15:00 PM 14.15 57.47 0.041 6.91 11.77 9.81
7/19/2021 5:30:00 PM 14.12 57.416 0.041 6.89 12.37 9.8
7/19/2021 5:45:00 PM 14.1 57.38 0.041 6.87 11.98 9.8
7/19/2021 6:00:00 PM 14.07 57.326 0.041 6.87 11.8 9.78
7/19/2021 6:15:00 PM 14.03 57.254 0.041 6.86 12.47 9.78
7/19/2021 6:30:00 PM 13.97 57.146 0.042 6.88 11.93 9.78
7/19/2021 6:45:00 PM 13.93 57.074 0.042 6.87 12.31 9.77
7/19/2021 7:00:00 PM 13.87 56.966 0.042 6.82 11.21 9.77
7/19/2021 7:15:00 PM 13.82 56.876 0.042 6.85 11.74 9.77
7/19/2021 7:30:00 PM 13.76 56.768 0.042 6.82 12.13 9.76
7/19/2021 7:45:00 PM 13.7 56.66 0.042 6.79 12.02 9.75
7/19/2021 8:00:00 PM 13.64 56.552 0.042 6.82 12.01 9.75
7/19/2021 8:15:00 PM 13.57 56.426 0.042 6.81 13.41 9.76
7/19/2021 8:30:00 PM 13.5 56.3 0.042 6.8 12.63 9.74
7/19/2021 8:45:00 PM 13.43 56.174 0.042 6.73 12.37 9.74
7/19/2021 9:00:00 PM 13.36 56.048 0.042 6.75 12.2 9.74
7/19/2021 9:15:00 PM 13.28 55.904 0.042 6.73 12.84 9.75
7/19/2021 9:30:00 PM 13.22 55.796 0.042 6.73 12.51 9.76
7/19/2021 9:45:00 PM 13.15 55.67 0.042 6.75 12.79 9.78
7/19/2021 10:00:00 PM 13.08 55.544 0.042 6.69 13.02 9.79
7/19/2021 10:15:00 PM 13.02 55.436 0.042 6.74 14.04 9.81
7/19/2021 10:30:00 PM 12.95 55.31 0.042 6.74 13.31 9.82
7/19/2021 10:45:00 PM 12.9 55.22 0.042 6.74 13.45 9.84
7/19/2021 11:00:00 PM 12.84 55.112 0.042 6.67 13.13 9.85
7/19/2021 11:15:00 PM 12.78 55.004 0.042 6.73 14.62 9.86
7/19/2021 11:30:00 PM 12.72 54.896 0.042 6.73 13.95 9.86
7/19/2021 11:45:00 PM 12.67 54.806 0.042 6.71 14.56 9.88
7/20/2021 12:00:00 AM 12.62 54.716 0.042 6.7 13.85 9.89
7/20/2021 12:15:00 AM 12.57 54.626 0.042 6.7 13.65 9.9
7/20/2021 12:30:00 AM 12.52 54.536 0.042 6.7 14.52 9.92
7/20/2021 12:45:00 AM 12.48 54.464 0.042 6.72 17.58 9.92
7/20/2021 1:00:00 AM 12.43 54.374 0.042 6.73 14.1 9.94
7/20/2021 1:15:00 AM 12.39 54.302 0.042 6.73 14.01 9.95
7/20/2021 1:30:00 AM 12.35 54.23 0.042 6.73 14.49 9.96
7/20/2021 1:45:00 AM 12.31 54.158 0.042 6.73 15.08 9.97
7/20/2021 2:00:00 AM 12.28 54.104 0.043 6.73 14.05 9.98
7/20/2021 2:15:00 AM 12.26 54.068 0.042 6.74 13.9 9.98
7/20/2021 2:30:00 AM 12.23 54.014 0.042 6.74 14.39 9.98
7/20/2021 2:45:00 AM 12.2 53.96 0.042 6.74 14.26 9.99
7/20/2021 3:00:00 AM 12.17 53.906 0.042 6.75 14.9 9.99
7/20/2021 3:15:00 AM 12.14 53.852 0.042 6.69 13.66 10
7/20/2021 3:30:00 AM 12.12 53.816 0.042 6.76 14.33 10
7/20/2021 3:45:00 AM 12.1 53.78 0.042 6.7 14.21 10.01
7/20/2021 4:00:00 AM 12.08 53.744 0.042 6.73 22.39 10.01
7/20/2021 4:15:00 AM 12.05 53.69 0.042 6.74 14.38 10.02
7/20/2021 4:30:00 AM 12.04 53.672 0.042 6.77 14.72 10.02
7/20/2021 4:45:00 AM 12.02 53.636 0.042 6.72 14.53 10.02
7/20/2021 5:00:00 AM 12.01 53.618 0.042 6.73 15.51 10.02
7/20/2021 5:15:00 AM 11.99 53.582 0.042 6.77 14.57 10.03
7/20/2021 5:30:00 AM 11.98 53.564 0.042 6.75 17.58 10.03
7/20/2021 5:45:00 AM 11.97 53.546 0.042 6.71 20.09 10.04
7/20/2021 6:00:00 AM 11.95 53.51 0.042 6.76 19.69 10.04
7/20/2021 6:15:00 AM 11.94 53.492 0.042 6.71 19.42 10.05
7/20/2021 6:30:00 AM 11.93 53.474 0.042 6.76 19.25 10.06
7/20/2021 6:45:00 AM 11.92 53.456 0.042 6.73 18.84 10.07
7/20/2021 7:00:00 AM 11.92 53.456 0.042 6.78 30.65 10.08
7/20/2021 7:15:00 AM 11.92 53.456 0.042 6.79 29.92 10.1
7/20/2021 7:30:00 AM 11.92 53.456 0.042 6.77 32.75 10.11
7/20/2021 7:45:00 AM 11.92 53.456 0.042 6.75 28.79 10.13
7/20/2021 8:00:00 AM 11.92 53.456 0.042 6.8 28.21 10.14
7/20/2021 8:15:00 AM 11.93 53.474 0.042 6.75 28.04 10.16
7/20/2021 8:30:00 AM 11.95 53.51 0.042 6.82 28.43 10.17
7/20/2021 8:45:00 AM 11.99 53.582 0.042 6.76 28.15 10.19
7/20/2021 9:00:00 AM 12.02 53.636 0.042 6.83 28.22 10.2
7/20/2021 9:15:00 AM 12.06 53.708 0.042 6.81 28.46 10.22
7/20/2021 9:30:00 AM 12.1 53.78 0.042 6.85 28.18 10.22
7/20/2021 9:45:00 AM 12.15 53.87 0.042 6.8 28.24 10.24
7/20/2021 10:00:00 AM 12.21 53.978 0.042 6.84 28.43 10.25
7/20/2021 10:15:00 AM 12.3 54.14 0.042 6.84 28.07 10.25
7/20/2021 10:30:00 AM 12.38 54.284 0.042 6.88 28.6 10.24
7/20/2021 10:45:00 AM 12.47 54.446 0.042 6.86 28.54 10.23
7/20/2021 11:00:00 AM 12.55 54.59 0.042 6.86 29.9 10.21
7/20/2021 11:15:00 AM 12.64 54.752 0.042 6.9 28.54 10.19
7/20/2021 11:30:00 AM 12.68 54.824 0.042 6.91 28.58 10.18
7/20/2021 11:45:00 AM 12.78 55.004 0.042 6.9 28.52 10.18
7/20/2021 12:00:00 PM 12.88 55.184 0.042 6.92 28.06 10.16
7/20/2021 12:15:00 PM 12.96 55.328 0.042 6.93 28.37 10.15
7/20/2021 12:30:00 PM 13.03 55.454 0.042 6.87 26.07 10.13
7/20/2021 12:45:00 PM 13.14 55.652 0.042 6.94 27.11 10.12
7/20/2021 1:00:00 PM 13.23 55.814 0.042 6.94 28.48 10.11
7/20/2021 1:15:00 PM 13.35 56.03 0.042 6.89 29.03 10.07
7/20/2021 1:30:00 PM 13.49 56.282 0.042 6.94 28.84 10.06
7/20/2021 1:45:00 PM 13.6 56.48 0.042 6.96 29.3 10.05
7/20/2021 2:00:00 PM 13.66 56.588 0.042 6.93 28.94 10.04
7/20/2021 2:15:00 PM 13.79 56.822 0.042 6.95 27.68 10.01
7/20/2021 2:30:00 PM 13.91 57.038 0.042 6.97 28.53 9.98
7/20/2021 2:45:00 PM 14.02 57.236 0.042 6.92 28.33 9.96
7/20/2021 3:00:00 PM 14.16 57.488 0.042 6.95 28.43 9.94
7/20/2021 3:15:00 PM 14.28 57.704 0.042 6.99 28.52 9.9
7/20/2021 3:30:00 PM 14.41 57.938 0.042 6.93 28.38 9.88
7/20/2021 3:45:00 PM 14.5 58.1 0.042 6.99 28.41 9.85
7/20/2021 4:00:00 PM 14.53 58.154 0.042 6.99 29.96 9.83
7/20/2021 4:15:00 PM 14.55 58.19 0.042 6.98 28.98 9.8
7/20/2021 4:30:00 PM 14.57 58.226 0.042 6.98 29.27 9.79
7/20/2021 4:45:00 PM 14.56 58.208 0.042 6.93 29.69 9.77
7/20/2021 5:00:00 PM 14.54 58.172 0.042 6.97 28.64 9.76
7/20/2021 5:15:00 PM 14.53 58.154 0.042 6.97 28.85 9.76
7/20/2021 5:30:00 PM 14.49 58.082 0.042 6.97 29.49 9.74
7/20/2021 5:45:00 PM 14.45 58.01 0.042 6.96 29.33 9.73
7/20/2021 6:00:00 PM 14.41 57.938 0.042 6.95 26.33 9.72
7/20/2021 6:15:00 PM 14.37 57.866 0.042 6.88 18.69 9.71
7/20/2021 6:30:00 PM 14.33 57.794 0.042 6.9 17.1 9.7
7/20/2021 6:45:00 PM 14.29 57.722 0.042 6.92 18.81 9.69
7/20/2021 7:00:00 PM 14.26 57.668 0.042 6.91 17.6 9.68
7/20/2021 7:15:00 PM 14.22 57.596 0.042 6.89 17.13 9.66
7/20/2021 7:30:00 PM 14.18 57.524 0.042 6.88 17.37 9.64
7/20/2021 7:45:00 PM 14.13 57.434 0.043 6.87 17.57 9.62
7/20/2021 8:00:00 PM 14.07 57.326 0.043 6.78 19.88 9.6
7/20/2021 8:15:00 PM 14.01 57.218 0.043 6.84 18.66 9.59
7/20/2021 8:30:00 PM 13.94 57.092 0.043 6.79 18.72 9.58
7/20/2021 8:45:00 PM 13.87 56.966 0.043 6.81 18.2 9.6
7/20/2021 9:00:00 PM 13.8 56.84 0.043 6.79 19.22 9.6
7/20/2021 9:15:00 PM 13.74 56.732 0.043 6.79 18.36 9.59
7/20/2021 9:30:00 PM 13.68 56.624 0.043 6.74 17.31 9.61
7/20/2021 9:45:00 PM 13.63 56.534 0.043 6.76 18.74 9.63
7/20/2021 10:00:00 PM 13.69 56.642 0.043 6.77 18.96 9.63
7/20/2021 10:15:00 PM 13.73 56.714 0.042 6.77 21.8 9.61
7/20/2021 10:30:00 PM 13.69 56.642 0.042 6.78 24.03 9.61
7/20/2021 10:45:00 PM 13.64 56.552 0.042 6.79 22.03 9.61
7/20/2021 11:00:00 PM 13.58 56.444 0.043 6.79 25.26 9.61
7/20/2021 11:15:00 PM 13.53 56.354 0.042 6.77 23.8 9.6
7/20/2021 11:30:00 PM 13.49 56.282 0.043 6.78 26.24 9.6
7/20/2021 11:45:00 PM 13.45 56.21 0.043 6.77 26.43 9.61
7/21/2021 12:00:00 AM 13.41 56.138 0.043 6.71 24.58 9.62
7/21/2021 12:15:00 AM 13.36 56.048 0.044 6.78 25.27 9.63
7/21/2021 12:30:00 AM 13.32 55.976 0.044 6.79 25.45 9.65
7/21/2021 12:45:00 AM 13.28 55.904 0.044 6.8 24.79 9.67
7/21/2021 1:00:00 AM 13.26 55.868 0.044 6.75 23.7 9.68
7/21/2021 1:15:00 AM 13.22 55.796 0.044 6.81 27.02 9.69
7/21/2021 1:30:00 AM 13.18 55.724 0.044 6.81 24.62 9.7
7/21/2021 1:45:00 AM 13.14 55.652 0.043 6.73 24.96 9.71
7/21/2021 2:00:00 AM 13.09 55.562 0.043 6.79 25.05 9.72
7/21/2021 2:15:00 AM 13.05 55.49 0.043 6.79 25.8 9.73
7/21/2021 2:30:00 AM 13.02 55.436 0.044 6.79 24.07 9.73
7/21/2021 2:45:00 AM 12.98 55.364 0.044 6.8 24.75 9.74
7/21/2021 3:00:00 AM 12.94 55.292 0.044 6.8 24.69 9.74
7/21/2021 3:15:00 AM 12.92 55.256 0.044 6.78 24.03 9.75
7/21/2021 3:30:00 AM 12.9 55.22 0.044 6.8 24.28 9.75
7/21/2021 3:45:00 AM 12.87 55.166 0.044 6.81 23.2 9.76
7/21/2021 4:00:00 AM 12.85 55.13 0.044 6.78 26.12 9.77
7/21/2021 4:15:00 AM 12.83 55.094 0.044 6.81 23.84 9.76
7/21/2021 4:30:00 AM 12.81 55.058 0.044 6.82 22.45 9.78
7/21/2021 4:45:00 AM 12.78 55.004 0.044 6.8 23.91 9.78
7/21/2021 5:00:00 AM 12.76 54.968 0.044 6.81 23.74 9.79
7/21/2021 5:15:00 AM 12.73 54.914 0.044 6.75 23.73 9.79
7/21/2021 5:30:00 AM 12.7 54.86 0.044 6.79 23.64 9.81
7/21/2021 5:45:00 AM 12.67 54.806 0.044 6.81 23.29 9.81
7/21/2021 6:00:00 AM 12.64 54.752 0.044 6.81 23.36 9.82
7/21/2021 6:15:00 AM 12.62 54.716 0.044 6.81 23.97 9.82
7/21/2021 6:30:00 AM 12.6 54.68 0.044 6.81 22.64 9.85
7/21/2021 6:45:00 AM 12.58 54.644 0.044 6.82 24.37 9.86
7/21/2021 7:00:00 AM 12.56 54.608 0.044 6.75 23.03 9.87
7/21/2021 7:15:00 AM 12.54 54.572 0.044 6.81 27.17 9.89
7/21/2021 7:30:00 AM 12.53 54.554 0.044 6.8 22.81 9.91
7/21/2021 7:45:00 AM 12.53 54.554 0.044 6.82 23.22 9.95
7/21/2021 8:00:00 AM 12.52 54.536 0.044 6.83 21.11 9.98
7/21/2021 8:15:00 AM 12.53 54.554 0.044 6.84 21.18 10.01
7/21/2021 8:30:00 AM 12.54 54.572 0.044 6.78 21.68 10.05
7/21/2021 8:45:00 AM 12.55 54.59 0.044 6.87 21.93 10.07
7/21/2021 9:00:00 AM 12.58 54.644 0.043 6.85 19.33 10.08
7/21/2021 9:15:00 AM 12.63 54.734 0.044 6.87 20.89 10.07
7/21/2021 9:30:00 AM 12.64 54.752 0.044 6.87 20.71 10.07
7/21/2021 9:45:00 AM 12.63 54.734 0.044 6.88 19.89 10.09
7/21/2021 10:00:00 AM 12.62 54.716 0.044 6.89 19.92 10.09
7/21/2021 10:15:00 AM 12.68 54.824 0.043 6.89 19.64 10.1
7/21/2021 10:30:00 AM 12.71 54.878 0.043 6.92 20.07 10.12
7/21/2021 10:45:00 AM 12.78 55.004 0.043 6.91 18.44 10.12
7/21/2021 11:00:00 AM 12.9 55.22 0.044 6.91 18.69 10.13
7/21/2021 11:15:00 AM 12.97 55.346 0.043 6.92 19.01 10.12
7/21/2021 11:30:00 AM 13.06 55.508 0.043 6.93 19.02 10.11
7/21/2021 11:45:00 AM 13.23 55.814 0.043 6.95 18.44 10.08
7/21/2021 12:00:00 PM 13.34 56.012 0.043 6.92 19.19 10.07
7/21/2021 12:15:00 PM 13.4 56.12 0.043 6.97 17.78 10.06
7/21/2021 12:30:00 PM 13.47 56.246 0.043 6.98 19.23 10.05
7/21/2021 12:45:00 PM 13.53 56.354 0.043 6.98 19.4 10.03
7/21/2021 1:00:00 PM 13.57 56.426 0.043 6.93 19.41 10
7/21/2021 1:15:00 PM 13.58 56.444 0.043 6.98 19.62 9.96
7/21/2021 1:30:00 PM 13.53 56.354 0.043 6.97 19.29 9.94
7/21/2021 1:45:00 PM 13.57 56.426 0.043 6.98 19.76 9.99
7/21/2021 2:00:00 PM 13.6 56.48 0.043 6.99 19.43 10.01
7/21/2021 2:15:00 PM 13.75 56.75 0.043 6.96 18.46 10
7/21/2021 2:30:00 PM 13.96 57.128 0.043 7.01 18.83 9.96
7/21/2021 2:45:00 PM 14.1 57.38 0.043 6.97 18.69 9.95
7/21/2021 3:00:00 PM 14.2 57.56 0.043 7.01 18.82 9.94
7/21/2021 3:15:00 PM 14.31 57.758 0.043 7.03 19.73 9.93
7/21/2021 3:30:00 PM 14.45 58.01 0.043 7.03 19.14 9.9
7/21/2021 3:45:00 PM 14.39 57.902 0.043 7.03 19.65 9.87
7/21/2021 4:00:00 PM 14.46 58.028 0.043 6.98 19.98 9.86
7/21/2021 4:15:00 PM 14.4 57.92 0.043 7.03 20.2 9.85
7/21/2021 4:30:00 PM 14.41 57.938 0.043 7.02 19.04 9.83
7/21/2021 4:45:00 PM 14.46 58.028 0.043 7.02 19.73 9.82
7/21/2021 5:00:00 PM 14.42 57.956 0.043 7.01 19.1 9.81
7/21/2021 5:15:00 PM 14.44 57.992 0.043 7.01 20.14 9.79
7/21/2021 5:30:00 PM 14.36 57.848 0.043 7.01 19.2 9.79
7/21/2021 5:45:00 PM 14.3 57.74 0.043 7 19.42 9.77
7/21/2021 6:00:00 PM 14.27 57.686 0.043 6.98 19.25 9.77
7/21/2021 6:15:00 PM 14.16 57.488 0.043 6.98 18.91 9.75
7/21/2021 6:30:00 PM 14.09 57.362 0.043 6.92 17.98 9.73
7/21/2021 6:45:00 PM 14 57.2 0.043 6.97 17.29 9.73
7/21/2021 7:00:00 PM 13.92 57.056 0.043 6.95 16.94 9.73
7/21/2021 7:15:00 PM 13.84 56.912 0.043 6.91 19.02 9.74
7/21/2021 7:30:00 PM 13.77 56.786 0.043 6.95 17.75 9.75
7/21/2021 7:45:00 PM 13.72 56.696 0.043 6.92 18.34 9.75
7/21/2021 8:00:00 PM 13.65 56.57 0.043 6.93 19.06 9.75
7/21/2021 8:15:00 PM 13.59 56.462 0.043 6.91 17.46 9.74
7/21/2021 8:30:00 PM 13.52 56.336 0.044 6.91 17.09 9.74
7/21/2021 8:45:00 PM 13.45 56.21 0.044 6.9 17.55 9.72
7/21/2021 9:00:00 PM 13.39 56.102 0.043 6.89 17.14 9.72
7/21/2021 9:15:00 PM 13.34 56.012 0.044 6.88 17.54 9.73
7/21/2021 9:30:00 PM 13.28 55.904 0.044 6.88 17.19 9.73
7/21/2021 9:45:00 PM 13.23 55.814 0.044 6.81 19.96 9.74
7/21/2021 10:00:00 PM 13.17 55.706 0.044 6.86 14.23 9.76
7/21/2021 10:15:00 PM 13.12 55.616 0.044 6.86 17.5 9.77
7/21/2021 10:30:00 PM 13.06 55.508 0.044 6.87 16.08 9.78
7/21/2021 10:45:00 PM 13 55.4 0.044 6.86 16.12 9.8
7/21/2021 11:00:00 PM 12.94 55.292 0.044 6.85 18.11 9.82
7/21/2021 11:15:00 PM 12.88 55.184 0.044 6.85 18.12 9.82
7/21/2021 11:30:00 PM 12.82 55.076 0.044 6.86 209.8 9.83
7/21/2021 11:45:00 PM 12.76 54.968 0.044 6.86 17.59 9.84
7/22/2021 12:00:00 AM 12.69 54.842 0.044 6.87 15.06 9.86
7/22/2021 12:15:00 AM 12.63 54.734 0.044 6.79 16.09 9.88
7/22/2021 12:30:00 AM 12.57 54.626 0.044 6.86 15.14 9.9
7/22/2021 12:45:00 AM 12.5 54.5 0.044 6.82 14.74 9.91
7/22/2021 1:00:00 AM 12.44 54.392 0.044 6.85 15.71 9.94
7/22/2021 1:15:00 AM 12.37 54.266 0.044 6.83 15.63 9.95
7/22/2021 1:30:00 AM 12.31 54.158 0.044 6.81 16.66 9.96
7/22/2021 1:45:00 AM 12.26 54.068 0.044 6.86 14.69 9.98
7/22/2021 2:00:00 AM 12.21 53.978 0.044 6.85 15.82 9.99
7/22/2021 2:15:00 AM 12.16 53.888 0.044 6.79 15.26 10
7/22/2021 2:30:00 AM 12.12 53.816 0.044 6.82 15.57 10.01
7/22/2021 2:45:00 AM 12.07 53.726 0.044 6.83 52.04 10.02
7/22/2021 3:00:00 AM 12.02 53.636 0.044 6.86 24.85 10.04
7/22/2021 3:15:00 AM 11.98 53.564 0.044 6.86 19.92 10.05
7/22/2021 3:30:00 AM 11.94 53.492 0.044 6.79 23.12 10.06
7/22/2021 3:45:00 AM 11.9 53.42 0.044 6.86 20.21 10.07
7/22/2021 4:00:00 AM 11.85 53.33 0.044 6.86 16.38 10.08
7/22/2021 4:15:00 AM 11.81 53.258 0.044 6.86 16.92 10.1
7/22/2021 4:30:00 AM 11.76 53.168 0.044 6.78 17.16 10.11
7/22/2021 4:45:00 AM 11.71 53.078 0.044 6.86 15.93 10.13
7/22/2021 5:00:00 AM 11.67 53.006 0.044 6.85 19.09 10.14
7/22/2021 5:15:00 AM 11.62 52.916 0.044 6.87 24.33 10.16
7/22/2021 5:30:00 AM 11.58 52.844 0.044 6.86 15.48 10.15
7/22/2021 5:45:00 AM 11.54 52.772 0.044 6.86 19.12 10.17
7/22/2021 6:00:00 AM 11.5 52.7 0.044 6.86 29.61 10.17
7/22/2021 6:15:00 AM 11.46 52.628 0.044 6.87 16.18 10.18
7/22/2021 6:30:00 AM 11.42 52.556 0.044 6.79 25.99 10.19
7/22/2021 6:45:00 AM 11.39 52.502 0.044 6.87 15.69 10.23
7/22/2021 7:00:00 AM 11.36 52.448 0.044 6.87 14.32 10.24
7/22/2021 7:15:00 AM 11.34 52.412 0.044 6.88 19.36 10.29
7/22/2021 7:30:00 AM 11.31 52.358 0.044 6.84 19.09 10.31
7/22/2021 7:45:00 AM 11.3 52.34 0.044 6.89 19 10.35
7/22/2021 8:00:00 AM 11.28 52.304 0.044 6.89 16.79 10.37
7/22/2021 8:15:00 AM 11.28 52.304 0.044 6.91 16.61 10.39
7/22/2021 8:30:00 AM 11.29 52.322 0.044 6.92 23.4 10.42
7/22/2021 8:45:00 AM 11.3 52.34 0.044 6.93 12.22 10.45
7/22/2021 9:00:00 AM 11.32 52.376 0.044 6.94 12.16 10.47
7/22/2021 9:15:00 AM 11.35 52.43 0.044 6.95 11.33 10.49
7/22/2021 9:30:00 AM 11.37 52.466 0.044 6.96 14.14 10.5
7/22/2021 9:45:00 AM 11.44 52.592 0.044 6.89 12.49 10.5
7/22/2021 10:00:00 AM 11.49 52.682 0.044 6.98 11.56 10.51
7/22/2021 10:15:00 AM 11.6 52.88 0.044 6.99 14.91 10.53
7/22/2021 10:30:00 AM 11.71 53.078 0.044 6.99 15.27 10.52
7/22/2021 10:45:00 AM 11.84 53.312 0.044 7 14.78 10.49
7/22/2021 11:00:00 AM 11.97 53.546 0.044 7.01 12.76 10.48
7/22/2021 11:15:00 AM 12.07 53.726 0.044 7 13.43 10.48
7/22/2021 11:30:00 AM 12.2 53.96 0.044 7.04 14.85 10.46
7/22/2021 11:45:00 AM 12.29 54.122 0.044 7.04 18.6 10.44
7/22/2021 12:00:00 PM 12.37 54.266 0.044 7.05 17.37 10.44
7/22/2021 12:15:00 PM 12.47 54.446 0.044 7.06 14.87 10.42
7/22/2021 12:30:00 PM 12.58 54.644 0.044 7.06 14.54 10.37
7/22/2021 12:45:00 PM 12.76 54.968 0.044 7.06 13.99 10.34
7/22/2021 1:00:00 PM 12.82 55.076 0.044 7.07 14.42 10.35
7/22/2021 1:15:00 PM 12.95 55.31 0.044 7 13.79 10.34
7/22/2021 1:30:00 PM 13.17 55.706 0.043 7.07 15.3 10.3
7/22/2021 1:45:00 PM 13.29 55.922 0.044 7.08 16.32 10.24
7/22/2021 2:00:00 PM 13.37 56.066 0.044 7.08 19.18 10.22
7/22/2021 2:15:00 PM 13.6 56.48 0.044 7.09 16.26 10.22
7/22/2021 2:30:00 PM 13.75 56.75 0.043 7.08 21.94 10.17
7/22/2021 2:45:00 PM 13.89 57.002 0.044 7.04 23.82 10.13
7/22/2021 3:00:00 PM 13.92 57.056 0.044 7.09 23.98 10.1
7/22/2021 3:15:00 PM 13.94 57.092 0.044 7.02 22.96 10.08
7/22/2021 3:30:00 PM 13.87 56.966 0.044 7.06 23.24 10.04
7/22/2021 3:45:00 PM 13.93 57.074 0.044 7.08 24.75 10.05
7/22/2021 4:00:00 PM 13.96 57.128 0.043 7.08 23.53 10.04
7/22/2021 4:15:00 PM 14.05 57.29 0.043 7.09 23.65 10.02
7/22/2021 4:30:00 PM 14.14 57.452 0.044 7.09 25.55 10
7/22/2021 4:45:00 PM 14.22 57.596 0.044 7.08 25.96 9.96
7/22/2021 5:00:00 PM 14.26 57.668 0.044 7.08 25.72 9.94
7/22/2021 5:15:00 PM 14.28 57.704 0.043 7.07 25.74 9.95
7/22/2021 5:30:00 PM 14.23 57.614 0.044 7.07 26.2 9.92
7/22/2021 5:45:00 PM 14.22 57.596 0.044 7.06 24.35 9.89
7/22/2021 6:00:00 PM 14.17 57.506 0.044 7.05 26.49 9.88
7/22/2021 6:15:00 PM 14.14 57.452 0.044 7.04 25.23 9.85
7/22/2021 6:30:00 PM 14.1 57.38 0.044 6.96 25.58 9.83
7/22/2021 6:45:00 PM 14.04 57.272 0.044 7.02 25.75 9.8
7/22/2021 7:00:00 PM 13.99 57.182 0.044 7 25.76 9.8
7/22/2021 7:15:00 PM 13.94 57.092 0.044 6.92 26.72 9.79
7/22/2021 7:30:00 PM 13.9 57.02 0.044 6.94 26.46 9.77
7/22/2021 7:45:00 PM 13.84 56.912 0.044 6.97 26.54 9.76
7/22/2021 8:00:00 PM 13.79 56.822 0.044 6.96 25.75 9.76
7/22/2021 8:15:00 PM 13.74 56.732 0.044 6.96 25.99 9.75
7/22/2021 8:30:00 PM 13.68 56.624 0.044 6.93 19.45 9.74
7/22/2021 8:45:00 PM 13.62 56.516 0.044 6.94 20.47 9.74
7/22/2021 9:00:00 PM 13.55 56.39 0.045 6.92 21.87 9.73
7/22/2021 9:15:00 PM 13.49 56.282 0.045 6.86 52.72 9.73
7/22/2021 9:30:00 PM 13.42 56.156 0.045 6.87 18.2 9.73
7/22/2021 9:45:00 PM 13.36 56.048 0.045 6.87 17.14 9.74
7/22/2021 10:00:00 PM 13.3 55.94 0.045 6.9 17.28 9.74
7/22/2021 10:15:00 PM 13.24 55.832 0.045 6.86 18.33 9.76
7/22/2021 10:30:00 PM 13.18 55.724 0.045 6.89 16.16 9.77
7/22/2021 10:45:00 PM 13.12 55.616 0.045 6.89 16.83 9.79
7/22/2021 11:00:00 PM 13.06 55.508 0.045 6.9 20.42 9.81
7/22/2021 11:15:00 PM 13 55.4 0.045 6.87 17.5 9.83
7/22/2021 11:30:00 PM 12.95 55.31 0.045 6.89 18.69 9.83
7/22/2021 11:45:00 PM 12.89 55.202 0.045 6.89 20.62 9.85
7/23/2021 12:00:00 AM 12.84 55.112 0.045 6.83 19.58 9.86
7/23/2021 12:15:00 AM 12.78 55.004 0.045 6.86 18.02 9.86
7/23/2021 12:30:00 AM 12.72 54.896 0.045 6.89 18.08 9.88
7/23/2021 12:45:00 AM 12.67 54.806 0.045 6.89 18.02 9.89
7/23/2021 1:00:00 AM 12.62 54.716 0.045 6.88 19.59 9.9
7/23/2021 1:15:00 AM 12.57 54.626 0.045 6.89 18.88 9.93
7/23/2021 1:30:00 AM 12.52 54.536 0.045 6.83 18.25 9.94
7/23/2021 1:45:00 AM 12.49 54.482 0.045 6.89 18.45 9.95
7/23/2021 2:00:00 AM 12.45 54.41 0.045 6.89 19.97 9.97
7/23/2021 2:15:00 AM 12.41 54.338 0.045 6.89 20.06 9.96
7/23/2021 2:30:00 AM 12.36 54.248 0.045 6.82 20.09 9.97
7/23/2021 2:45:00 AM 12.31 54.158 0.045 6.85 20.12 9.99
7/23/2021 3:00:00 AM 12.26 54.068 0.045 6.89 19.2 10
7/23/2021 3:15:00 AM 12.22 53.996 0.045 6.82 19.38 10.01
7/23/2021 3:30:00 AM 12.18 53.924 0.045 6.89 19.4 10.01
7/23/2021 3:45:00 AM 12.14 53.852 0.045 6.88 19.86 10.02
7/23/2021 4:00:00 AM 12.1 53.78 0.045 6.88 19.62 10.02
7/23/2021 4:15:00 AM 12.07 53.726 0.045 6.88 19.93 10.03
7/23/2021 4:30:00 AM 12.04 53.672 0.045 6.88 19.4 10.04
7/23/2021 4:45:00 AM 12 53.6 0.045 6.82 19.66 10.06
7/23/2021 5:00:00 AM 11.97 53.546 0.045 6.84 19.6 10.07
7/23/2021 5:15:00 AM 11.93 53.474 0.045 6.88 19.81 10.08
7/23/2021 5:30:00 AM 11.89 53.402 0.045 6.85 19.9 10.09
7/23/2021 5:45:00 AM 11.85 53.33 0.045 6.88 19.77 10.1
7/23/2021 6:00:00 AM 11.8 53.24 0.045 6.86 19.66 10.11
7/23/2021 6:15:00 AM 11.75 53.15 0.045 6.88 18.94 10.13
7/23/2021 6:30:00 AM 11.72 53.096 0.045 6.87 14.28 10.16
7/23/2021 6:45:00 AM 11.68 53.024 0.045 6.88 11.26 10.19
7/23/2021 7:00:00 AM 11.66 52.988 0.045 6.89 13.48 10.22
7/23/2021 7:15:00 AM 11.64 52.952 0.045 6.9 12.34 10.25
7/23/2021 7:30:00 AM 11.63 52.934 0.045 6.92 12.09 10.29
7/23/2021 7:45:00 AM 11.63 52.934 0.045 6.91 15.46 10.3
7/23/2021 8:00:00 AM 11.63 52.934 0.045 6.93 14 10.34
7/23/2021 8:15:00 AM 11.62 52.916 0.045 6.88 14.07 10.37
7/23/2021 8:30:00 AM 11.64 52.952 0.045 6.95 15.4 10.38
7/23/2021 8:45:00 AM 11.68 53.024 0.045 6.96 15.36 10.39
7/23/2021 9:00:00 AM 11.73 53.114 0.045 6.97 14.84 10.39
7/23/2021 9:15:00 AM 11.79 53.222 0.045 6.98 14.28 10.41
7/23/2021 9:30:00 AM 11.87 53.366 0.045 6.99 13.16 10.4
7/23/2021 9:45:00 AM 11.95 53.51 0.045 6.96 14.66 10.39
7/23/2021 10:00:00 AM 12.06 53.708 0.045 7 15.18 10.38
7/23/2021 10:15:00 AM 12.17 53.906 0.045 7.01 14.17 10.37
7/23/2021 10:30:00 AM 12.31 54.158 0.045 7.02 14.34 10.37